Provisional Data: Pine Creek near Telescope, PA


Please select a monitoring station.
Please select start date.
Please select start date.

Toggle Unit: C/F Toggle Unit: C/F
Sample Time Temperature (C) Temperature (F) Specific Conductivity (mS/cm) pH   Turbidity (NTU+) DO (mg/L)
12/4/2020 12:00:00 AM 3.33 37.994 0.082 7.21 3.54 12.58
12/4/2020 12:15:00 AM 3.33 37.994 0.082 7.22 3.54 12.58
12/4/2020 12:30:00 AM 3.33 37.994 0.082 7.22 3.5 12.58
12/4/2020 12:45:00 AM 3.33 37.994 0.082 7.21 3.57 12.58
12/4/2020 1:00:00 AM 3.33 37.994 0.082 7.2 3.53 12.57
12/4/2020 1:15:00 AM 3.34 38.012 0.082 7.19 3.56 12.58
12/4/2020 1:30:00 AM 3.34 38.012 0.082 7.19 3.58 12.57
12/4/2020 1:45:00 AM 3.35 38.03 0.082 7.19 3.43 12.57
12/4/2020 2:00:00 AM 3.35 38.03 0.082 7.21 3.39 12.56
12/4/2020 2:15:00 AM 3.36 38.048 0.082 7.21 3.58 12.56
12/4/2020 2:30:00 AM 3.36 38.048 0.082 7.22 3.82 12.55
12/4/2020 2:45:00 AM 3.34 38.012 0.082 7.2 3.5 12.55
12/4/2020 3:00:00 AM 3.33 37.994 0.082 7.21 3.56 12.56
12/4/2020 3:15:00 AM 3.32 37.976 0.082 7.21 3.41 12.56
12/4/2020 3:30:00 AM 3.32 37.976 0.082 7.2 3.41 12.56
12/4/2020 3:45:00 AM 3.33 37.994 0.082 7.19 3.49 12.56
12/4/2020 4:00:00 AM 3.34 38.012 0.082 7.22 3.48 12.55
12/4/2020 4:15:00 AM 3.35 38.03 0.082 7.21 3.37 12.55
12/4/2020 4:30:00 AM 3.35 38.03 0.082 7.21 3.45 12.55
12/4/2020 4:45:00 AM 3.35 38.03 0.082 7.21 3.48 12.55
12/4/2020 5:00:00 AM 3.35 38.03 0.082 7.21 3.46 12.55
12/4/2020 5:15:00 AM 3.34 38.012 0.082 7.2 3.43 12.55
12/4/2020 5:30:00 AM 3.34 38.012 0.082 7.18 3.44 12.55
12/4/2020 5:45:00 AM 3.34 38.012 0.082 7.22 3.59 12.55
12/4/2020 6:00:00 AM 3.35 38.03 0.082 7.19 3.4 12.55
12/4/2020 6:15:00 AM 3.36 38.048 0.082 7.2 3.36 12.55
12/4/2020 6:30:00 AM 3.37 38.066 0.082 7.21 3.38 12.55
12/4/2020 6:45:00 AM 3.39 38.102 0.082 7.2 3.38 12.54
12/4/2020 7:00:00 AM 3.4 38.12 0.082 7.2 3.58 12.54
12/4/2020 7:15:00 AM 3.41 38.138 0.082 7.2 3.33 12.53
12/4/2020 7:30:00 AM 3.43 38.174 0.082 7.21 3.38 12.54
12/4/2020 7:45:00 AM 3.44 38.192 0.082 7.19 3.44 12.56
12/4/2020 8:00:00 AM 3.46 38.228 0.082 7.22 3.48 12.61
12/4/2020 8:15:00 AM 3.51 38.318 0.082 7.25 3.31 12.74
12/4/2020 8:30:00 AM 3.57 38.426 0.081 7.32 3.27 12.85
12/4/2020 8:45:00 AM 3.63 38.534 0.081 7.33 3.25 12.91
12/4/2020 9:00:00 AM 3.69 38.642 0.081 7.36 3.26 12.94
12/4/2020 9:15:00 AM 3.76 38.768 0.081 7.42 3.33 12.97
12/4/2020 9:30:00 AM 3.81 38.858 0.081 7.45 3.37 12.98
12/4/2020 9:45:00 AM 3.87 38.966 0.081 7.45 3.29 12.98
12/4/2020 10:00:00 AM 3.92 39.056 0.081 7.47 3.39 12.95
12/4/2020 10:15:00 AM 4 39.2 0.081 7.48 3.33 12.97
12/4/2020 10:30:00 AM 4.08 39.344 0.08 7.52 3.3 12.98
12/4/2020 10:45:00 AM 4.15 39.47 0.08 7.52 3.28 12.95
12/4/2020 11:00:00 AM 4.24 39.632 0.08 7.52 3.25 12.9
12/4/2020 11:15:00 AM 4.34 39.812 0.08 7.53 3.23 12.86
12/4/2020 11:30:00 AM 4.46 40.028 0.08 7.56 3.61 12.84
12/4/2020 11:45:00 AM 4.62 40.316 0.08 7.59 3.3 12.83
12/4/2020 12:00:00 PM 4.79 40.622 0.08 7.61 3.31 12.81
12/4/2020 12:15:00 PM 4.95 40.91 0.079 7.63 3.27 12.77
12/4/2020 12:30:00 PM 5.1 41.18 0.079 7.65 3.37 12.75
12/4/2020 12:45:00 PM 5.2 41.36 0.079 7.66 3.32 12.71
12/4/2020 1:00:00 PM 5.27 41.486 0.079 7.66 3.36 12.67
12/4/2020 1:15:00 PM 5.32 41.576 0.079 7.65 3.29 12.63
12/4/2020 1:30:00 PM 5.37 41.666 0.079 7.64 3.39 12.58
12/4/2020 1:45:00 PM 5.4 41.72 0.079 7.62 3.29 12.52
12/4/2020 2:00:00 PM 5.42 41.756 0.079 7.58 3.3 12.44
12/4/2020 2:15:00 PM 5.45 41.81 0.079 7.59 3.47 12.44
12/4/2020 2:30:00 PM 5.48 41.864 0.079 7.58 3.33 12.43
12/4/2020 2:45:00 PM 5.5 41.9 0.079 7.58 4.55 12.38
12/4/2020 3:00:00 PM 5.52 41.936 0.079 7.59 5.73 12.36
12/4/2020 3:15:00 PM 5.53 41.954 0.08 7.51 3.29 12.29
12/4/2020 3:30:00 PM 5.52 41.936 0.079 7.47 3.25 12.19
12/4/2020 3:45:00 PM 5.51 41.918 0.079 7.45 3.35 12.14
12/4/2020 4:00:00 PM 5.49 41.882 0.079 7.41 3.62 12.08
12/4/2020 4:15:00 PM 5.46 41.828 0.079 7.38 3.39 12.01
12/4/2020 4:30:00 PM 5.44 41.792 0.079 7.35 3.34 11.96
12/4/2020 4:45:00 PM 5.42 41.756 0.079 7.33 3.42 11.91
12/4/2020 5:00:00 PM 5.39 41.702 0.08 7.28 3.51 11.86
12/4/2020 5:15:00 PM 5.36 41.648 0.082 7.3 3.56 11.85
12/4/2020 5:30:00 PM 5.34 41.612 0.08 7.25 3.81 11.83
12/4/2020 5:45:00 PM 5.29 41.522 0.08 7.28 3.64 11.83
12/4/2020 6:00:00 PM 5.23 41.414 0.08 7.24 3.62 11.83
12/4/2020 6:15:00 PM 5.18 41.324 0.08 7.27 3.66 11.84
12/4/2020 6:30:00 PM 5.13 41.234 0.081 7.23 3.62 11.85
12/4/2020 6:45:00 PM 5.07 41.126 0.081 7.24 3.67 11.87
12/4/2020 7:00:00 PM 5.01 41.018 0.081 7.23 3.44 11.89
12/4/2020 7:15:00 PM 4.95 40.91 0.081 7.25 3.59 11.91
12/4/2020 7:30:00 PM 4.89 40.802 0.081 7.21 3.49 11.92
12/4/2020 7:45:00 PM 4.84 40.712 0.081 7.24 3.65 11.94
12/4/2020 8:00:00 PM 4.79 40.622 0.081 7.21 3.49 11.96
12/4/2020 8:15:00 PM 4.74 40.532 0.081 7.2 3.55 11.98
12/4/2020 8:30:00 PM 4.7 40.46 0.081 7.23 3.6 12
12/4/2020 8:45:00 PM 4.67 40.406 0.081 7.2 3.56 12.02
12/4/2020 9:00:00 PM 4.64 40.352 0.081 7.2 3.58 12.03
12/4/2020 9:15:00 PM 4.61 40.298 0.083 7.2 3.57 12.05
12/4/2020 9:30:00 PM 4.58 40.244 0.082 7.21 3.61 12.06
12/4/2020 9:45:00 PM 4.56 40.208 0.082 7.19 3.59 12.07
12/4/2020 10:00:00 PM 4.54 40.172 0.082 7.2 3.58 12.07
12/4/2020 10:15:00 PM 4.52 40.136 0.082 7.2 3.56 12.08
12/4/2020 10:30:00 PM 4.5 40.1 0.082 7.2 3.56 12.09
12/4/2020 10:45:00 PM 4.48 40.064 0.082 7.23 3.56 12.1
12/4/2020 11:00:00 PM 4.46 40.028 0.082 7.23 3.68 12.1
12/4/2020 11:15:00 PM 4.45 40.01 0.082 7.23 3.58 12.11
12/4/2020 11:30:00 PM 4.43 39.974 0.082 7.2 3.67 12.11
12/4/2020 11:45:00 PM 4.43 39.974 0.082 7.19 3.76 12.11
12/5/2020 12:00:00 AM 4.42 39.956 0.082 7.19 3.6 12.11
12/5/2020 12:15:00 AM 4.42 39.956 0.082 7.23 3.59 12.11
12/5/2020 12:30:00 AM 4.41 39.938 0.082 7.2 3.62 12.11
12/5/2020 12:45:00 AM 4.41 39.938 0.082 7.19 3.54 12.11
12/5/2020 1:00:00 AM 4.41 39.938 0.082 7.22 3.55 12.11
12/5/2020 1:15:00 AM 4.41 39.938 0.082 7.19 3.43 12.11
12/5/2020 1:30:00 AM 4.41 39.938 0.082 7.23 3.53 12.1
12/5/2020 1:45:00 AM 4.41 39.938 0.082 7.19 3.43 12.1
12/5/2020 2:00:00 AM 4.42 39.956 0.082 7.19 3.55 12.1
12/5/2020 2:15:00 AM 4.42 39.956 0.082 7.23 3.65 12.1
12/5/2020 2:30:00 AM 4.43 39.974 0.081 7.19 3.7 12.09
12/5/2020 2:45:00 AM 4.43 39.974 0.081 7.19 3.64 12.09
12/5/2020 3:00:00 AM 4.43 39.974 0.081 7.22 3.52 12.09
12/5/2020 3:15:00 AM 4.44 39.992 0.082 7.19 3.5 12.08
12/5/2020 3:30:00 AM 4.45 40.01 0.081 7.19 3.5 12.08
12/5/2020 3:45:00 AM 4.45 40.01 0.081 7.22 3.56 12.08
12/5/2020 4:00:00 AM 4.46 40.028 0.081 7.19 3.5 12.07
12/5/2020 4:15:00 AM 4.47 40.046 0.081 7.19 3.59 12.07
12/5/2020 4:30:00 AM 4.48 40.064 0.081 7.22 3.53 12.07
12/5/2020 4:45:00 AM 4.48 40.064 0.081 7.19 3.56 12.06
12/5/2020 5:00:00 AM 4.49 40.082 0.081 7.2 3.56 12.06
12/5/2020 5:15:00 AM 4.49 40.082 0.081 7.23 3.51 12.06
12/5/2020 5:30:00 AM 4.5 40.1 0.082 7.2 3.36 12.06
12/5/2020 5:45:00 AM 4.51 40.118 0.081 7.23 2.97 12.06
12/5/2020 6:00:00 AM 4.51 40.118 0.081 7.2 3.42 12.06
12/5/2020 6:15:00 AM 4.51 40.118 0.081 7.24 3.64 12.06
12/5/2020 6:30:00 AM 4.51 40.118 0.081 7.2 3.45 12.06
12/5/2020 6:45:00 AM 4.51 40.118 0.081 7.2 3.55 12.06
12/5/2020 7:00:00 AM 4.52 40.136 0.081 7.2 3.64 12.07
12/5/2020 7:15:00 AM 4.51 40.118 0.081 7.21 3.47 12.07
12/5/2020 7:30:00 AM 4.51 40.118 0.081 7.23 3.4 12.08
12/5/2020 7:45:00 AM 4.5 40.1 0.081 7.22 3.4 12.1
12/5/2020 8:00:00 AM 4.5 40.1 0.081 7.24 3.38 12.15
12/5/2020 8:15:00 AM 4.5 40.1 0.081 7.23 3.49 12.22
12/5/2020 8:30:00 AM 4.5 40.1 0.081 7.28 3.38 12.29
12/5/2020 8:45:00 AM 4.51 40.118 0.081 7.33 3.56 12.35
12/5/2020 9:00:00 AM 4.52 40.136 0.081 7.33 3.44 12.4
12/5/2020 9:15:00 AM 4.52 40.136 0.081 7.33 3.32 12.41
12/5/2020 9:30:00 AM 4.52 40.136 0.081 7.32 3.27 12.39
12/5/2020 9:45:00 AM 4.51 40.118 0.081 7.34 3.3 12.42
12/5/2020 10:00:00 AM 4.52 40.136 0.081 7.35 3.24 12.45
12/5/2020 10:15:00 AM 4.53 40.154 0.083 7.37 3.23 12.51
12/5/2020 10:30:00 AM 4.53 40.154 0.081 7.41 3.28 12.53
12/5/2020 10:45:00 AM 4.55 40.19 0.081 7.41 3.33 12.59
12/5/2020 11:00:00 AM 4.56 40.208 0.08 7.43 3.31 12.61
12/5/2020 11:15:00 AM 4.57 40.226 0.08 7.46 3.25 12.6
12/5/2020 11:30:00 AM 4.57 40.226 0.08 7.43 3.43 12.57
12/5/2020 11:45:00 AM 4.57 40.226 0.08 7.39 3.39 12.51
12/5/2020 12:00:00 PM 4.58 40.244 0.08 7.45 3.29 12.54
12/5/2020 12:15:00 PM 4.61 40.298 0.08 7.46 3.3 12.61
12/5/2020 12:30:00 PM 4.61 40.298 0.08 7.46 3.55 12.59
12/5/2020 12:45:00 PM 4.62 40.316 0.08 7.49 3.25 12.57
12/5/2020 1:00:00 PM 4.63 40.334 0.08 7.47 3.3 12.59
12/5/2020 1:15:00 PM 4.63 40.334 0.08 7.46 3.26 12.55
12/5/2020 1:30:00 PM 4.63 40.334 0.08 7.45 3.38 12.53
12/5/2020 1:45:00 PM 4.62 40.316 0.08 7.41 3.25 12.45
12/5/2020 2:00:00 PM 4.61 40.298 0.08 7.4 3.41 12.44
12/5/2020 2:15:00 PM 4.63 40.334 0.08 7.47 3.37 12.53
12/5/2020 2:30:00 PM 4.63 40.334 0.08 7.45 3.23 12.55
12/5/2020 2:45:00 PM 4.64 40.352 0.08 7.49 3.24 12.57
12/5/2020 3:00:00 PM 4.65 40.37 0.08 7.47 3.33 12.55
12/5/2020 3:15:00 PM 4.63 40.334 0.08 7.42 3.3 12.44
12/5/2020 3:30:00 PM 4.62 40.316 0.08 7.39 3.48 12.38
12/5/2020 3:45:00 PM 4.6 40.28 0.08 7.37 3.29 12.35
12/5/2020 4:00:00 PM 4.59 40.262 0.08 7.39 3.36 12.34
12/5/2020 4:15:00 PM 4.56 40.208 0.08 7.35 3.35 12.3
12/5/2020 4:30:00 PM 4.54 40.172 0.08 7.32 3.36 12.25
12/5/2020 4:45:00 PM 4.51 40.118 0.08 7.29 3.35 12.21
12/5/2020 5:00:00 PM 4.49 40.082 0.08 7.28 3.46 12.18
12/5/2020 5:15:00 PM 4.47 40.046 0.08 7.29 3.48 12.17
12/5/2020 5:30:00 PM 4.45 40.01 0.08 7.25 3.79 12.16
12/5/2020 5:45:00 PM 4.43 39.974 0.08 7.25 3.54 12.15
12/5/2020 6:00:00 PM 4.4 39.92 0.08 7.24 3.33 12.15
12/5/2020 6:15:00 PM 4.37 39.866 0.081 7.26 3.6 12.15
12/5/2020 6:30:00 PM 4.34 39.812 0.081 7.26 3.5 12.16
12/5/2020 6:45:00 PM 4.32 39.776 0.081 7.23 3.45 12.16
12/5/2020 7:00:00 PM 4.29 39.722 0.081 7.23 3.45 12.17
12/5/2020 7:15:00 PM 4.26 39.668 0.081 7.23 3.46 12.18
12/5/2020 7:30:00 PM 4.23 39.614 0.081 7.22 3.69 12.19
12/5/2020 7:45:00 PM 4.21 39.578 0.081 7.22 3.48 12.2
12/5/2020 8:00:00 PM 4.18 39.524 0.081 7.23 3.46 12.21
12/5/2020 8:15:00 PM 4.16 39.488 0.081 7.22 3.48 12.22
12/5/2020 8:30:00 PM 4.14 39.452 0.081 7.22 3.45 12.22
12/5/2020 8:45:00 PM 4.11 39.398 0.081 7.21 3.45 12.23
12/5/2020 9:00:00 PM 4.08 39.344 0.081 7.21 3.38 12.24
12/5/2020 9:15:00 PM 4.05 39.29 0.081 7.24 3.33 12.26
12/5/2020 9:30:00 PM 4.03 39.254 0.081 7.22 3.41 12.26
12/5/2020 9:45:00 PM 4 39.2 0.081 7.22 3.34 12.27
12/5/2020 10:00:00 PM 3.98 39.164 0.081 7.25 3.44 12.28
12/5/2020 10:15:00 PM 3.96 39.128 0.081 7.22 3.41 12.29
12/5/2020 10:30:00 PM 3.94 39.092 0.081 7.22 3.42 12.29
12/5/2020 10:45:00 PM 3.91 39.038 0.081 7.24 3.56 12.3
12/5/2020 11:00:00 PM 3.89 39.002 0.081 7.22 3.42 12.31
12/5/2020 11:15:00 PM 3.88 38.984 0.081 7.23 3.43 12.31
12/5/2020 11:30:00 PM 3.86 38.948 0.081 7.21 3.38 12.32
12/5/2020 11:45:00 PM 3.83 38.894 0.081 7.21 3.48 12.33
12/6/2020 12:00:00 AM 3.81 38.858 0.081 7.21 3.27 12.34
12/6/2020 12:15:00 AM 3.78 38.804 0.081 7.23 3.4 12.35
12/6/2020 12:30:00 AM 3.75 38.75 0.081 7.22 3.37 12.35
12/6/2020 12:45:00 AM 3.72 38.696 0.081 7.2 5.53 12.37
12/6/2020 1:00:00 AM 3.68 38.624 0.081 7.21 3.36 12.38
12/6/2020 1:15:00 AM 3.67 38.606 0.081 7.22 3.43 12.39
12/6/2020 1:30:00 AM 3.65 38.57 0.081 7.21 3.45 12.4
12/6/2020 1:45:00 AM 3.62 38.516 0.081 7.21 3.36 12.4
12/6/2020 2:00:00 AM 3.6 38.48 0.081 7.22 3.31 12.41
12/6/2020 2:15:00 AM 3.58 38.444 0.081 7.21 3.51 12.43
12/6/2020 2:30:00 AM 3.57 38.426 0.081 7.24 3.31 12.43
12/6/2020 2:45:00 AM 3.55 38.39 0.081 7.21 3.42 12.44
12/6/2020 3:00:00 AM 3.53 38.354 0.081 7.21 3.64 12.44
12/6/2020 3:15:00 AM 3.5 38.3 0.081 7.23 3.42 12.46
12/6/2020 3:30:00 AM 3.48 38.264 0.081 7.21 3.58 12.46
12/6/2020 3:45:00 AM 3.46 38.228 0.081 7.21 3.33 12.48
12/6/2020 4:00:00 AM 3.43 38.174 0.081 7.2 3.33 12.48
12/6/2020 4:15:00 AM 3.4 38.12 0.081 7.2 3.36 12.5
12/6/2020 4:30:00 AM 3.37 38.066 0.081 7.2 3.44 12.5
12/6/2020 4:45:00 AM 3.33 37.994 0.081 7.2 3.24 12.52
12/6/2020 5:00:00 AM 3.31 37.958 0.081 7.2 3.35 12.53
12/6/2020 5:15:00 AM 3.28 37.904 0.081 7.21 3.39 12.54
12/6/2020 5:30:00 AM 3.25 37.85 0.081 7.21 3.31 12.55
12/6/2020 5:45:00 AM 3.23 37.814 0.081 7.22 3.31 12.56
12/6/2020 6:00:00 AM 3.21 37.778 0.081 7.22 3.38 12.57
12/6/2020 6:15:00 AM 3.19 37.742 0.081 7.22 3.34 12.58
12/6/2020 6:30:00 AM 3.17 37.706 0.081 7.19 3.31 12.59
12/6/2020 6:45:00 AM 3.14 37.652 0.081 7.2 3.29 12.6
12/6/2020 7:00:00 AM 3.12 37.616 0.081 7.21 3.33 12.6
12/6/2020 7:15:00 AM 3.1 37.58 0.081 7.21 3.29 12.61
12/6/2020 7:30:00 AM 3.08 37.544 0.081 7.21 3.3 12.64
12/6/2020 7:45:00 AM 3.06 37.508 0.081 7.24 3.24 12.68
12/6/2020 8:00:00 AM 3.04 37.472 0.081 7.25 3.29 12.74
12/6/2020 8:15:00 AM 3.04 37.472 0.081 7.27 3.41 12.83
12/6/2020 8:30:00 AM 3.04 37.472 0.081 7.31 3.24 12.93
12/6/2020 8:45:00 AM 3.03 37.454 0.081 7.33 3.2 13.01
12/6/2020 9:00:00 AM 3.04 37.472 0.081 7.37 3.22 13.09
12/6/2020 9:15:00 AM 3.04 37.472 0.081 7.39 3.08 13.14
12/6/2020 9:30:00 AM 3.05 37.49 0.081 7.45 3.18 13.2
12/6/2020 9:45:00 AM 3.09 37.562 0.081 7.46 3.23 13.26
12/6/2020 10:00:00 AM 3.14 37.652 0.08 7.47 3.24 13.28
12/6/2020 10:15:00 AM 3.19 37.742 0.08 7.51 3.16 13.31
12/6/2020 10:30:00 AM 3.23 37.814 0.08 7.53 3.17 13.33
12/6/2020 10:45:00 AM 3.27 37.886 0.08 7.56 3.14 13.33
12/6/2020 11:00:00 AM 3.3 37.94 0.08 7.55 3.1 13.3
12/6/2020 11:15:00 AM 3.33 37.994 0.08 7.57 3.18 13.29
12/6/2020 11:30:00 AM 3.36 38.048 0.08 7.58 3.38 13.28
12/6/2020 11:45:00 AM 3.36 38.048 0.08 7.57 3.12 13.24
12/6/2020 12:00:00 PM 3.4 38.12 0.08 7.57 3.18 13.25
12/6/2020 12:15:00 PM 3.45 38.21 0.079 7.6 3.24 13.25
12/6/2020 12:30:00 PM 3.5 38.3 0.079 7.62 3.28 13.24
12/6/2020 12:45:00 PM 3.55 38.39 0.079 7.63 3.26 13.23
12/6/2020 1:00:00 PM 3.57 38.426 0.079 7.62 3.21 13.19
12/6/2020 1:15:00 PM 3.55 38.39 0.079 7.61 3.19 13.16
12/6/2020 1:30:00 PM 3.53 38.354 0.079 7.59 3.14 13.14
12/6/2020 1:45:00 PM 3.53 38.354 0.079 7.58 3.2 13.1
12/6/2020 2:00:00 PM 3.56 38.408 0.079 7.59 3.25 13.11
12/6/2020 2:15:00 PM 3.59 38.462 0.079 7.61 3.15 13.12
12/6/2020 2:30:00 PM 3.59 38.462 0.079 7.58 3.13 13.06
12/6/2020 2:45:00 PM 3.56 38.408 0.079 7.51 3.11 12.96
12/6/2020 3:00:00 PM 3.55 38.39 0.079 7.48 3.06 12.89
12/6/2020 3:15:00 PM 3.55 38.39 0.079 7.46 3.27 12.86
12/6/2020 3:30:00 PM 3.54 38.372 0.079 7.44 3.07 12.82
12/6/2020 3:45:00 PM 3.52 38.336 0.079 7.44 3.16 12.79
12/6/2020 4:00:00 PM 3.5 38.3 0.079 7.41 3.2 12.78
12/6/2020 4:15:00 PM 3.46 38.228 0.08 7.39 3.18 12.75
12/6/2020 4:30:00 PM 3.42 38.156 0.08 7.36 3.28 12.71
12/6/2020 4:45:00 PM 3.37 38.066 0.08 7.34 3.28 12.66
12/6/2020 5:00:00 PM 3.34 38.012 0.08 7.32 3.19 12.62
12/6/2020 5:15:00 PM 3.3 37.94 0.08 7.3 3.32 12.6
12/6/2020 5:30:00 PM 3.26 37.868 0.08 7.29 3.26 12.59
12/6/2020 5:45:00 PM 3.22 37.796 0.08 7.26 3.27 12.59
12/6/2020 6:00:00 PM 3.19 37.742 0.08 7.25 3.23 12.59
12/6/2020 6:15:00 PM 3.18 37.724 0.08 7.25 3.33 12.59
12/6/2020 6:30:00 PM 3.14 37.652 0.08 7.25 3.28 12.59
12/6/2020 6:45:00 PM 3.09 37.562 0.08 7.25 3.27 12.61
12/6/2020 7:00:00 PM 3.05 37.49 0.081 7.25 3.43 12.62
12/6/2020 7:15:00 PM 3.02 37.436 0.081 7.23 3.32 12.63
12/6/2020 7:30:00 PM 2.99 37.382 0.081 7.26 3.38 12.64
12/6/2020 7:45:00 PM 2.95 37.31 0.081 7.26 3.38 12.67
12/6/2020 8:00:00 PM 2.9 37.22 0.081 7.23 3.32 12.67
12/6/2020 8:15:00 PM 2.86 37.148 0.081 7.26 3.37 12.69
12/6/2020 8:30:00 PM 2.84 37.112 0.081 7.23 3.31 12.71
12/6/2020 8:45:00 PM 2.82 37.076 0.081 7.23 3.42 12.71
12/6/2020 9:00:00 PM 2.8 37.04 0.082 7.25 3.41 12.73
12/6/2020 9:15:00 PM 2.77 36.986 0.081 7.22 3.3 12.74
12/6/2020 9:30:00 PM 2.76 36.968 0.081 7.23 3.46 12.73
12/6/2020 9:45:00 PM 2.75 36.95 0.082 7.24 3.24 12.74
12/6/2020 10:00:00 PM 2.73 36.914 0.082 7.24 3.23 12.74
12/6/2020 10:15:00 PM 2.7 36.86 0.082 7.23 3.66 12.76
12/6/2020 10:30:00 PM 2.68 36.824 0.082 7.24 3.27 12.76
12/6/2020 10:45:00 PM 2.66 36.788 0.082 7.25 3.35 12.78
12/6/2020 11:00:00 PM 2.62 36.716 0.082 7.22 3.27 12.77
12/6/2020 11:15:00 PM 2.59 36.662 0.082 7.22 3.33 12.78
12/6/2020 11:30:00 PM 2.58 36.644 0.082 7.23 3.28 12.8
12/6/2020 11:45:00 PM 2.57 36.626 0.081 7.23 3.36 12.81
12/7/2020 12:00:00 AM 2.56 36.608 0.082 7.23 3.31 12.81
12/7/2020 12:15:00 AM 2.55 36.59 0.082 7.23 3.28 12.8
12/7/2020 12:30:00 AM 2.54 36.572 0.082 7.24 3.23 12.82
12/7/2020 12:45:00 AM 2.53 36.554 0.082 7.23 3.3 12.81
12/7/2020 1:00:00 AM 2.53 36.554 0.082 7.25 3.23 12.82
12/7/2020 1:15:00 AM 2.52 36.536 0.082 7.22 3.45 12.82
12/7/2020 1:30:00 AM 2.51 36.518 0.082 7.23 3.61 12.81
12/7/2020 1:45:00 AM 2.5 36.5 0.082 7.22 3.33 12.82
12/7/2020 2:00:00 AM 2.5 36.5 0.082 7.23 3.3 12.83
12/7/2020 2:15:00 AM 2.5 36.5 0.082 7.24 3.36 12.83
12/7/2020 2:30:00 AM 2.49 36.482 0.082 7.23 3.31 12.83
12/7/2020 2:45:00 AM 2.48 36.464 0.082 7.23 3.32 12.83
12/7/2020 3:00:00 AM 2.48 36.464 0.082 7.23 3.24 12.83
12/7/2020 3:15:00 AM 2.46 36.428 0.082 7.23 3.24 12.83
12/7/2020 3:30:00 AM 2.46 36.428 0.082 7.23 3.39 12.83
12/7/2020 3:45:00 AM 2.46 36.428 0.082 7.23 3.29 12.84
12/7/2020 4:00:00 AM 2.45 36.41 0.082 7.23 3.17 12.84
12/7/2020 4:15:00 AM 2.44 36.392 0.082 7.23 3.21 12.84
12/7/2020 4:30:00 AM 2.44 36.392 0.082 7.24 3.22 12.84
12/7/2020 4:45:00 AM 2.43 36.374 0.081 7.22 3.24 12.83
12/7/2020 5:00:00 AM 2.43 36.374 0.081 7.23 3.26 12.83
12/7/2020 5:15:00 AM 2.43 36.374 0.081 7.23 3.21 12.84
12/7/2020 5:30:00 AM 2.44 36.392 0.082 7.25 3.28 12.84
12/7/2020 5:45:00 AM 2.44 36.392 0.081 7.24 3.2 12.83
12/7/2020 6:00:00 AM 2.44 36.392 0.082 7.24 3.26 12.83
12/7/2020 6:15:00 AM 2.44 36.392 0.082 7.23 3.34 12.84
12/7/2020 6:30:00 AM 2.43 36.374 0.081 7.23 3.25 12.83
12/7/2020 6:45:00 AM 2.43 36.374 0.081 7.23 3.22 12.84
12/7/2020 7:00:00 AM 2.43 36.374 0.082 7.23 3.29 12.84
12/7/2020 7:15:00 AM 2.42 36.356 0.081 7.24 3.22 12.83
12/7/2020 7:30:00 AM 2.41 36.338 0.081 7.23 3.11 12.86
12/7/2020 7:45:00 AM 2.4 36.32 0.081 7.24 3.27 12.89
12/7/2020 8:00:00 AM 2.39 36.302 0.081 7.25 3.14 12.94
12/7/2020 8:15:00 AM 2.39 36.302 0.081 7.29 3.31 13.03
12/7/2020 8:30:00 AM 2.39 36.302 0.081 7.3 3.09 13.13
12/7/2020 8:45:00 AM 2.39 36.302 0.081 7.36 3.14 13.22
12/7/2020 9:00:00 AM 2.39 36.302 0.081 7.36 3.14 13.27
12/7/2020 9:15:00 AM 2.38 36.284 0.081 7.38 3.15 13.29
12/7/2020 9:30:00 AM 2.4 36.32 0.081 7.42 3.13 13.35
12/7/2020 9:45:00 AM 2.43 36.374 0.081 7.45 3.03 13.44
12/7/2020 10:00:00 AM 2.47 36.446 0.081 7.49 3.1 13.48
12/7/2020 10:15:00 AM 2.54 36.572 0.08 7.54 3.17 13.5
12/7/2020 10:30:00 AM 2.61 36.698 0.08 7.55 3.13 13.54
12/7/2020 10:45:00 AM 2.7 36.86 0.08 7.59 3.07 13.53
12/7/2020 11:00:00 AM 2.81 37.058 0.08 7.6 3.04 13.51
12/7/2020 11:15:00 AM 2.92 37.256 0.08 7.62 3.02 13.49
12/7/2020 11:30:00 AM 3.06 37.508 0.08 7.65 3.1 13.45
12/7/2020 11:45:00 AM 3.2 37.76 0.08 7.65 3.06 13.4
12/7/2020 12:00:00 PM 3.29 37.922 0.079 7.66 3.13 13.35
12/7/2020 12:15:00 PM 3.33 37.994 0.079 7.66 3.02 13.31
12/7/2020 12:30:00 PM 3.36 38.048 0.079 7.67 3.11 13.28
12/7/2020 12:45:00 PM 3.36 38.048 0.079 7.66 3.02 13.28
12/7/2020 1:00:00 PM 3.37 38.066 0.079 7.68 3.28 13.26
12/7/2020 1:15:00 PM 3.36 38.048 0.079 7.63 3.27 13.2
12/7/2020 1:30:00 PM 3.37 38.066 0.079 7.59 3.09 13.13
12/7/2020 1:45:00 PM 3.37 38.066 0.079 7.57 3.08 13.08
12/7/2020 2:00:00 PM 3.38 38.084 0.079 7.57 3.02 13.06
12/7/2020 2:15:00 PM 3.41 38.138 0.079 7.59 3.15 13.08
12/7/2020 2:30:00 PM 3.43 38.174 0.079 7.6 3.03 13.1
12/7/2020 2:45:00 PM 3.43 38.174 0.079 7.59 3.14 13.09
12/7/2020 3:00:00 PM 3.42 38.156 0.079 7.58 3.1 13.06
12/7/2020 3:15:00 PM 3.41 38.138 0.079 7.57 3.05 13.04
12/7/2020 3:30:00 PM 3.4 38.12 0.079 7.56 3.11 13.01
12/7/2020 3:45:00 PM 3.38 38.084 0.079 7.52 3.23 12.95
12/7/2020 4:00:00 PM 3.34 38.012 0.079 7.47 3.04 12.88
12/7/2020 4:15:00 PM 3.3 37.94 0.079 7.43 3.1 12.82
12/7/2020 4:30:00 PM 3.25 37.85 0.079 7.41 3.18 12.78
12/7/2020 4:45:00 PM 3.2 37.76 0.079 7.39 3.11 12.72
12/7/2020 5:00:00 PM 3.16 37.688 0.08 7.34 3.16 12.67
12/7/2020 5:15:00 PM 3.11 37.598 0.08 7.31 3.26 12.65
12/7/2020 5:30:00 PM 3.06 37.508 0.08 7.3 3.14 12.64
12/7/2020 5:45:00 PM 3.01 37.418 0.08 7.29 3.55 12.63
12/7/2020 6:00:00 PM 2.96 37.328 0.08 7.28 3.29 12.63
12/7/2020 6:15:00 PM 2.91 37.238 0.08 7.27 3.18 12.64
12/7/2020 6:30:00 PM 2.86 37.148 0.08 7.27 3.27 12.66
12/7/2020 6:45:00 PM 2.81 37.058 0.081 7.28 3.3 12.67
12/7/2020 7:00:00 PM 2.75 36.95 0.081 7.26 3.28 12.68
12/7/2020 7:15:00 PM 2.7 36.86 0.081 7.26 3.26 12.71
12/7/2020 7:30:00 PM 2.64 36.752 0.081 7.26 3.31 12.72
12/7/2020 7:45:00 PM 2.58 36.644 0.081 7.25 3.3 12.73
12/7/2020 8:00:00 PM 2.53 36.554 0.082 7.25 3.24 12.77
12/7/2020 8:15:00 PM 2.49 36.482 0.082 7.25 3.42 12.77
12/7/2020 8:30:00 PM 2.44 36.392 0.082 7.24 3.18 12.79
12/7/2020 8:45:00 PM 2.4 36.32 0.082 7.24 3.28 12.81
12/7/2020 9:00:00 PM 2.36 36.248 0.082 7.24 3.3 12.82
12/7/2020 9:15:00 PM 2.34 36.212 0.082 7.24 3.22 12.84
12/7/2020 9:30:00 PM 2.31 36.158 0.082 7.24 3.24 12.86
12/7/2020 9:45:00 PM 2.28 36.104 0.082 7.24 3.27 12.87
12/7/2020 10:00:00 PM 2.25 36.05 0.082 7.24 3.11 12.88
12/7/2020 10:15:00 PM 2.24 36.032 0.082 7.24 3.12 12.88
12/7/2020 10:30:00 PM 2.23 36.014 0.082 7.25 3.24 12.89
12/7/2020 10:45:00 PM 2.22 35.996 0.082 7.24 3.4 12.9
12/7/2020 11:00:00 PM 2.21 35.978 0.082 7.23 3.31 12.9
12/7/2020 11:15:00 PM 2.2 35.96 0.082 7.23 3.15 12.91
12/7/2020 11:30:00 PM 2.19 35.942 0.082 7.23 3.12 12.92
12/7/2020 11:45:00 PM 2.18 35.924 0.082 7.24 3.08 12.92
12/8/2020 12:00:00 AM 2.18 35.924 0.082 7.24 3.09 12.92
12/8/2020 12:15:00 AM 2.18 35.924 0.082 7.24 3.23 12.92
12/8/2020 12:30:00 AM 2.17 35.906 0.082 7.23 3.3 12.93
12/8/2020 12:45:00 AM 2.15 35.87 0.082 7.24 3.25 12.93
12/8/2020 1:00:00 AM 2.13 35.834 0.082 7.23 3.35 12.93
12/8/2020 1:15:00 AM 2.09 35.762 0.082 7.22 3.3 12.94
12/8/2020 1:30:00 AM 2.07 35.726 0.082 7.23 3.28 12.95
12/8/2020 1:45:00 AM 2.06 35.708 0.082 7.23 3.28 12.95
12/8/2020 2:00:00 AM 2.04 35.672 0.082 7.22 3.29 12.95
12/8/2020 2:15:00 AM 2.02 35.636 0.082 7.23 3.21 12.97
12/8/2020 2:30:00 AM 2.02 35.636 0.082 7.23 3.23 12.96
12/8/2020 2:45:00 AM 2.01 35.618 0.082 7.23 3.2 12.97
12/8/2020 3:00:00 AM 1.99 35.582 0.082 7.23 3.18 12.98
12/8/2020 3:15:00 AM 1.97 35.546 0.082 7.23 3.24 12.99
12/8/2020 3:30:00 AM 1.94 35.492 0.082 7.22 3.11 13
12/8/2020 3:45:00 AM 1.92 35.456 0.082 7.23 3.12 13
12/8/2020 4:00:00 AM 1.9 35.42 0.082 7.24 3.14 13.01
12/8/2020 4:15:00 AM 1.89 35.402 0.081 7.22 3.14 13.02
12/8/2020 4:30:00 AM 1.86 35.348 0.082 7.22 3.14 13.02
12/8/2020 4:45:00 AM 1.84 35.312 0.082 7.23 3.05 13.03
12/8/2020 5:00:00 AM 1.8 35.24 0.082 7.21 3.11 13.05
12/8/2020 5:15:00 AM 1.77 35.186 0.082 7.22 3.06 13.06
12/8/2020 5:30:00 AM 1.74 35.132 0.082 7.23 3.23 13.07
12/8/2020 5:45:00 AM 1.71 35.078 0.082 7.22 3.16 13.08
12/8/2020 6:00:00 AM 1.67 35.006 0.082 7.22 3.05 13.09
12/8/2020 6:15:00 AM 1.64 34.952 0.081 7.22 3.24 13.11
12/8/2020 6:30:00 AM 1.61 34.898 0.082 7.22 3.18 13.12
12/8/2020 6:45:00 AM 1.58 34.844 0.082 7.21 3.28 13.14
12/8/2020 7:00:00 AM 1.55 34.79 0.082 7.2 3.18 13.15
12/8/2020 7:15:00 AM 1.53 34.754 0.081 7.22 3.17 13.17
12/8/2020 7:30:00 AM 1.5 34.7 0.081 7.23 3.2 13.19
12/8/2020 7:45:00 AM 1.47 34.646 0.082 7.22 3.05 13.24
12/8/2020 8:00:00 AM 1.45 34.61 0.082 7.23 3.04 13.29
12/8/2020 8:15:00 AM 1.43 34.574 0.082 7.26 3.07 13.35
12/8/2020 8:30:00 AM 1.43 34.574 0.081 7.28 2.94 13.42
12/8/2020 8:45:00 AM 1.43 34.574 0.081 7.32 3.09 13.5
12/8/2020 9:00:00 AM 1.44 34.592 0.081 7.33 3.13 13.56
12/8/2020 9:15:00 AM 1.43 34.574 0.081 7.33 3.08 13.59
12/8/2020 9:30:00 AM 1.44 34.592 0.081 7.38 3.08 13.63
12/8/2020 9:45:00 AM 1.48 34.664 0.081 7.39 3.14 13.69
12/8/2020 10:00:00 AM 1.51 34.718 0.081 7.4 3 13.73
12/8/2020 10:15:00 AM 1.53 34.754 0.081 7.42 3.03 13.74
12/8/2020 10:30:00 AM 1.56 34.808 0.081 7.42 3.02 13.74
12/8/2020 10:45:00 AM 1.6 34.88 0.081 7.44 3.06 13.74
12/8/2020 11:00:00 AM 1.66 34.988 0.081 7.46 3.07 13.75
12/8/2020 11:15:00 AM 1.73 35.114 0.08 7.48 3.16 13.73
12/8/2020 11:30:00 AM 1.82 35.276 0.08 7.48 2.97 13.69
12/8/2020 11:45:00 AM 1.91 35.438 0.08 7.48 3.09 13.64
12/8/2020 12:00:00 PM 2.01 35.618 0.08 7.5 3.02 13.61
12/8/2020 12:15:00 PM 2.1 35.78 0.08 7.48 2.89 13.56
12/8/2020 12:30:00 PM 2.17 35.906 0.08 7.48 3.01 13.53
12/8/2020 12:45:00 PM 2.23 36.014 0.08 7.47 3.05 13.48
12/8/2020 1:00:00 PM 2.29 36.122 0.08 7.49 3.02 13.44
12/8/2020 1:15:00 PM 2.34 36.212 0.08 7.46 3.06 13.4
12/8/2020 1:30:00 PM 2.38 36.284 0.079 7.46 2.88 13.37
12/8/2020 1:45:00 PM 2.44 36.392 0.079 7.45 2.94 13.34
12/8/2020 2:00:00 PM 2.47 36.446 0.079 7.46 3 13.3
12/8/2020 2:15:00 PM 2.5 36.5 0.079 7.45 2.98 13.27
12/8/2020 2:30:00 PM 2.54 36.572 0.079 7.44 2.95 13.23
12/8/2020 2:45:00 PM 2.58 36.644 0.079 7.44 2.96 13.21
12/8/2020 3:00:00 PM 2.61 36.698 0.079 7.43 3.1 13.19
12/8/2020 3:15:00 PM 2.64 36.752 0.079 7.44 3.01 13.16
12/8/2020 3:30:00 PM 2.67 36.806 0.079 7.42 3.06 13.13
12/8/2020 3:45:00 PM 2.68 36.824 0.079 7.4 3.06 13.08
12/8/2020 4:00:00 PM 2.68 36.824 0.079 7.4 3.03 13.05
12/8/2020 4:15:00 PM 2.65 36.77 0.08 7.37 3.05 13.01
12/8/2020 4:30:00 PM 2.61 36.698 0.08 7.35 3.03 13
12/8/2020 4:45:00 PM 2.55 36.59 0.08 7.34 3.22 12.96
12/8/2020 5:00:00 PM 2.51 36.518 0.08 7.31 3.04 12.92
12/8/2020 5:15:00 PM 2.47 36.446 0.08 7.28 3.19 12.9
12/8/2020 5:30:00 PM 2.45 36.41 0.08 7.26 3.11 12.88
12/8/2020 5:45:00 PM 2.43 36.374 0.08 7.26 3.01 12.88
12/8/2020 6:00:00 PM 2.42 36.356 0.08 7.26 3.15 12.87
12/8/2020 6:15:00 PM 2.4 36.32 0.081 7.25 3.08 12.86
12/8/2020 6:30:00 PM 2.4 36.32 0.081 7.25 3 12.86
12/8/2020 6:45:00 PM 2.4 36.32 0.081 7.25 3.12 12.86
12/8/2020 7:00:00 PM 2.38 36.284 0.081 7.24 3.08 12.86
12/8/2020 7:15:00 PM 2.36 36.248 0.081 7.24 3.15 12.86
12/8/2020 7:30:00 PM 2.35 36.23 0.081 7.25 3 12.87
12/8/2020 7:45:00 PM 2.34 36.212 0.081 7.24 3.14 12.87
12/8/2020 8:00:00 PM 2.34 36.212 0.081 7.23 3.03 12.87
12/8/2020 8:15:00 PM 2.35 36.23 0.081 7.24 3.17 12.88
12/8/2020 8:30:00 PM 2.36 36.248 0.081 7.24 3.02 12.88
12/8/2020 8:45:00 PM 2.36 36.248 0.081 7.24 3.06 12.88
12/8/2020 9:00:00 PM 2.36 36.248 0.081 7.23 3.06 12.88
12/8/2020 9:15:00 PM 2.37 36.266 0.081 7.24 3.02 12.88
12/8/2020 9:30:00 PM 2.37 36.266 0.081 7.24 3.03 12.88
12/8/2020 9:45:00 PM 2.36 36.248 0.081 7.24 3.03 12.87
12/8/2020 10:00:00 PM 2.36 36.248 0.081 7.24 3.12 12.88
12/8/2020 10:15:00 PM 2.36 36.248 0.081 7.23 3.21 12.88
12/8/2020 10:30:00 PM 2.36 36.248 0.081 7.24 3.1 12.88
12/8/2020 10:45:00 PM 2.36 36.248 0.081 7.24 3.04 12.88
12/8/2020 11:00:00 PM 2.36 36.248 0.081 7.24 3.02 12.88
12/8/2020 11:15:00 PM 2.36 36.248 0.081 7.24 3.18 12.88
12/8/2020 11:30:00 PM 2.36 36.248 0.081 7.24 3.29 12.88
12/8/2020 11:45:00 PM 2.36 36.248 0.082 7.23 3.22 12.87
12/9/2020 12:00:00 AM 2.36 36.248 0.082 7.22 3.1 12.87
12/9/2020 12:15:00 AM 2.36 36.248 0.081 7.22 3.13 12.87
12/9/2020 12:30:00 AM 2.36 36.248 0.081 7.22 3.21 12.86
12/9/2020 12:45:00 AM 2.36 36.248 0.081 7.22 3.06 12.85
12/9/2020 1:00:00 AM 2.37 36.266 0.082 7.22 3.19 12.85
12/9/2020 1:15:00 AM 2.37 36.266 0.082 7.23 3.03 12.85
12/9/2020 1:30:00 AM 2.37 36.266 0.082 7.23 3.24 12.84
12/9/2020 1:45:00 AM 2.38 36.284 0.082 7.22 3.17 12.83
12/9/2020 2:00:00 AM 2.37 36.266 0.082 7.24 3.12 12.84
12/9/2020 2:15:00 AM 2.37 36.266 0.081 7.24 3.09 12.83
12/9/2020 2:30:00 AM 2.37 36.266 0.082 7.24 3 12.83
12/9/2020 2:45:00 AM 2.38 36.284 0.082 7.23 3.09 12.83
12/9/2020 3:00:00 AM 2.38 36.284 0.082 7.24 3.13 12.82
12/9/2020 3:15:00 AM 2.37 36.266 0.082 7.23 3.18 12.83
12/9/2020 3:30:00 AM 2.38 36.284 0.081 7.23 3.15 12.82
12/9/2020 3:45:00 AM 2.37 36.266 0.082 7.23 3.06 12.82
12/9/2020 4:00:00 AM 2.37 36.266 0.081 7.24 3.04 12.82
12/9/2020 4:15:00 AM 2.37 36.266 0.081 7.24 3.09 12.81
12/9/2020 4:30:00 AM 2.38 36.284 0.082 7.24 3.07 12.81
12/9/2020 4:45:00 AM 2.38 36.284 0.081 7.25 3.06 12.81
12/9/2020 5:00:00 AM 2.39 36.302 0.082 7.22 3.02 12.81
12/9/2020 5:15:00 AM 2.38 36.284 0.082 7.25 3.05 12.81
12/9/2020 5:30:00 AM 2.38 36.284 0.082 7.23 3.09 12.8
12/9/2020 5:45:00 AM 2.39 36.302 0.081 7.23 3.08 12.81
12/9/2020 6:00:00 AM 2.39 36.302 0.081 7.23 3.14 12.8
12/9/2020 6:15:00 AM 2.39 36.302 0.081 7.24 3.04 12.8
12/9/2020 6:30:00 AM 2.4 36.32 0.081 7.23 3.14 12.8
12/9/2020 6:45:00 AM 2.39 36.302 0.081 7.23 3.09 12.8
12/9/2020 7:00:00 AM 2.4 36.32 0.082 7.24 3.08 12.79
12/9/2020 7:15:00 AM 2.4 36.32 0.081 7.24 3.06 12.8
12/9/2020 7:30:00 AM 2.41 36.338 0.081 7.24 3.03 12.8
12/9/2020 7:45:00 AM 2.41 36.338 0.081 7.24 3.13 12.8
12/9/2020 8:00:00 AM 2.41 36.338 0.081 7.24 3.03 12.81
12/9/2020 8:15:00 AM 2.41 36.338 0.082 7.25 3.07 12.82
12/9/2020 8:30:00 AM 2.38 36.284 0.081 7.24 3.07 12.87
12/9/2020 8:45:00 AM 2.35 36.23 0.081 7.28 3.07 12.93
12/9/2020 9:00:00 AM 2.35 36.23 0.081 7.29 3.1 12.99
12/9/2020 9:15:00 AM 2.37 36.266 0.081 7.31 2.95 13.04
12/9/2020 9:30:00 AM 2.39 36.302 0.081 7.33 2.97 13.14
12/9/2020 9:45:00 AM 2.41 36.338 0.081 7.39 3.13 13.24
12/9/2020 10:00:00 AM 2.45 36.41 0.081 7.41 3.05 13.31
12/9/2020 10:15:00 AM 2.47 36.446 0.081 7.42 3.01 13.28
12/9/2020 10:30:00 AM 2.49 36.482 0.081 7.42 2.95 13.28
12/9/2020 10:45:00 AM 2.51 36.518 0.081 7.42 3.02 13.27
12/9/2020 11:00:00 AM 2.53 36.554 0.08 7.43 2.93 13.26
12/9/2020 11:15:00 AM 2.55 36.59 0.081 7.42 3.02 13.22
12/9/2020 11:30:00 AM 2.57 36.626 0.08 7.4 2.89 13.18
12/9/2020 11:45:00 AM 2.58 36.644 0.08 7.39 2.97 13.17
12/9/2020 12:00:00 PM 2.6 36.68 0.08 7.42 2.96 13.21
12/9/2020 12:15:00 PM 2.61 36.698 0.08 7.42 2.93 13.21
12/9/2020 12:30:00 PM 2.63 36.734 0.08 7.41 2.98 13.17
12/9/2020 12:45:00 PM 2.65 36.77 0.08 7.42 3 13.16
12/9/2020 1:00:00 PM 2.67 36.806 0.08 7.41 2.86 13.12
12/9/2020 1:15:00 PM 2.69 36.842 0.08 7.4 2.98 13.09
12/9/2020 1:30:00 PM 2.71 36.878 0.08 7.4 3.05 13.05
12/9/2020 1:45:00 PM 2.73 36.914 0.08 7.39 2.99 13.04
12/9/2020 2:00:00 PM 2.74 36.932 0.08 7.37 3.26 13.01
12/9/2020 2:15:00 PM 2.76 36.968 0.08 7.38 2.84 13.02
12/9/2020 2:30:00 PM 2.78 37.004 0.08 7.37 2.96 12.98
12/9/2020 2:45:00 PM 2.8 37.04 0.08 7.35 2.96 12.97
12/9/2020 3:00:00 PM 2.83 37.094 0.08 7.37 2.97 12.96
12/9/2020 3:15:00 PM 2.85 37.13 0.08 7.36 3.04 12.95
12/9/2020 3:30:00 PM 2.88 37.184 0.08 7.37 2.97 12.97
12/9/2020 3:45:00 PM 2.89 37.202 0.08 7.38 2.91 12.92
12/9/2020 4:00:00 PM 2.91 37.238 0.08 7.34 3.03 12.84
12/9/2020 4:15:00 PM 2.92 37.256 0.08 7.33 3.06 12.79
12/9/2020 4:30:00 PM 2.93 37.274 0.08 7.31 3.06 12.74
12/9/2020 4:45:00 PM 2.94 37.292 0.08 7.29 2.99 12.7
12/9/2020 5:00:00 PM 2.96 37.328 0.08 7.27 3.09 12.67
12/9/2020 5:15:00 PM 2.97 37.346 0.08 7.27 2.97 12.65
12/9/2020 5:30:00 PM 2.98 37.364 0.08 7.26 3 12.63
12/9/2020 5:45:00 PM 2.99 37.382 0.08 7.26 3.17 12.6
12/9/2020 6:00:00 PM 3.01 37.418 0.08 7.27 3.16 12.6
12/9/2020 6:15:00 PM 3.02 37.436 0.081 7.25 3.1 12.59
12/9/2020 6:30:00 PM 3.04 37.472 0.081 7.25 3.2 12.58
12/9/2020 6:45:00 PM 3.05 37.49 0.081 7.24 3.05 12.58
12/9/2020 7:00:00 PM 3.06 37.508 0.081 7.24 3.09 12.57
12/9/2020 7:15:00 PM 3.07 37.526 0.081 7.23 3.07 12.56
12/9/2020 7:30:00 PM 3.08 37.544 0.081 7.24 2.99 12.56
12/9/2020 7:45:00 PM 3.1 37.58 0.081 7.23 2.99 12.56
12/9/2020 8:00:00 PM 3.11 37.598 0.081 7.24 3.08 12.55
12/9/2020 8:15:00 PM 3.12 37.616 0.081 7.23 3.11 12.55
12/9/2020 8:30:00 PM 3.13 37.634 0.081 7.23 2.92 12.55
12/9/2020 8:45:00 PM 3.14 37.652 0.081 7.25 3 12.55
12/9/2020 9:00:00 PM 3.15 37.67 0.081 7.23 2.94 12.54
12/9/2020 9:15:00 PM 3.16 37.688 0.081 7.23 2.98 12.54
12/9/2020 9:30:00 PM 3.17 37.706 0.081 7.24 3.1 12.54
12/9/2020 9:45:00 PM 3.18 37.724 0.081 7.24 3.08 12.54
12/9/2020 10:00:00 PM 3.19 37.742 0.081 7.24 3.07 12.53
12/9/2020 10:15:00 PM 3.19 37.742 0.081 7.25 3.02 12.53
12/9/2020 10:30:00 PM 3.2 37.76 0.081 7.23 3.08 12.53
12/9/2020 10:45:00 PM 3.21 37.778 0.081 7.22 3.02 12.53
12/9/2020 11:00:00 PM 3.22 37.796 0.081 7.22 3.01 12.53
12/9/2020 11:15:00 PM 3.22 37.796 0.081 7.22 3.01 12.52
12/9/2020 11:30:00 PM 3.23 37.814 0.081 7.24 3.01 12.52
12/9/2020 11:45:00 PM 3.24 37.832 0.081 7.23 3.09 12.52
12/10/2020 12:00:00 AM 3.25 37.85 0.081 7.23 3.09 12.52
12/10/2020 12:15:00 AM 3.26 37.868 0.081 7.23 3.01 12.52
12/10/2020 12:30:00 AM 3.27 37.886 0.081 7.23 3.21 12.51
12/10/2020 12:45:00 AM 3.28 37.904 0.081 7.22 3.09 12.51
12/10/2020 1:00:00 AM 3.29 37.922 0.081 7.22 3.08 12.51
12/10/2020 1:15:00 AM 3.3 37.94 0.081 7.22 3.04 12.51
12/10/2020 1:30:00 AM 3.31 37.958 0.081 7.23 3.07 12.51
12/10/2020 1:45:00 AM 3.32 37.976 0.081 7.23 3.09 12.5
12/10/2020 2:00:00 AM 3.32 37.976 0.081 7.23 3.14 12.51
12/10/2020 2:15:00 AM 3.33 37.994 0.081 7.23 3.12 12.51
12/10/2020 2:30:00 AM 3.34 38.012 0.081 7.23 3.13 12.5
12/10/2020 2:45:00 AM 3.35 38.03 0.081 7.22 3.04 12.51
12/10/2020 3:00:00 AM 3.35 38.03 0.081 7.22 3.03 12.5
12/10/2020 3:15:00 AM 3.36 38.048 0.081 7.24 3.02 12.51
12/10/2020 3:30:00 AM 3.36 38.048 0.081 7.21 2.9 12.5
12/10/2020 3:45:00 AM 3.37 38.066 0.081 7.22 3.11 12.5
12/10/2020 4:00:00 AM 3.38 38.084 0.081 7.23 3.46 12.5
12/10/2020 4:15:00 AM 3.38 38.084 0.082 7.21 3.36 12.5
12/10/2020 4:30:00 AM 3.39 38.102 0.081 7.23 3.04 12.5
12/10/2020 4:45:00 AM 3.39 38.102 0.081 7.22 2.99 12.5
12/10/2020 5:00:00 AM 3.4 38.12 0.082 7.22 3.05 12.5
12/10/2020 5:15:00 AM 3.41 38.138 0.081 7.23 3.21 12.5
12/10/2020 5:30:00 AM 3.41 38.138 0.081 7.22 3.42 12.5
12/10/2020 5:45:00 AM 3.42 38.156 0.081 7.22 3.26 12.49
12/10/2020 6:00:00 AM 3.43 38.174 0.081 7.22 3.14 12.5
12/10/2020 6:15:00 AM 3.44 38.192 0.082 7.23 3.06 12.5
12/10/2020 6:30:00 AM 3.44 38.192 0.081 7.23 3.16 12.5
12/10/2020 6:45:00 AM 3.45 38.21 0.082 7.24 3.11 12.49
12/10/2020 7:00:00 AM 3.46 38.228 0.082 7.23 3.05 12.49
12/10/2020 7:15:00 AM 3.46 38.228 0.082 7.22 3.12 12.5
12/10/2020 7:30:00 AM 3.46 38.228 0.081 7.24 2.92 12.52
12/10/2020 7:45:00 AM 3.44 38.192 0.081 7.24 2.96 12.56
12/10/2020 8:00:00 AM 3.43 38.174 0.081 7.26 3.02 12.61
12/10/2020 8:15:00 AM 3.45 38.21 0.081 7.28 3.11 12.69
12/10/2020 8:30:00 AM 3.47 38.246 0.081 7.32 3.03 12.79
12/10/2020 8:45:00 AM 3.49 38.282 0.081 7.35 3.07 12.9
12/10/2020 9:00:00 AM 3.51 38.318 0.081 7.39 3.03 12.98
12/10/2020 9:15:00 AM 3.55 38.39 0.081 7.42 2.93 13.05
12/10/2020 9:30:00 AM 3.59 38.462 0.081 7.47 3 13.09
12/10/2020 9:45:00 AM 3.62 38.516 0.081 7.48 2.96 13.13
12/10/2020 10:00:00 AM 3.67 38.606 0.081 7.52 2.86 13.18
12/10/2020 10:15:00 AM 3.73 38.714 0.081 7.57 2.99 13.23
12/10/2020 10:30:00 AM 3.79 38.822 0.08 7.62 3.02 13.26
12/10/2020 10:45:00 AM 3.85 38.93 0.08 7.64 3.05 13.28
12/10/2020 11:00:00 AM 3.91 39.038 0.08 7.67 2.91 13.28
12/10/2020 11:15:00 AM 3.98 39.164 0.08 7.7 2.91 13.28
12/10/2020 11:30:00 AM 4.03 39.254 0.08 7.71 2.99 13.25
12/10/2020 11:45:00 AM 4.09 39.362 0.079 7.71 2.91 13.24
12/10/2020 12:00:00 PM 4.15 39.47 0.079 7.74 3 13.23
12/10/2020 12:15:00 PM 4.22 39.596 0.079 7.76 3.03 13.22
12/10/2020 12:30:00 PM 4.27 39.686 0.079 7.78 3.04 13.2
12/10/2020 12:45:00 PM 4.32 39.776 0.079 7.78 3.01 13.18
12/10/2020 1:00:00 PM 4.39 39.902 0.079 7.8 2.96 13.15
12/10/2020 1:15:00 PM 4.44 39.992 0.079 7.79 3.03 13.12
12/10/2020 1:30:00 PM 4.5 40.1 0.079 7.8 3.22 13.1
12/10/2020 1:45:00 PM 4.53 40.154 0.079 7.79 2.96 13.07
12/10/2020 2:00:00 PM 4.57 40.226 0.079 7.78 3.06 13.03
12/10/2020 2:15:00 PM 4.59 40.262 0.079 7.76 3.02 12.98
12/10/2020 2:30:00 PM 4.62 40.316 0.079 7.73 2.93 12.93
12/10/2020 2:45:00 PM 4.65 40.37 0.079 7.73 3 12.92
12/10/2020 3:00:00 PM 4.67 40.406 0.079 7.71 2.97 12.88
12/10/2020 3:15:00 PM 4.66 40.388 0.079 7.66 3.01 12.81
12/10/2020 3:30:00 PM 4.63 40.334 0.079 7.58 3.4 12.7
12/10/2020 3:45:00 PM 4.59 40.262 0.079 7.53 2.98 12.62
12/10/2020 4:00:00 PM 4.55 40.19 0.079 7.49 3.01 12.57
12/10/2020 4:15:00 PM 4.51 40.118 0.079 7.45 2.95 12.52
12/10/2020 4:30:00 PM 4.46 40.028 0.079 7.42 3.1 12.46
12/10/2020 4:45:00 PM 4.41 39.938 0.079 7.38 2.97 12.4
12/10/2020 5:00:00 PM 4.36 39.848 0.079 7.34 3.38 12.35
12/10/2020 5:15:00 PM 4.31 39.758 0.08 7.34 3.07 12.32
12/10/2020 5:30:00 PM 4.27 39.686 0.08 7.31 3.1 12.3
12/10/2020 5:45:00 PM 4.22 39.596 0.08 7.29 3.11 12.29
12/10/2020 6:00:00 PM 4.18 39.524 0.08 7.3 3.24 12.28
12/10/2020 6:15:00 PM 4.14 39.452 0.08 7.28 3.19 12.28
12/10/2020 6:30:00 PM 4.11 39.398 0.08 7.28 3.09 12.29
12/10/2020 6:45:00 PM 4.06 39.308 0.081 7.26 3.17 12.3
12/10/2020 7:00:00 PM 4.02 39.236 0.081 7.25 3.06 12.31
12/10/2020 7:15:00 PM 3.96 39.128 0.081 7.26 3.17 12.32
12/10/2020 7:30:00 PM 3.9 39.02 0.081 7.25 3.01 12.34
12/10/2020 7:45:00 PM 3.84 38.912 0.081 7.24 3.17 12.36
12/10/2020 8:00:00 PM 3.78 38.804 0.081 7.26 3.1 12.38
12/10/2020 8:15:00 PM 3.72 38.696 0.082 7.24 3.08 12.4
12/10/2020 8:30:00 PM 3.66 38.588 0.082 7.26 3.07 12.42
12/10/2020 8:45:00 PM 3.6 38.48 0.082 7.24 3.11 12.44
12/10/2020 9:00:00 PM 3.55 38.39 0.082 7.23 3.13 12.46
12/10/2020 9:15:00 PM 3.49 38.282 0.082 7.24 3.1 12.48
12/10/2020 9:30:00 PM 3.43 38.174 0.082 7.25 3.07 12.51
12/10/2020 9:45:00 PM 3.38 38.084 0.082 7.25 3.36 12.53
12/10/2020 10:00:00 PM 3.32 37.976 0.082 7.23 3.36 12.55
12/10/2020 10:15:00 PM 3.26 37.868 0.082 7.24 3.25 12.57
12/10/2020 10:30:00 PM 3.21 37.778 0.082 7.24 3.37 12.59
12/10/2020 10:45:00 PM 3.15 37.67 0.082 7.22 3.24 12.61
12/10/2020 11:00:00 PM 3.1 37.58 0.082 7.22 3.3 12.63
12/10/2020 11:15:00 PM 3.05 37.49 0.082 7.22 3.1 12.65
12/10/2020 11:30:00 PM 3 37.4 0.082 7.23 3.16 12.67
12/10/2020 11:45:00 PM 2.95 37.31 0.082 7.23 3.18 12.68
12/11/2020 12:00:00 AM 2.9 37.22 0.082 7.23 3.06 12.71
12/11/2020 12:15:00 AM 2.85 37.13 0.083 7.24 3.16 12.73
12/11/2020 12:30:00 AM 2.81 37.058 0.082 7.24 3.06 12.75
12/11/2020 12:45:00 AM 2.76 36.968 0.083 7.23 3.06 12.76
12/11/2020 1:00:00 AM 2.72 36.896 0.082 7.23 3.14 12.76
12/11/2020 1:15:00 AM 2.67 36.806 0.083 7.22 3.06 12.79
12/11/2020 1:30:00 AM 2.63 36.734 0.083 7.22 3.02 12.81
12/11/2020 1:45:00 AM 2.59 36.662 0.083 7.22 3.13 12.83
12/11/2020 2:00:00 AM 2.54 36.572 0.083 7.22 3.05 12.84
12/11/2020 2:15:00 AM 2.5 36.5 0.083 7.22 3.12 12.85
12/11/2020 2:30:00 AM 2.46 36.428 0.083 7.22 3.06 12.86
12/11/2020 2:45:00 AM 2.42 36.356 0.083 7.22 3.16 12.88
12/11/2020 3:00:00 AM 2.38 36.284 0.083 7.23 3.07 12.9
12/11/2020 3:15:00 AM 2.34 36.212 0.083 7.22 3.15 12.92
12/11/2020 3:30:00 AM 2.3 36.14 0.083 7.22 3.09 12.93
12/11/2020 3:45:00 AM 2.26 36.068 0.083 7.22 3.07 12.95
12/11/2020 4:00:00 AM 2.23 36.014 0.083 7.21 2.99 12.96
12/11/2020 4:15:00 AM 2.19 35.942 0.083 7.22 3 12.97
12/11/2020 4:30:00 AM 2.16 35.888 0.083 7.22 3.06 12.99
12/11/2020 4:45:00 AM 2.13 35.834 0.083 7.21 3.08 13
12/11/2020 5:00:00 AM 2.1 35.78 0.083 7.22 2.99 13.01
12/11/2020 5:15:00 AM 2.06 35.708 0.083 7.21 2.98 13.02
12/11/2020 5:30:00 AM 2.04 35.672 0.083 7.21 3 13.04
12/11/2020 5:45:00 AM 2.01 35.618 0.083 7.21 2.95 13.05
12/11/2020 6:00:00 AM 1.98 35.564 0.083 7.21 3.04 13.06
12/11/2020 6:15:00 AM 1.95 35.51 0.083 7.21 3.13 13.07
12/11/2020 6:30:00 AM 1.92 35.456 0.083 7.23 3.01 13.08
12/11/2020 6:45:00 AM 1.9 35.42 0.083 7.21 2.98 13.09
12/11/2020 7:00:00 AM 1.87 35.366 0.083 7.21 2.99 13.11
12/11/2020 7:15:00 AM 1.85 35.33 0.083 7.21 2.99 13.12
12/11/2020 7:30:00 AM 1.83 35.294 0.083 7.22 3.13 13.15
12/11/2020 7:45:00 AM 1.81 35.258 0.083 7.23 3.03 13.21
12/11/2020 8:00:00 AM 1.81 35.258 0.083 7.26 3.01 13.31
12/11/2020 8:15:00 AM 1.82 35.276 0.083 7.29 3.08 13.42
12/11/2020 8:30:00 AM 1.83 35.294 0.083 7.32 3.11 13.51
12/11/2020 8:45:00 AM 1.85 35.33 0.082 7.35 3.06 13.59
12/11/2020 9:00:00 AM 1.88 35.384 0.082 7.4 3 13.67
12/11/2020 9:15:00 AM 1.93 35.474 0.082 7.43 2.9 13.76
12/11/2020 9:30:00 AM 1.99 35.582 0.082 7.49 2.95 13.82
12/11/2020 9:45:00 AM 2.05 35.69 0.082 7.51 3.04 13.86
12/11/2020 10:00:00 AM 2.11 35.798 0.082 7.55 3.04 13.87
12/11/2020 10:15:00 AM 2.18 35.924 0.081 7.56 3.01 13.88
12/11/2020 10:30:00 AM 2.23 36.014 0.081 7.58 2.85 13.85
12/11/2020 10:45:00 AM 2.3 36.14 0.081 7.58 3.07 13.81
12/11/2020 11:00:00 AM 2.35 36.23 0.081 7.58 2.9 13.79
12/11/2020 11:15:00 AM 2.44 36.392 0.081 7.61 2.88 13.79
12/11/2020 11:30:00 AM 2.55 36.59 0.081 7.63 2.94 13.77
12/11/2020 11:45:00 AM 2.68 36.824 0.081 7.66 2.91 13.72
12/11/2020 12:00:00 PM 2.82 37.076 0.08 7.68 2.86 13.7
12/11/2020 12:15:00 PM 2.97 37.346 0.08 7.69 3.03 13.65
12/11/2020 12:30:00 PM 3.09 37.562 0.08 7.69 2.92 13.57
12/11/2020 12:45:00 PM 3.21 37.778 0.08 7.71 2.89 13.52
12/11/2020 1:00:00 PM 3.3 37.94 0.08 7.69 2.96 13.46
12/11/2020 1:15:00 PM 3.39 38.102 0.08 7.67 2.92 13.4
12/11/2020 1:30:00 PM 3.49 38.282 0.08 7.68 3 13.36
12/11/2020 1:45:00 PM 3.62 38.516 0.08 7.73 2.97 13.37
12/11/2020 2:00:00 PM 3.72 38.696 0.079 7.73 2.83 13.31
12/11/2020 2:15:00 PM 3.8 38.84 0.079 7.69 2.84 13.21
12/11/2020 2:30:00 PM 3.87 38.966 0.08 7.64 2.99 13.09
12/11/2020 2:45:00 PM 3.93 39.074 0.079 7.59 3.1 12.99
12/11/2020 3:00:00 PM 3.98 39.164 0.079 7.58 2.86 12.92
12/11/2020 3:15:00 PM 4.02 39.236 0.079 7.55 2.88 12.86
12/11/2020 3:30:00 PM 4.06 39.308 0.079 7.52 3.08 12.8
12/11/2020 3:45:00 PM 4.1 39.38 0.079 7.5 2.86 12.77
12/11/2020 4:00:00 PM 4.15 39.47 0.079 7.5 2.93 12.72
12/11/2020 4:15:00 PM 4.17 39.506 0.08 7.46 2.98 12.65
12/11/2020 4:30:00 PM 4.17 39.506 0.08 7.42 3.02 12.54
12/11/2020 4:45:00 PM 4.16 39.488 0.08 7.38 3.08 12.46
12/11/2020 5:00:00 PM 4.15 39.47 0.08 7.37 3.05 12.4
12/11/2020 5:15:00 PM 4.12 39.416 0.08 7.33 3.06 12.36
12/11/2020 5:30:00 PM 4.09 39.362 0.08 7.32 3.07 12.34
12/11/2020 5:45:00 PM 4.06 39.308 0.081 7.28 3.11 12.31
12/11/2020 6:00:00 PM 4.03 39.254 0.081 7.28 3.07 12.3
12/11/2020 6:15:00 PM 4 39.2 0.081 7.27 3.12 12.29
12/11/2020 6:30:00 PM 3.98 39.164 0.081 7.27 3.11 12.3
12/11/2020 6:45:00 PM 3.97 39.146 0.081 7.26 3.09 12.29
12/11/2020 7:00:00 PM 3.96 39.128 0.081 7.25 3.14 12.29
12/11/2020 7:15:00 PM 3.95 39.11 0.081 7.27 2.98 12.29
12/11/2020 7:30:00 PM 3.94 39.092 0.082 7.26 3.12 12.29
12/11/2020 7:45:00 PM 3.93 39.074 0.082 7.25 2.99 12.31
12/11/2020 8:00:00 PM 3.91 39.038 0.082 7.25 3.08 12.31
12/11/2020 8:15:00 PM 3.88 38.984 0.082 7.25 3.11 12.32
12/11/2020 8:30:00 PM 3.86 38.948 0.082 7.26 3.21 12.33
12/11/2020 8:45:00 PM 3.82 38.876 0.082 7.25 3.15 12.34
12/11/2020 9:00:00 PM 3.79 38.822 0.082 7.24 3.13 12.35
12/11/2020 9:15:00 PM 3.75 38.75 0.082 7.23 3.21 12.36
12/11/2020 9:30:00 PM 3.7 38.66 0.083 7.24 3.04 12.38
12/11/2020 9:45:00 PM 3.66 38.588 0.082 7.23 3.11 12.39
12/11/2020 10:00:00 PM 3.61 38.498 0.083 7.23 3.05 12.41
12/11/2020 10:15:00 PM 3.57 38.426 0.083 7.24 3.06 12.42
12/11/2020 10:30:00 PM 3.53 38.354 0.083 7.24 3.07 12.44
12/11/2020 10:45:00 PM 3.49 38.282 0.083 7.23 3.17 12.45
12/11/2020 11:00:00 PM 3.46 38.228 0.083 7.24 3.18 12.47
12/11/2020 11:15:00 PM 3.42 38.156 0.083 7.23 3.11 12.47
12/11/2020 11:30:00 PM 3.38 38.084 0.083 7.23 3.09 12.49
12/11/2020 11:45:00 PM 3.35 38.03 0.083 7.24 2.97 12.5
12/12/2020 12:00:00 AM 3.33 37.994 0.083 7.23 3.01 12.52
12/12/2020 12:15:00 AM 3.31 37.958 0.083 7.22 3 12.53
12/12/2020 12:30:00 AM 3.28 37.904 0.083 7.23 3.18 12.54
12/12/2020 12:45:00 AM 3.25 37.85 0.083 7.23 3.01 12.55
12/12/2020 1:00:00 AM 3.23 37.814 0.083 7.23 2.96 12.56
12/12/2020 1:15:00 AM 3.2 37.76 0.083 7.23 3.06 12.57
12/12/2020 1:30:00 AM 3.18 37.724 0.083 7.22 2.95 12.58
12/12/2020 1:45:00 AM 3.16 37.688 0.083 7.23 2.91 12.58
12/12/2020 2:00:00 AM 3.13 37.634 0.083 7.22 2.93 12.59
12/12/2020 2:15:00 AM 3.1 37.58 0.083 7.23 2.93 12.61
12/12/2020 2:30:00 AM 3.08 37.544 0.083 7.23 2.97 12.62
12/12/2020 2:45:00 AM 3.05 37.49 0.083 7.22 3.05 12.63
12/12/2020 3:00:00 AM 3.02 37.436 0.083 7.22 2.96 12.64
12/12/2020 3:15:00 AM 3.01 37.418 0.083 7.22 3.02 12.65
12/12/2020 3:30:00 AM 2.99 37.382 0.083 7.22 3 12.65
12/12/2020 3:45:00 AM 2.96 37.328 0.083 7.22 3 12.65
12/12/2020 4:00:00 AM 2.93 37.274 0.083 7.22 2.99 12.67
12/12/2020 4:15:00 AM 2.91 37.238 0.083 7.22 3.08 12.67
12/12/2020 4:30:00 AM 2.89 37.202 0.083 7.22 3.1 12.68
12/12/2020 4:45:00 AM 2.87 37.166 0.083 7.22 3.02 12.69
12/12/2020 5:00:00 AM 2.86 37.148 0.083 7.22 3.04 12.7
12/12/2020 5:15:00 AM 2.86 37.148 0.083 7.23 3.1 12.7
12/12/2020 5:30:00 AM 2.85 37.13 0.083 7.23 3.11 12.71
12/12/2020 5:45:00 AM 2.85 37.13 0.083 7.24 3.04 12.71
12/12/2020 6:00:00 AM 2.84 37.112 0.083 7.23 2.95 12.72
12/12/2020 6:15:00 AM 2.83 37.094 0.083 7.22 3.01 12.72
12/12/2020 6:30:00 AM 2.83 37.094 0.083 7.23 3.03 12.72
12/12/2020 6:45:00 AM 2.82 37.076 0.083 7.22 3.09 12.72
12/12/2020 7:00:00 AM 2.82 37.076 0.083 7.22 2.97 12.72
12/12/2020 7:15:00 AM 2.81 37.058 0.083 7.22 2.97 12.71
12/12/2020 7:30:00 AM 2.81 37.058 0.083 7.23 3.07 12.73
12/12/2020 7:45:00 AM 2.82 37.076 0.083 7.23 3 12.73
12/12/2020 8:00:00 AM 2.83 37.094 0.083 7.24 3.07 12.77
12/12/2020 8:15:00 AM 2.83 37.094 0.083 7.26 2.98 12.84
12/12/2020 8:30:00 AM 2.84 37.112 0.083 7.29 2.93 12.93
12/12/2020 8:45:00 AM 2.87 37.166 0.083 7.32 2.92 13.04
12/12/2020 9:00:00 AM 2.89 37.202 0.083 7.34 3.07 13.11
12/12/2020 9:15:00 AM 2.93 37.274 0.083 7.38 3.04 13.19
12/12/2020 9:30:00 AM 2.98 37.364 0.082 7.43 2.98 13.3
12/12/2020 9:45:00 AM 3.02 37.436 0.082 7.47 3.01 13.35
12/12/2020 10:00:00 AM 3.05 37.49 0.082 7.49 2.91 13.36
12/12/2020 10:15:00 AM 3.13 37.634 0.082 7.52 2.92 13.38
12/12/2020 10:30:00 AM 3.19 37.742 0.082 7.57 3.04 13.46
12/12/2020 10:45:00 AM 3.28 37.904 0.082 7.64 2.88 13.49
12/12/2020 11:00:00 AM 3.36 38.048 0.082 7.65 3.06 13.47
12/12/2020 11:15:00 AM 3.45 38.21 0.082 7.68 2.92 13.47
12/12/2020 11:30:00 AM 3.54 38.372 0.081 7.71 2.96 13.45
12/12/2020 11:45:00 AM 3.65 38.57 0.081 7.74 3.03 13.44
12/12/2020 12:00:00 PM 3.75 38.75 0.081 7.76 2.87 13.42
12/12/2020 12:15:00 PM 3.84 38.912 0.081 7.78 2.85 13.38
12/12/2020 12:30:00 PM 3.93 39.074 0.081 7.79 2.93 13.35
12/12/2020 12:45:00 PM 4.04 39.272 0.08 7.82 2.92 13.32
12/12/2020 1:00:00 PM 4.1 39.38 0.08 7.79 2.96 13.23
12/12/2020 1:15:00 PM 4.12 39.416 0.08 7.71 2.82 13.06
12/12/2020 1:30:00 PM 4.16 39.488 0.08 7.64 2.93 12.94
12/12/2020 1:45:00 PM 4.25 39.65 0.08 7.62 2.9 12.86
12/12/2020 2:00:00 PM 4.33 39.794 0.08 7.6 3.06 12.8
12/12/2020 2:15:00 PM 4.42 39.956 0.08 7.61 2.87 12.78
12/12/2020 2:30:00 PM 4.53 40.154 0.08 7.62 2.88 12.76
12/12/2020 2:45:00 PM 4.66 40.388 0.08 7.61 2.93 12.7
12/12/2020 3:00:00 PM 4.78 40.604 0.08 7.58 2.79 12.59
12/12/2020 3:15:00 PM 4.88 40.784 0.08 7.58 2.98 12.53
12/12/2020 3:30:00 PM 4.96 40.928 0.079 7.53 2.5 12.42
12/12/2020 3:45:00 PM 5.03 41.054 0.08 7.53 2.94 12.37
12/12/2020 4:00:00 PM 5.08 41.144 0.08 7.47 2.99 12.3
12/12/2020 4:15:00 PM 5.11 41.198 0.08 7.44 2.99 12.21
12/12/2020 4:30:00 PM 5.12 41.216 0.08 7.43 3.03 12.1
12/12/2020 4:45:00 PM 5.12 41.216 0.08 7.37 2.97 12.02
12/12/2020 5:00:00 PM 5.12 41.216 0.08 7.34 2.99 11.95
12/12/2020 5:15:00 PM 5.12 41.216 0.081 7.32 3.08 11.92
12/12/2020 5:30:00 PM 5.13 41.234 0.081 7.32 2.91 11.88
12/12/2020 5:45:00 PM 5.15 41.27 0.081 7.29 3.05 11.85
12/12/2020 6:00:00 PM 5.17 41.306 0.081 7.29 2.98 11.83
12/12/2020 6:15:00 PM 5.19 41.342 0.081 7.3 2.97 11.79
12/12/2020 6:30:00 PM 5.21 41.378 0.081 7.29 3.04 11.78
12/12/2020 6:45:00 PM 5.22 41.396 0.081 7.27 3.19 11.76
12/12/2020 7:00:00 PM 5.23 41.414 0.081 7.26 3 11.77
12/12/2020 7:15:00 PM 5.23 41.414 0.082 7.29 3.24 11.76
12/12/2020 7:30:00 PM 5.23 41.414 0.082 7.26 2.96 11.74
12/12/2020 7:45:00 PM 5.22 41.396 0.082 7.27 2.98 11.75
12/12/2020 8:00:00 PM 5.21 41.378 0.082 7.28 3.01 11.75
12/12/2020 8:15:00 PM 5.2 41.36 0.082 7.28 3.04 11.75
12/12/2020 8:30:00 PM 5.21 41.378 0.082 7.25 3.35 11.75
12/12/2020 8:45:00 PM 5.21 41.378 0.082 7.27 2.94 11.74
12/12/2020 9:00:00 PM 5.22 41.396 0.082 7.24 3.07 11.75
12/12/2020 9:15:00 PM 5.23 41.414 0.082 7.25 3.04 11.74
12/12/2020 9:30:00 PM 5.23 41.414 0.082 7.24 2.96 11.73
12/12/2020 9:45:00 PM 5.24 41.432 0.082 7.24 3.03 11.74
12/12/2020 10:00:00 PM 5.25 41.45 0.083 7.26 2.89 11.73
12/12/2020 10:15:00 PM 5.26 41.468 0.082 7.23 3.22 11.73
12/12/2020 10:30:00 PM 5.27 41.486 0.083 7.23 3.01 11.72
12/12/2020 10:45:00 PM 5.28 41.504 0.083 7.27 2.94 11.72
12/12/2020 11:00:00 PM 5.29 41.522 0.083 7.23 3.18 11.72
12/12/2020 11:15:00 PM 5.29 41.522 0.083 7.24 3.14 11.71
12/12/2020 11:30:00 PM 5.27 41.486 0.083 7.24 3 11.71
12/12/2020 11:45:00 PM 5.25 41.45 0.083 7.24 3.06 11.72
12/13/2020 12:00:00 AM 5.26 41.468 0.083 7.24 3.16 11.71
12/13/2020 12:15:00 AM 5.27 41.486 0.083 7.26 3.04 11.71
12/13/2020 12:30:00 AM 5.28 41.504 0.083 7.24 3.09 11.7
12/13/2020 12:45:00 AM 5.3 41.54 0.083 7.24 3 11.7
12/13/2020 1:00:00 AM 5.31 41.558 0.083 7.26 3.04 11.7
12/13/2020 1:15:00 AM 5.33 41.594 0.083 7.24 3.02 11.69
12/13/2020 1:30:00 AM 5.35 41.63 0.083 7.24 3.12 11.69
12/13/2020 1:45:00 AM 5.37 41.666 0.083 7.24 3.19 11.68
12/13/2020 2:00:00 AM 5.38 41.684 0.083 7.27 3.09 11.68
12/13/2020 2:15:00 AM 5.39 41.702 0.083 7.24 3.18 11.68
12/13/2020 2:30:00 AM 5.38 41.684 0.083 7.24 3.04 11.67
12/13/2020 2:45:00 AM 5.37 41.666 0.083 7.23 3.21 11.68
12/13/2020 3:00:00 AM 5.36 41.648 0.083 7.24 3.19 11.68
12/13/2020 3:15:00 AM 5.36 41.648 0.083 7.27 3.29 11.68
12/13/2020 3:30:00 AM 5.37 41.666 0.083 7.24 3.13 11.67
12/13/2020 3:45:00 AM 5.36 41.648 0.083 7.24 3.13 11.67
12/13/2020 4:00:00 AM 5.34 41.612 0.083 7.24 3.16 11.68
12/13/2020 4:15:00 AM 5.33 41.594 0.083 7.27 3.37 11.67
12/13/2020 4:30:00 AM 5.31 41.558 0.083 7.23 3.52 11.68
12/13/2020 4:45:00 AM 5.3 41.54 0.083 7.24 3.47 11.68
12/13/2020 5:00:00 AM 5.28 41.504 0.083 7.24 3.15 11.68
12/13/2020 5:15:00 AM 5.29 41.522 0.083 7.24 3.22 11.68
12/13/2020 5:30:00 AM 5.31 41.558 0.083 7.24 3.16 11.69
12/13/2020 5:45:00 AM 5.32 41.576 0.083 7.24 3.69 11.69
12/13/2020 6:00:00 AM 5.33 41.594 0.083 7.24 3.13 11.7
12/13/2020 6:15:00 AM 5.34 41.612 0.083 7.25 3.03 11.7
12/13/2020 6:30:00 AM 5.34 41.612 0.083 7.27 3.16 11.7
12/13/2020 6:45:00 AM 5.34 41.612 0.083 7.25 3.13 11.71
12/13/2020 7:00:00 AM 5.34 41.612 0.083 7.27 3.11 11.71
12/13/2020 7:15:00 AM 5.34 41.612 0.083 7.25 3.13 11.72
12/13/2020 7:30:00 AM 5.33 41.594 0.083 7.25 3.12 11.73
12/13/2020 7:45:00 AM 5.32 41.576 0.083 7.25 3.11 11.73
12/13/2020 8:00:00 AM 5.31 41.558 0.083 7.23 3.17 11.75
12/13/2020 8:15:00 AM 5.31 41.558 0.083 7.26 3.07 11.78
12/13/2020 8:30:00 AM 5.3 41.54 0.083 7.27 3.05 11.85
12/13/2020 8:45:00 AM 5.3 41.54 0.083 7.3 3.12 11.92
12/13/2020 9:00:00 AM 5.31 41.558 0.083 7.34 3.1 12
12/13/2020 9:15:00 AM 5.33 41.594 0.083 7.38 3.14 12.15
12/13/2020 9:30:00 AM 5.36 41.648 0.083 7.43 3.06 12.35
12/13/2020 9:45:00 AM 5.39 41.702 0.082 7.5 3.02 12.48
12/13/2020 10:00:00 AM 5.4 41.72 0.082 7.53 2.97 12.45
12/13/2020 10:15:00 AM 5.41 41.738 0.082 7.53 3 12.48
12/13/2020 10:30:00 AM 5.44 41.792 0.082 7.6 3.14 12.6
12/13/2020 10:45:00 AM 5.47 41.846 0.082 7.67 3.02 12.64
12/13/2020 11:00:00 AM 5.47 41.846 0.082 7.6 3.07 12.53
12/13/2020 11:15:00 AM 5.47 41.846 0.082 7.61 3.05 12.54
12/13/2020 11:30:00 AM 5.51 41.918 0.081 7.72 3.02 12.66
12/13/2020 11:45:00 AM 5.56 42.008 0.081 7.79 3.28 12.76
12/13/2020 12:00:00 PM 5.57 42.026 0.081 7.83 2.99 12.75
12/13/2020 12:15:00 PM 5.59 42.062 0.081 7.81 3.03 12.73
12/13/2020 12:30:00 PM 5.63 42.134 0.081 7.86 3.03 12.76
12/13/2020 12:45:00 PM 5.67 42.206 0.081 7.89 2.95 12.76
12/13/2020 1:00:00 PM 5.68 42.224 0.08 7.87 3.04 12.72
12/13/2020 1:15:00 PM 5.67 42.206 0.08 7.81 3.09 12.64
12/13/2020 1:30:00 PM 5.66 42.188 0.08 7.78 3.06 12.59
12/13/2020 1:45:00 PM 5.69 42.242 0.08 7.82 3.03 12.6
12/13/2020 2:00:00 PM 5.72 42.296 0.08 7.81 3.05 12.6
12/13/2020 2:15:00 PM 5.76 42.368 0.08 7.86 3.06 12.62
12/13/2020 2:30:00 PM 5.77 42.386 0.08 7.85 3.01 12.63
12/13/2020 2:45:00 PM 5.77 42.386 0.08 7.85 3.03 12.58
12/13/2020 3:00:00 PM 5.76 42.368 0.08 7.78 2.9 12.52
12/13/2020 3:15:00 PM 5.74 42.332 0.08 7.68 3.03 12.41
12/13/2020 3:30:00 PM 5.73 42.314 0.08 7.68 3.08 12.38
12/13/2020 3:45:00 PM 5.71 42.278 0.079 7.65 3.02 12.38
12/13/2020 4:00:00 PM 5.68 42.224 0.08 7.56 3.02 12.25
12/13/2020 4:15:00 PM 5.65 42.17 0.08 7.5 2.96 12.13
12/13/2020 4:30:00 PM 5.61 42.098 0.08 7.46 3.13 12.04
12/13/2020 4:45:00 PM 5.58 42.044 0.08 7.43 2.96 11.98
12/13/2020 5:00:00 PM 5.54 41.972 0.08 7.38 3.15 11.91
12/13/2020 5:15:00 PM 5.51 41.918 0.08 7.35 3.19 11.87
12/13/2020 5:30:00 PM 5.48 41.864 0.081 7.35 3.01 11.85
12/13/2020 5:45:00 PM 5.44 41.792 0.081 7.31 3.09 11.83
12/13/2020 6:00:00 PM 5.41 41.738 0.081 7.3 3.36 11.82
12/13/2020 6:15:00 PM 5.38 41.684 0.081 7.32 3.36 11.82
12/13/2020 6:30:00 PM 5.35 41.63 0.081 7.29 3.08 11.81
12/13/2020 6:45:00 PM 5.31 41.558 0.082 7.29 3.12 11.81
12/13/2020 7:00:00 PM 5.28 41.504 0.082 7.27 3.15 11.82
12/13/2020 7:15:00 PM 5.25 41.45 0.082 7.3 3.12 11.82
12/13/2020 7:30:00 PM 5.21 41.378 0.082 7.27 3.02 11.83
12/13/2020 7:45:00 PM 5.18 41.324 0.082 7.26 3.08 11.84
12/13/2020 8:00:00 PM 5.14 41.252 0.082 7.29 3.02 11.84
12/13/2020 8:15:00 PM 5.1 41.18 0.082 7.26 3.17 11.85
12/13/2020 8:30:00 PM 5.07 41.126 0.083 7.27 3.11 11.87
12/13/2020 8:45:00 PM 5.03 41.054 0.083 7.25 3.07 11.88
12/13/2020 9:00:00 PM 5 41 0.083 7.28 3.08 11.89
12/13/2020 9:15:00 PM 4.97 40.946 0.083 7.25 3.09 11.9
12/13/2020 9:30:00 PM 4.95 40.91 0.083 7.26 3.43 11.91
12/13/2020 9:45:00 PM 4.92 40.856 0.083 7.26 3.02 11.91
12/13/2020 10:00:00 PM 4.89 40.802 0.083 7.25 3.18 11.92
12/13/2020 10:15:00 PM 4.87 40.766 0.084 7.24 3.04 11.93
12/13/2020 10:30:00 PM 4.84 40.712 0.083 7.28 3.17 11.94
12/13/2020 10:45:00 PM 4.82 40.676 0.083 7.25 3.11 11.95
12/13/2020 11:00:00 PM 4.79 40.622 0.083 7.25 3.05 11.96
12/13/2020 11:15:00 PM 4.77 40.586 0.083 7.27 3.12 11.97
12/13/2020 11:30:00 PM 4.74 40.532 0.083 7.25 3.15 11.98
12/13/2020 11:45:00 PM 4.72 40.496 0.084 7.25 3.08 11.98
12/14/2020 12:00:00 AM 4.7 40.46 0.084 7.25 3.3 11.99
12/14/2020 12:15:00 AM 4.67 40.406 0.083 7.28 3.13 12
12/14/2020 12:30:00 AM 4.65 40.37 0.084 7.26 3.16 12
12/14/2020 12:45:00 AM 4.63 40.334 0.084 7.26 3.22 12.01
12/14/2020 1:00:00 AM 4.61 40.298 0.084 7.25 3.06 12.01
12/14/2020 1:15:00 AM 4.58 40.244 0.083 7.25 3.18 12.02
12/14/2020 1:30:00 AM 4.56 40.208 0.084 7.24 3.09 12.02
12/14/2020 1:45:00 AM 4.54 40.172 0.084 7.27 3.03 12.03
12/14/2020 2:00:00 AM 4.51 40.118 0.084 7.25 3.15 12.04
12/14/2020 2:15:00 AM 4.49 40.082 0.084 7.27 3.13 12.04
12/14/2020 2:30:00 AM 4.47 40.046 0.084 7.25 3.15 12.05
12/14/2020 2:45:00 AM 4.45 40.01 0.084 7.26 3.26 12.05
12/14/2020 3:00:00 AM 4.43 39.974 0.084 7.25 3.19 12.06
12/14/2020 3:15:00 AM 4.41 39.938 0.084 7.24 3.13 12.06
12/14/2020 3:30:00 AM 4.39 39.902 0.084 7.23 3.06 12.07
12/14/2020 3:45:00 AM 4.37 39.866 0.084 7.24 3.22 12.07
12/14/2020 4:00:00 AM 4.35 39.83 0.084 7.23 3.21 12.08
12/14/2020 4:15:00 AM 4.34 39.812 0.084 7.27 3.05 12.09
12/14/2020 4:30:00 AM 4.31 39.758 0.084 7.24 3.14 12.09
12/14/2020 4:45:00 AM 4.26 39.668 0.084 7.23 3.22 12.1
12/14/2020 5:00:00 AM 4.2 39.56 0.083 7.23 3.13 12.11
12/14/2020 5:15:00 AM 4.17 39.506 0.084 7.24 3.07 12.12
12/14/2020 5:30:00 AM 4.14 39.452 0.084 7.24 3.13 12.14
12/14/2020 5:45:00 AM 4.12 39.416 0.083 7.23 3.53 12.14
12/14/2020 6:00:00 AM 4.09 39.362 0.084 7.25 3.21 12.15
12/14/2020 6:15:00 AM 4.07 39.326 0.084 7.27 3.36 12.17
12/14/2020 6:30:00 AM 4.05 39.29 0.084 7.23 3.31 12.17
12/14/2020 6:45:00 AM 4.03 39.254 0.084 7.27 3.14 12.18
12/14/2020 7:00:00 AM 4.01 39.218 0.084 7.24 3.11 12.18
12/14/2020 7:15:00 AM 3.97 39.146 0.084 7.23 3.14 12.19
12/14/2020 7:30:00 AM 3.92 39.056 0.084 7.26 3.15 12.2
12/14/2020 7:45:00 AM 3.88 38.984 0.083 7.24 3.15 12.22
12/14/2020 8:00:00 AM 3.85 38.93 0.083 7.24 3.4 12.25
12/14/2020 8:15:00 AM 3.86 38.948 0.083 7.29 3.18 12.31
12/14/2020 8:30:00 AM 3.86 38.948 0.083 7.28 3.17 12.38
12/14/2020 8:45:00 AM 3.86 38.948 0.083 7.3 3.2 12.43
12/14/2020 9:00:00 AM 3.86 38.948 0.083 7.31 2.96 12.51
12/14/2020 9:15:00 AM 3.87 38.966 0.083 7.35 2.97 12.62
12/14/2020 9:30:00 AM 3.88 38.984 0.083 7.37 3.06 12.69
12/14/2020 9:45:00 AM 3.89 39.002 0.083 7.41 3.03 12.71
12/14/2020 10:00:00 AM 3.9 39.02 0.083 7.4 2.92 12.74
12/14/2020 10:15:00 AM 3.92 39.056 0.083 7.43 3.03 12.79
12/14/2020 10:30:00 AM 3.93 39.074 0.083 7.48 2.83 12.84
12/14/2020 10:45:00 AM 3.96 39.128 0.082 7.5 2.98 12.93
12/14/2020 11:00:00 AM 4 39.2 0.082 7.6 2.95 13.05
12/14/2020 11:15:00 AM 4.01 39.218 0.082 7.59 3.03 13.04
12/14/2020 11:30:00 AM 4.03 39.254 0.082 7.6 3.08 13.04
12/14/2020 11:45:00 AM 4.04 39.272 0.082 7.61 2.92 13.04
12/14/2020 12:00:00 PM 4.06 39.308 0.082 7.63 2.98 13.02
12/14/2020 12:15:00 PM 4.1 39.38 0.082 7.68 3.04 13.09
12/14/2020 12:30:00 PM 4.15 39.47 0.081 7.77 2.87 13.18
12/14/2020 12:45:00 PM 4.21 39.578 0.081 7.82 2.9 13.21
12/14/2020 1:00:00 PM 4.23 39.614 0.081 7.8 2.94 13.15
12/14/2020 1:15:00 PM 4.23 39.614 0.081 7.72 2.94 13.02
12/14/2020 1:30:00 PM 4.23 39.614 0.081 7.63 2.98 12.89
12/14/2020 1:45:00 PM 4.24 39.632 0.081 7.63 3.14 12.9
12/14/2020 2:00:00 PM 4.25 39.65 0.081 7.65 2.95 12.86
12/14/2020 2:15:00 PM 4.25 39.65 0.081 7.59 2.97 12.8
12/14/2020 2:30:00 PM 4.26 39.668 0.081 7.63 3.03 12.84
12/14/2020 2:45:00 PM 4.28 39.704 0.081 7.67 2.97 12.91
12/14/2020 3:00:00 PM 4.26 39.668 0.081 7.58 2.95 12.76
12/14/2020 3:15:00 PM 4.23 39.614 0.081 7.5 2.97 12.58
12/14/2020 3:30:00 PM 4.22 39.596 0.081 7.45 3.08 12.5
12/14/2020 3:45:00 PM 4.2 39.56 0.082 7.43 2.97 12.48
12/14/2020 4:00:00 PM 4.19 39.542 0.082 7.44 3.03 12.46
12/14/2020 4:15:00 PM 4.16 39.488 0.082 7.39 3.11 12.4
12/14/2020 4:30:00 PM 4.13 39.434 0.082 7.36 3 12.35
12/14/2020 4:45:00 PM 4.1 39.38 0.082 7.33 2.95 12.32
12/14/2020 5:00:00 PM 4.08 39.344 0.082 7.31 2.91 12.29
12/14/2020 5:15:00 PM 4.04 39.272 0.082 7.3 3.07 12.28
12/14/2020 5:30:00 PM 4.01 39.218 0.082 7.29 3.05 12.27
12/14/2020 5:45:00 PM 3.97 39.146 0.082 7.29 3.01 12.28
12/14/2020 6:00:00 PM 3.92 39.056 0.082 7.28 3.07 12.28
12/14/2020 6:15:00 PM 3.87 38.966 0.082 7.3 3.11 12.29
12/14/2020 6:30:00 PM 3.82 38.876 0.082 7.29 2.94 12.3
12/14/2020 6:45:00 PM 3.77 38.786 0.083 7.27 3.11 12.32
12/14/2020 7:00:00 PM 3.73 38.714 0.083 7.29 3.01 12.33
12/14/2020 7:15:00 PM 3.67 38.606 0.083 7.27 3.05 12.34
12/14/2020 7:30:00 PM 3.62 38.516 0.083 7.27 3.12 12.37
12/14/2020 7:45:00 PM 3.57 38.426 0.083 7.29 3.01 12.39
12/14/2020 8:00:00 PM 3.53 38.354 0.083 7.25 3.07 12.41
12/14/2020 8:15:00 PM 3.47 38.246 0.083 7.25 3.12 12.43
12/14/2020 8:30:00 PM 3.41 38.138 0.084 7.26 3.15 12.47
12/14/2020 8:45:00 PM 3.36 38.048 0.084 7.27 3.12 12.48
12/14/2020 9:00:00 PM 3.32 37.976 0.084 7.25 3.16 12.51
12/14/2020 9:15:00 PM 3.27 37.886 0.084 7.25 3.08 12.53
12/14/2020 9:30:00 PM 3.22 37.796 0.083 7.25 3.1 12.55
12/14/2020 9:45:00 PM 3.17 37.706 0.084 7.27 3.06 12.57
12/14/2020 10:00:00 PM 3.13 37.634 0.084 7.26 3.18 12.59
12/14/2020 10:15:00 PM 3.09 37.562 0.084 7.27 3.12 12.61
12/14/2020 10:30:00 PM 3.05 37.49 0.084 7.24 3.11 12.63
12/14/2020 10:45:00 PM 2.99 37.382 0.084 7.24 3.08 12.65
12/14/2020 11:00:00 PM 2.95 37.31 0.084 7.24 3.01 12.67
12/14/2020 11:15:00 PM 2.9 37.22 0.084 7.28 3.13 12.69
12/14/2020 11:30:00 PM 2.86 37.148 0.084 7.27 3.12 12.71
12/14/2020 11:45:00 PM 2.81 37.058 0.084 7.25 3.06 12.73
12/15/2020 12:00:00 AM 2.77 36.986 0.084 7.25 2.99 12.74
12/15/2020 12:15:00 AM 2.74 36.932 0.084 7.27 3.13 12.75
12/15/2020 12:30:00 AM 2.7 36.86 0.084 7.27 3.06 12.77
12/15/2020 12:45:00 AM 2.67 36.806 0.084 7.25 3.05 12.78
12/15/2020 1:00:00 AM 2.61 36.698 0.084 7.25 3 12.8
12/15/2020 1:15:00 AM 2.55 36.59 0.084 7.27 3.04 12.82
12/15/2020 1:30:00 AM 2.51 36.518 0.084 7.26 3 12.85
12/15/2020 1:45:00 AM 2.47 36.446 0.084 7.25 2.98 12.87
12/15/2020 2:00:00 AM 2.44 36.392 0.084 7.27 3.18 12.88
12/15/2020 2:15:00 AM 2.41 36.338 0.084 7.25 2.94 12.89
12/15/2020 2:30:00 AM 2.37 36.266 0.084 7.24 2.96 12.92
12/15/2020 2:45:00 AM 2.33 36.194 0.084 7.25 2.97 12.93
12/15/2020 3:00:00 AM 2.29 36.122 0.084 7.24 2.91 12.95
12/15/2020 3:15:00 AM 2.27 36.086 0.084 7.26 3.06 12.97
12/15/2020 3:30:00 AM 2.25 36.05 0.084 7.25 3.11 12.98
12/15/2020 3:45:00 AM 2.24 36.032 0.084 7.25 3 12.99
12/15/2020 4:00:00 AM 2.21 35.978 0.084 7.25 2.99 13
12/15/2020 4:15:00 AM 2.19 35.942 0.084 7.25 3.07 13.01
12/15/2020 4:30:00 AM 2.17 35.906 0.084 7.28 3.13 13.02
12/15/2020 4:45:00 AM 2.15 35.87 0.084 7.24 3.01 13.03
12/15/2020 5:00:00 AM 2.13 35.834 0.084 7.25 3.05 13.04
12/15/2020 5:15:00 AM 2.12 35.816 0.084 7.25 3.12 13.05
12/15/2020 5:30:00 AM 2.1 35.78 0.084 7.25 3.71 13.05
12/15/2020 5:45:00 AM 2.08 35.744 0.084 7.25 3.39 13.07
12/15/2020 6:00:00 AM 2.07 35.726 0.084 7.25 3.1 13.07
12/15/2020 6:15:00 AM 2.06 35.708 0.084 7.25 3.22 13.08
12/15/2020 6:30:00 AM 2.05 35.69 0.084 7.25 3.12 13.09
12/15/2020 6:45:00 AM 2.04 35.672 0.084 7.25 3.05 13.09
12/15/2020 7:00:00 AM 2.02 35.636 0.084 7.25 3.01 13.11
12/15/2020 7:15:00 AM 2.01 35.618 0.085 7.25 3.08 13.11
12/15/2020 7:30:00 AM 1.99 35.582 0.084 7.23 3.08 13.12
12/15/2020 7:45:00 AM 1.98 35.564 0.084 7.26 3.13 13.15
12/15/2020 8:00:00 AM 1.97 35.546 0.084 7.27 3.12 13.21
12/15/2020 8:15:00 AM 1.97 35.546 0.084 7.32 3.4 13.31
12/15/2020 8:30:00 AM 1.97 35.546 0.084 7.32 3.27 13.41
12/15/2020 8:45:00 AM 1.96 35.528 0.084 7.35 3.07 13.52
12/15/2020 9:00:00 AM 1.96 35.528 0.084 7.38 3.02 13.59
12/15/2020 9:15:00 AM 1.98 35.564 0.084 7.42 2.9 13.68
12/15/2020 9:30:00 AM 1.99 35.582 0.084 7.46 3.03 13.79
12/15/2020 9:45:00 AM 2.02 35.636 0.083 7.52 2.95 13.9
12/15/2020 10:00:00 AM 2.03 35.654 0.084 7.56 2.86 13.96
12/15/2020 10:15:00 AM 2.07 35.726 0.083 7.62 3.01 14.01
12/15/2020 10:30:00 AM 2.06 35.708 0.083 7.63 3 14.04
12/15/2020 10:45:00 AM 2.12 35.816 0.083 7.68 2.98 14.07
12/15/2020 11:00:00 AM 2.15 35.87 0.083 7.68 2.93 14.1
12/15/2020 11:15:00 AM 2.19 35.942 0.083 7.72 2.93 14.09
12/15/2020 11:30:00 AM 2.23 36.014 0.083 7.74 2.95 14.08
12/15/2020 11:45:00 AM 2.3 36.14 0.082 7.78 2.81 14.09
12/15/2020 12:00:00 PM 2.36 36.248 0.082 7.79 2.86 14.08
12/15/2020 12:15:00 PM 2.42 36.356 0.082 7.8 3 14.06
12/15/2020 12:30:00 PM 2.46 36.428 0.082 7.81 2.9 14.04
12/15/2020 12:45:00 PM 2.48 36.464 0.082 7.79 2.98 13.99
12/15/2020 1:00:00 PM 2.48 36.464 0.082 7.77 2.91 13.95
12/15/2020 1:15:00 PM 2.51 36.518 0.082 7.79 2.85 13.94
12/15/2020 1:30:00 PM 2.55 36.59 0.081 7.8 2.86 13.97
12/15/2020 1:45:00 PM 2.59 36.662 0.081 7.83 3.04 13.96
12/15/2020 2:00:00 PM 2.61 36.698 0.081 7.83 2.83 13.94
12/15/2020 2:15:00 PM 2.61 36.698 0.081 7.83 2.97 13.91
12/15/2020 2:30:00 PM 2.6 36.68 0.081 7.79 2.86 13.87
12/15/2020 2:45:00 PM 2.6 36.68 0.081 7.78 2.93 13.81
12/15/2020 3:00:00 PM 2.59 36.662 0.081 7.7 2.86 13.74
12/15/2020 3:15:00 PM 2.57 36.626 0.081 7.66 2.8 13.68
12/15/2020 3:30:00 PM 2.57 36.626 0.081 7.64 2.93 13.66
12/15/2020 3:45:00 PM 2.56 36.608 0.081 7.6 2.98 13.6
12/15/2020 4:00:00 PM 2.54 36.572 0.081 7.56 2.86 13.51
12/15/2020 4:15:00 PM 2.52 36.536 0.081 7.54 2.86 13.44
12/15/2020 4:30:00 PM 2.48 36.464 0.081 7.48 2.95 13.35
12/15/2020 4:45:00 PM 2.43 36.374 0.081 7.41 3.03 13.27
12/15/2020 5:00:00 PM 2.38 36.284 0.081 7.38 2.93 13.21
12/15/2020 5:15:00 PM 2.34 36.212 0.082 7.35 3.03 13.18
12/15/2020 5:30:00 PM 2.29 36.122 0.082 7.34 2.89 13.16
12/15/2020 5:45:00 PM 2.24 36.032 0.082 7.33 2.89 13.14
12/15/2020 6:00:00 PM 2.19 35.942 0.082 7.31 2.98 13.14
12/15/2020 6:15:00 PM 2.14 35.852 0.082 7.3 2.95 13.14
12/15/2020 6:30:00 PM 2.1 35.78 0.083 7.3 3.06 13.13
12/15/2020 6:45:00 PM 2.05 35.69 0.083 7.28 3.14 13.13
12/15/2020 7:00:00 PM 2.01 35.618 0.083 7.3 3.23 13.13
12/15/2020 7:15:00 PM 1.97 35.546 0.083 7.27 3.02 13.15
12/15/2020 7:30:00 PM 1.93 35.474 0.083 7.28 2.97 13.16
12/15/2020 7:45:00 PM 1.89 35.402 0.083 7.27 2.98 13.17
12/15/2020 8:00:00 PM 1.84 35.312 0.083 7.26 3.05 13.19
12/15/2020 8:15:00 PM 1.79 35.222 0.084 7.26 3.05 13.21
12/15/2020 8:30:00 PM 1.74 35.132 0.084 7.25 2.93 13.22
12/15/2020 8:45:00 PM 1.7 35.06 0.084 7.28 3.14 13.24
12/15/2020 9:00:00 PM 1.65 34.97 0.084 7.26 3.01 13.26
12/15/2020 9:15:00 PM 1.6 34.88 0.084 7.27 3.17 13.28
12/15/2020 9:30:00 PM 1.56 34.808 0.084 7.26 2.97 13.3
12/15/2020 9:45:00 PM 1.54 34.772 0.084 7.29 3.2 13.31
12/15/2020 10:00:00 PM 1.52 34.736 0.085 7.26 3.03 13.32
12/15/2020 10:15:00 PM 1.5 34.7 0.084 7.26 2.94 13.33
12/15/2020 10:30:00 PM 1.48 34.664 0.084 7.25 3.03 13.35
12/15/2020 10:45:00 PM 1.44 34.592 0.084 7.27 2.92 13.36
12/15/2020 11:00:00 PM 1.41 34.538 0.084 7.27 2.87 13.37
12/15/2020 11:15:00 PM 1.37 34.466 0.085 7.26 3.02 13.38
12/15/2020 11:30:00 PM 1.32 34.376 0.085 7.26 3.23 13.41
12/15/2020 11:45:00 PM 1.28 34.304 0.085 7.26 3.32 13.43
12/16/2020 12:00:00 AM 1.25 34.25 0.085 7.25 3.07 13.44
12/16/2020 12:15:00 AM 1.23 34.214 0.085 7.26 3.19 13.44
12/16/2020 12:30:00 AM 1.19 34.142 0.085 7.26 3.08 13.46
12/16/2020 12:45:00 AM 1.14 34.052 0.085 7.25 3.15 13.48
12/16/2020 1:00:00 AM 1.08 33.944 0.085 7.28 2.89 13.5
12/16/2020 1:15:00 AM 1.06 33.908 0.085 7.25 2.97 13.52
12/16/2020 1:30:00 AM 1.02 33.836 0.085 7.25 3.09 13.53
12/16/2020 1:45:00 AM 0.98 33.764 0.085 7.26 2.95 13.54
12/16/2020 2:00:00 AM 0.94 33.692 0.085 7.26 3 13.56
12/16/2020 2:15:00 AM 0.91 33.638 0.085 7.27 2.89 13.58
12/16/2020 2:30:00 AM 0.88 33.584 0.085 7.26 3.07 13.59
12/16/2020 2:45:00 AM 0.87 33.566 0.085 7.25 2.98 13.6
12/16/2020 3:00:00 AM 0.85 33.53 0.085 7.26 2.98 13.61
12/16/2020 3:15:00 AM 0.82 33.476 0.085 7.25 3.07 13.62
12/16/2020 3:30:00 AM 0.8 33.44 0.085 7.25 3.02 13.63
12/16/2020 3:45:00 AM 0.78 33.404 0.085 7.25 2.91 13.64
12/16/2020 4:00:00 AM 0.74 33.332 0.085 7.25 2.94 13.65
12/16/2020 4:15:00 AM 0.7 33.26 0.085 7.27 3.2 13.66
12/16/2020 4:30:00 AM 0.67 33.206 0.085 7.25 3.02 13.67
12/16/2020 4:45:00 AM 0.65 33.17 0.085 7.25 3.11 13.68
12/16/2020 5:00:00 AM 0.63 33.134 0.085 7.27 3.06 13.69
12/16/2020 5:15:00 AM 0.62 33.116 0.085 7.25 3.05 13.7
12/16/2020 5:30:00 AM 0.6 33.08 0.085 7.25 3.12 13.71
12/16/2020 5:45:00 AM 0.58 33.044 0.085 7.27 2.83 13.72
12/16/2020 6:00:00 AM 0.55 32.99 0.085 7.25 2.93 13.73
12/16/2020 6:15:00 AM 0.53 32.954 0.085 7.25 3.03 13.74
12/16/2020 6:30:00 AM 0.5 32.9 0.085 7.25 2.99 13.75
12/16/2020 6:45:00 AM 0.48 32.864 0.085 7.24 2.91 13.76
12/16/2020 7:00:00 AM 0.47 32.846 0.085 7.27 2.98 13.77
12/16/2020 7:15:00 AM 0.46 32.828 0.085 7.25 2.87 13.77
12/16/2020 7:30:00 AM 0.44 32.792 0.085 7.25 3.02 13.78
12/16/2020 7:45:00 AM 0.42 32.756 0.085 7.25 2.92 13.79
12/16/2020 8:00:00 AM 0.41 32.738 0.085 7.26 2.81 13.85
12/16/2020 8:15:00 AM 0.38 32.684 0.085 7.28 2.89 13.93
12/16/2020 8:30:00 AM 0.36 32.648 0.085 7.31 2.92 14
12/16/2020 8:45:00 AM 0.35 32.63 0.085 7.31 3.05 14.13
12/16/2020 9:00:00 AM 0.36 32.648 0.085 7.39 2.83 14.26
12/16/2020 9:15:00 AM 0.37 32.666 0.085 7.42 2.76 14.38
12/16/2020 9:30:00 AM 0.38 32.684 0.085 7.44 2.78 14.42
12/16/2020 9:45:00 AM 0.38 32.684 0.084 7.48 2.82 14.46
12/16/2020 10:00:00 AM 0.38 32.684 0.084 7.48 2.83 14.48
12/16/2020 10:15:00 AM 0.4 32.72 0.084 7.51 2.75 14.53
12/16/2020 10:30:00 AM 0.44 32.792 0.084 7.53 2.77 14.6
12/16/2020 10:45:00 AM 0.47 32.846 0.084 7.58 2.82 14.61
12/16/2020 11:00:00 AM 0.48 32.864 0.084 7.56 2.83 14.56
12/16/2020 11:15:00 AM 0.48 32.864 0.084 7.54 2.79 14.48
12/16/2020 11:30:00 AM 0.47 32.846 0.084 7.52 2.89 14.43
12/16/2020 11:45:00 AM 0.44 32.792 0.084 7.5 2.86 14.38
12/16/2020 12:00:00 PM 0.39 32.702 0.084 7.48 2.85 14.36
12/16/2020 12:15:00 PM 0.29 32.522 0.083 7.47 2.83 14.37
12/16/2020 12:30:00 PM 0.26 32.468 0.083 7.5 2.8 14.44
12/16/2020 12:45:00 PM 0.24 32.432 0.083 7.52 2.87 14.46
12/16/2020 1:00:00 PM 0.19 32.342 0.083 7.49 2.85 14.44
12/16/2020 1:15:00 PM 0.13 32.234 0.083 7.49 2.8 14.42
12/16/2020 1:30:00 PM 0.1 32.18 0.083 7.48 2.79 14.42
12/16/2020 1:45:00 PM 0.1 32.18 0.083 7.5 2.93 14.4
12/16/2020 2:00:00 PM 0.09 32.162 0.083 7.47 2.85 14.36
12/16/2020 2:15:00 PM 0.03 32.054 0.083 7.42 2.95 14.3
12/16/2020 2:30:00 PM -0.05 31.91 0.082 7.41 3.16 14.31
12/16/2020 2:45:00 PM -0.06 31.892 0.083 7.41 3.39 14.31
12/16/2020 3:00:00 PM -0.06 31.892 0.082 7.43 3.57 14.3
12/16/2020 3:15:00 PM -0.06 31.892 0.083 7.39 3.42 14.28
12/16/2020 3:30:00 PM -0.06 31.892 0.082 7.39 4.24 14.26
12/16/2020 3:45:00 PM -0.06 31.892 0.083 7.37 3.61 14.23
12/16/2020 4:00:00 PM -0.05 31.91 0.083 7.38 3.48 14.21
12/16/2020 4:15:00 PM -0.05 31.91 0.083 7.36 3.13 14.18
12/16/2020 4:30:00 PM -0.05 31.91 0.083 7.35 3.22 14.14
12/16/2020 4:45:00 PM -0.05 31.91 0.083 7.35 3.12 14.09
12/16/2020 5:00:00 PM -0.05 31.91 0.083 7.32 3.24 14.07
12/16/2020 5:15:00 PM -0.06 31.892 0.083 7.31 3.07 14.03
12/16/2020 5:30:00 PM -0.05 31.91 0.083 7.29 3.17 14.01
12/16/2020 5:45:00 PM -0.05 31.91 0.083 7.31 3.24 14
12/16/2020 6:00:00 PM -0.05 31.91 0.084 7.29 3.39 13.99
12/16/2020 6:15:00 PM -0.05 31.91 0.084 7.28 3.32 13.98
12/16/2020 6:30:00 PM -0.05 31.91 0.084 7.27 3.25 13.96
12/16/2020 6:45:00 PM -0.05 31.91 0.084 7.27 3.35 13.95
12/16/2020 7:00:00 PM -0.05 31.91 0.084 7.27 3.31 13.92
12/16/2020 7:15:00 PM -0.05 31.91 0.084 7.27 3.32 13.92
12/16/2020 7:30:00 PM -0.05 31.91 0.084 7.26 3.25 13.9
12/16/2020 7:45:00 PM -0.05 31.91 0.084 7.26 3.4 13.9
12/16/2020 8:00:00 PM -0.05 31.91 0.084 7.25 3.38 13.89
12/16/2020 8:15:00 PM -0.05 31.91 0.084 7.27 3.37 13.89
12/16/2020 8:30:00 PM -0.05 31.91 0.084 7.24 3.45 13.89
12/16/2020 8:45:00 PM -0.05 31.91 0.084 7.23 3.48 13.88
12/16/2020 9:00:00 PM -0.05 31.91 0.084 7.23 3.64 13.85
12/16/2020 9:15:00 PM -0.05 31.91 0.084 7.23 3.61 13.84
12/16/2020 9:30:00 PM -0.05 31.91 0.083 7.22 3.63 13.81
12/16/2020 9:45:00 PM -0.05 31.91 0.083 7.24 3.79 13.79
12/16/2020 10:00:00 PM -0.05 31.91 0.083 7.22 3.78 13.79
12/16/2020 10:15:00 PM -0.05 31.91 0.083 7.22 3.55 13.78
12/16/2020 10:30:00 PM -0.05 31.91 0.083 7.23 3.28 13.76
12/16/2020 10:45:00 PM -0.05 31.91 0.084 7.22 3.47 13.76
12/16/2020 11:00:00 PM -0.05 31.91 0.084 7.22 3.61 13.74
12/16/2020 11:15:00 PM -0.05 31.91 0.084 7.21 3.53 13.73
12/16/2020 11:30:00 PM -0.05 31.91 0.084 7.2 4.02 13.7
12/16/2020 11:45:00 PM -0.05 31.91 0.084 7.22 4.2 13.69
12/17/2020 12:00:00 AM -0.05 31.91 0.084 7.18 4.37 13.67
12/17/2020 12:15:00 AM -0.05 31.91 0.084 7.17 4.41 13.65
12/17/2020 12:30:00 AM -0.05 31.91 0.084 7.17 4.22 13.66
12/17/2020 12:45:00 AM -0.05 31.91 0.084 7.17 6.66 13.65
12/17/2020 1:00:00 AM -0.06 31.892 0.084 7.16 4.47 13.66
12/17/2020 1:15:00 AM -0.06 31.892 0.084 7.15 4.47 13.65
12/17/2020 1:30:00 AM -0.06 31.892 0.084 7.16 6.26 13.66
12/17/2020 1:45:00 AM -0.06 31.892 0.084 7.18 5.83 13.66
12/17/2020 2:00:00 AM -0.05 31.91 0.084 7.16 4.13 13.65
12/17/2020 2:15:00 AM -0.05 31.91 0.084 7.16 4.54 13.64
12/17/2020 2:30:00 AM -0.05 31.91 0.084 7.14 4.12 13.62
12/17/2020 2:45:00 AM -0.05 31.91 0.084 7.14 5.3 13.66
12/17/2020 3:00:00 AM -0.05 31.91 0.084 7.13 5.04 13.67
12/17/2020 3:15:00 AM -0.05 31.91 0.083 7.14 4.65 13.67
12/17/2020 3:30:00 AM -0.05 31.91 0.083 7.13 4.63 13.67
12/17/2020 3:45:00 AM -0.05 31.91 0.083 7.15 4.82 13.65
12/17/2020 4:00:00 AM -0.06 31.892 0.083 7.12 4.47 13.64
12/17/2020 4:15:00 AM -0.05 31.91 0.083 7.12 4.36 13.62
12/17/2020 4:30:00 AM -0.06 31.892 0.083 7.15 4.34 13.6
12/17/2020 4:45:00 AM -0.05 31.91 0.083 7.12 4.42 13.6
12/17/2020 5:00:00 AM -0.05 31.91 0.083 7.14 4.48 13.58
12/17/2020 5:15:00 AM -0.05 31.91 0.083 7.12 4.21 13.57
12/17/2020 5:30:00 AM -0.05 31.91 0.083 7.12 4.17 13.57
12/17/2020 5:45:00 AM -0.05 31.91 0.083 7.11 3.99 13.57
12/17/2020 6:00:00 AM -0.06 31.892 0.083 7.11 4.17 13.57
12/17/2020 6:15:00 AM -0.06 31.892 0.083 7.11 4.12 13.57
12/17/2020 6:30:00 AM -0.05 31.91 0.083 7.11 3.88 13.57
12/17/2020 6:45:00 AM -0.05 31.91 0.083 7.13 4.08 13.58
12/17/2020 7:00:00 AM -0.05 31.91 0.083 7.11 4.37 13.58
12/17/2020 7:15:00 AM -0.05 31.91 0.083 7.11 4.32 13.59
12/17/2020 7:30:00 AM -0.05 31.91 0.083 7.11 3.85 13.6
12/17/2020 7:45:00 AM -0.06 31.892 0.083 7.11 4.03 13.62
12/17/2020 8:00:00 AM -0.05 31.91 0.084 7.11 4.28 13.65
12/17/2020 8:15:00 AM -0.05 31.91 0.083 7.15 4.26 13.7
12/17/2020 8:30:00 AM -0.05 31.91 0.083 7.12 4.09 13.74
12/17/2020 8:45:00 AM -0.05 31.91 0.083 7.13 4.62 13.79
12/17/2020 9:00:00 AM -0.05 31.91 0.083 7.14 4.05 13.85
12/17/2020 9:15:00 AM -0.06 31.892 0.083 7.18 4.47 13.9
12/17/2020 9:30:00 AM -0.06 31.892 0.083 7.17 4.23 13.95
12/17/2020 9:45:00 AM -0.06 31.892 0.083 7.18 4.35 14
12/17/2020 10:00:00 AM -0.06 31.892 0.083 7.2 4.51 14.06
12/17/2020 10:15:00 AM -0.05 31.91 0.083 7.23 4.06 14.1
12/17/2020 10:30:00 AM -0.06 31.892 0.082 7.23 4.85 14.14
12/17/2020 10:45:00 AM -0.06 31.892 0.082 7.26 4.46 14.16
12/17/2020 11:00:00 AM -0.05 31.91 0.082 7.26 5.52 14.23
12/17/2020 11:15:00 AM -0.05 31.91 0.082 7.25 6.34 14.26
12/17/2020 11:30:00 AM -0.05 31.91 0.082 7.29 8.44 14.28
12/17/2020 11:45:00 AM -0.05 31.91 0.081 7.26 8.02 14.32
12/17/2020 12:00:00 PM -0.05 31.91 0.08 7.28 7.85 14.34
12/17/2020 12:15:00 PM -0.05 31.91 0.081 7.3 9.91 14.34
12/17/2020 12:30:00 PM -0.05 31.91 0.081 7.32 8.21 14.36
12/17/2020 12:45:00 PM -0.05 31.91 0.081 7.32 9.3 14.38
12/17/2020 1:00:00 PM -0.05 31.91 0.081 7.33 5.61 14.4
12/17/2020 1:15:00 PM -0.05 31.91 0.081 7.34 5.02 14.41
12/17/2020 1:30:00 PM -0.05 31.91 0.081 7.34 5.21 14.41
12/17/2020 1:45:00 PM -0.05 31.91 0.081 7.34 5.3 14.42
12/17/2020 2:00:00 PM -0.05 31.91 0.081 7.37 5.46 14.42
12/17/2020 2:15:00 PM -0.05 31.91 0.081 7.34 5.74 14.42
12/17/2020 2:30:00 PM -0.05 31.91 0.081 7.35 5.16 14.41
12/17/2020 2:45:00 PM -0.05 31.91 0.081 7.34 6.44 14.39
12/17/2020 3:00:00 PM -0.05 31.91 0.081 7.34 5.74 14.39
12/17/2020 3:15:00 PM -0.05 31.91 0.081 7.37 4.74 14.37
12/17/2020 3:30:00 PM -0.05 31.91 0.081 7.35 4.47 14.36
12/17/2020 3:45:00 PM -0.05 31.91 0.081 7.34 4.91 14.33
12/17/2020 4:00:00 PM -0.05 31.91 0.081 7.33 4.19 14.29
12/17/2020 4:15:00 PM -0.05 31.91 0.081 7.32 4.17 14.25
12/17/2020 4:30:00 PM -0.05 31.91 0.081 7.3 4.2 14.22
12/17/2020 4:45:00 PM -0.05 31.91 0.081 7.28 3.86 14.16
12/17/2020 5:00:00 PM -0.05 31.91 0.081 7.26 3.95 14.11
12/17/2020 5:15:00 PM -0.05 31.91 0.081 7.26 3.86 14.08
12/17/2020 5:30:00 PM -0.05 31.91 0.081 7.23 4.19 14.05
12/17/2020 5:45:00 PM -0.05 31.91 0.081 7.24 3.91 14.03
12/17/2020 6:00:00 PM -0.05 31.91 0.081 7.24 3.72 14
12/17/2020 6:15:00 PM -0.05 31.91 0.081 7.23 3.89 13.98
12/17/2020 6:30:00 PM -0.05 31.91 0.081 7.21 3.97 13.96
12/17/2020 6:45:00 PM -0.05 31.91 0.081 7.21 3.82 13.94
12/17/2020 7:00:00 PM -0.05 31.91 0.081 7.2 3.89 13.94
12/17/2020 7:15:00 PM -0.05 31.91 0.081 7.2 3.96 13.93
12/17/2020 7:30:00 PM -0.05 31.91 0.081 7.19 3.67 13.92
12/17/2020 7:45:00 PM -0.05 31.91 0.081 7.19 3.77 13.9
12/17/2020 8:00:00 PM -0.05 31.91 0.081 7.19 3.85 13.91
12/17/2020 8:15:00 PM -0.05 31.91 0.081 7.17 3.54 13.89
12/17/2020 8:30:00 PM -0.05 31.91 0.082 7.19 3.82 13.9
12/17/2020 8:45:00 PM -0.05 31.91 0.082 7.2 3.81 13.88
12/17/2020 9:00:00 PM -0.05 31.91 0.082 7.2 3.79 13.88
12/17/2020 9:15:00 PM -0.05 31.91 0.082 7.18 3.57 13.88
12/17/2020 9:30:00 PM -0.05 31.91 0.082 7.19 3.99 13.88
12/17/2020 9:45:00 PM -0.05 31.91 0.082 7.2 3.92 13.89
12/17/2020 10:00:00 PM -0.05 31.91 0.082 7.19 3.81 13.88
12/17/2020 10:15:00 PM -0.05 31.91 0.082 7.18 3.76 13.87
12/17/2020 10:30:00 PM -0.05 31.91 0.082 7.2 3.65 13.88
12/17/2020 10:45:00 PM -0.05 31.91 0.082 7.2 3.76 13.88
12/17/2020 11:00:00 PM -0.05 31.91 0.082 7.18 3.74 13.89
12/17/2020 11:15:00 PM -0.05 31.91 0.082 7.19 3.77 13.89
12/17/2020 11:30:00 PM -0.05 31.91 0.082 7.18 3.64 13.88
12/17/2020 11:45:00 PM -0.05 31.91 0.082 7.19 3.69 13.89
12/18/2020 12:00:00 AM -0.05 31.91 0.082 7.18 3.78 13.89
12/18/2020 12:15:00 AM -0.05 31.91 0.082 7.19 3.69 13.88
12/18/2020 12:30:00 AM -0.05 31.91 0.082 7.19 3.53 13.89
12/18/2020 12:45:00 AM -0.05 31.91 0.082 7.19 3.45 13.89
12/18/2020 1:00:00 AM -0.05 31.91 0.082 7.19 3.61 13.87
12/18/2020 1:15:00 AM -0.05 31.91 0.082 7.18 3.41 13.89
12/18/2020 1:30:00 AM -0.05 31.91 0.082 7.16 3.55 13.88
12/18/2020 1:45:00 AM -0.05 31.91 0.082 7.17 3.47 13.89
12/18/2020 2:00:00 AM -0.05 31.91 0.082 7.18 3.63 13.88
12/18/2020 2:15:00 AM -0.05 31.91 0.082 7.18 3.73 13.88
12/18/2020 2:30:00 AM -0.05 31.91 0.082 7.17 3.37 13.88
12/18/2020 2:45:00 AM -0.05 31.91 0.082 7.18 3.54 13.88
12/18/2020 3:00:00 AM -0.05 31.91 0.082 7.18 3.48 13.88
12/18/2020 3:15:00 AM -0.05 31.91 0.082 7.21 3.42 13.89
12/18/2020 3:30:00 AM -0.05 31.91 0.082 7.18 3.34 13.89
12/18/2020 3:45:00 AM -0.05 31.91 0.082 7.18 3.22 13.88
12/18/2020 4:00:00 AM -0.05 31.91 0.082 7.21 3.54 13.89
12/18/2020 4:15:00 AM -0.05 31.91 0.083 7.19 3.42 13.88
12/18/2020 4:30:00 AM -0.05 31.91 0.082 7.2 3.68 13.88
12/18/2020 4:45:00 AM -0.05 31.91 0.082 7.19 3.44 13.88
12/18/2020 5:00:00 AM -0.05 31.91 0.082 7.19 3.33 13.88
12/18/2020 5:15:00 AM -0.05 31.91 0.083 7.21 3.58 13.88
12/18/2020 5:30:00 AM -0.05 31.91 0.082 7.19 3.33 13.89
12/18/2020 5:45:00 AM -0.05 31.91 0.082 7.2 3.84 13.89
12/18/2020 6:00:00 AM -0.05 31.91 0.083 7.18 3.28 13.9
12/18/2020 6:15:00 AM -0.05 31.91 0.082 7.2 3.33 13.9
12/18/2020 6:30:00 AM -0.05 31.91 0.082 7.18 3.22 13.9
12/18/2020 6:45:00 AM -0.05 31.91 0.082 7.18 3.38 13.9
12/18/2020 7:00:00 AM -0.05 31.91 0.082 7.21 3.26 13.9
12/18/2020 7:15:00 AM -0.05 31.91 0.082 7.18 3.33 13.9
12/18/2020 7:30:00 AM -0.05 31.91 0.082 7.17 3.59 13.9
12/18/2020 7:45:00 AM -0.05 31.91 0.082 7.18 3.41 13.9
12/18/2020 8:00:00 AM -0.05 31.91 0.082 7.18 3.36 13.91
12/18/2020 8:15:00 AM -0.05 31.91 0.082 7.19 3.2 13.92
12/18/2020 8:30:00 AM -0.05 31.91 0.082 7.19 3.35 13.95
12/18/2020 8:45:00 AM -0.05 31.91 0.082 7.19 3.63 13.98
12/18/2020 9:00:00 AM -0.05 31.91 0.082 7.2 3.26 13.99
12/18/2020 9:15:00 AM -0.05 31.91 0.082 7.21 3.41 14.02
12/18/2020 9:30:00 AM -0.05 31.91 0.082 7.22 3.21 14.06
12/18/2020 9:45:00 AM -0.05 31.91 0.082 7.23 3.21 14.11
12/18/2020 10:00:00 AM -0.05 31.91 0.082 7.25 3.18 14.16
12/18/2020 10:15:00 AM -0.05 31.91 0.082 7.26 3.55 14.24
12/18/2020 10:30:00 AM -0.05 31.91 0.082 7.27 3.65 14.29
12/18/2020 10:45:00 AM -0.05 31.91 0.082 7.3 3.64 14.34
12/18/2020 11:00:00 AM -0.05 31.91 0.082 7.31 4.15 14.38
12/18/2020 11:15:00 AM -0.05 31.91 0.081 7.32 3.77 14.41
12/18/2020 11:30:00 AM -0.04 31.928 0.082 7.33 4.66 14.45
12/18/2020 11:45:00 AM -0.05 31.91 0.081 7.35 4.31 14.48
12/18/2020 12:00:00 PM -0.05 31.91 0.081 7.37 4.36 14.5
12/18/2020 12:15:00 PM -0.04 31.928 0.081 7.38 4.21 14.51
12/18/2020 12:30:00 PM -0.04 31.928 0.081 7.4 4.07 14.52
12/18/2020 12:45:00 PM -0.05 31.91 0.081 7.42 3.98 14.53
12/18/2020 1:00:00 PM -0.04 31.928 0.081 7.42 4.83 14.54
12/18/2020 1:15:00 PM -0.04 31.928 0.08 7.42 4.64 14.54
12/18/2020 1:30:00 PM -0.05 31.91 0.08 7.41 4.32 14.53
12/18/2020 1:45:00 PM -0.05 31.91 0.08 7.42 4.19 14.52
12/18/2020 2:00:00 PM -0.05 31.91 0.08 7.4 3.99 14.51
12/18/2020 2:15:00 PM -0.04 31.928 0.08 7.44 3.97 14.51
12/18/2020 2:30:00 PM -0.04 31.928 0.08 7.41 4.43 14.5
12/18/2020 2:45:00 PM -0.05 31.91 0.08 7.44 3.77 14.48
12/18/2020 3:00:00 PM -0.05 31.91 0.08 7.44 3.9 14.46
12/18/2020 3:15:00 PM -0.05 31.91 0.08 7.4 3.68 14.45
12/18/2020 3:30:00 PM -0.05 31.91 0.08 7.42 3.78 14.4
12/18/2020 3:45:00 PM -0.05 31.91 0.08 7.39 3.53 14.37
12/18/2020 4:00:00 PM -0.05 31.91 0.08 7.38 3.7 14.34
12/18/2020 4:15:00 PM -0.05 31.91 0.08 7.36 3.7 14.28
12/18/2020 4:30:00 PM -0.05 31.91 0.08 7.34 3.41 14.22
12/18/2020 4:45:00 PM -0.06 31.892 0.08 7.36 3.45 14.17
12/18/2020 5:00:00 PM -0.06 31.892 0.08 7.32 3.29 14.1
12/18/2020 5:15:00 PM -0.06 31.892 0.08 7.3 3.4 14.06
12/18/2020 5:30:00 PM -0.06 31.892 0.08 7.28 3.33 14.03
12/18/2020 5:45:00 PM -0.06 31.892 0.08 7.27 3.76 13.99
12/18/2020 6:00:00 PM -0.06 31.892 0.081 7.29 3.5 13.96
12/18/2020 6:15:00 PM -0.06 31.892 0.081 7.25 3.45 13.94
12/18/2020 6:30:00 PM -0.06 31.892 0.081 7.24 4.06 13.93
12/18/2020 6:45:00 PM -0.06 31.892 0.081 7.23 3.42 13.92
12/18/2020 7:00:00 PM -0.06 31.892 0.081 7.22 3.45 13.91
12/18/2020 7:15:00 PM -0.06 31.892 0.081 7.25 3.96 13.9
12/18/2020 7:30:00 PM -0.06 31.892 0.082 7.22 3.62 13.9
12/18/2020 7:45:00 PM -0.06 31.892 0.082 7.25 3.5 13.9
12/18/2020 8:00:00 PM -0.06 31.892 0.082 7.21 3.74 13.91
12/18/2020 8:15:00 PM -0.06 31.892 0.082 7.2 3.68 13.91
12/18/2020 8:30:00 PM -0.06 31.892 0.082 7.22 3.38 13.92
12/18/2020 8:45:00 PM -0.06 31.892 0.083 7.23 3.49 13.93
12/18/2020 9:00:00 PM -0.06 31.892 0.083 7.23 3.33 13.94
12/18/2020 9:15:00 PM -0.06 31.892 0.083 7.23 3.44 13.95
12/18/2020 9:30:00 PM -0.06 31.892 0.083 7.25 3.61 13.97
12/18/2020 9:45:00 PM -0.06 31.892 0.083 7.23 3.35 13.97
12/18/2020 10:00:00 PM -0.06 31.892 0.083 7.24 3.57 13.99
12/18/2020 10:15:00 PM -0.06 31.892 0.083 7.25 3.22 14
12/18/2020 10:30:00 PM -0.06 31.892 0.083 7.23 3.25 14.01
12/18/2020 10:45:00 PM -0.06 31.892 0.083 7.26 3.24 14.02
12/18/2020 11:00:00 PM -0.06 31.892 0.084 7.23 3.19 14.04
12/18/2020 11:15:00 PM -0.06 31.892 0.084 7.25 3.41 14.05
12/18/2020 11:30:00 PM -0.06 31.892 0.084 7.23 3.34 14.05
12/18/2020 11:45:00 PM -0.06 31.892 0.084 7.23 3.26 14.07
12/19/2020 12:00:00 AM -0.06 31.892 0.084 7.23 3.18 14.07
12/19/2020 12:15:00 AM -0.06 31.892 0.084 7.23 3.35 14.08
12/19/2020 12:30:00 AM -0.06 31.892 0.085 7.25 3.28 14.08
12/19/2020 12:45:00 AM -0.06 31.892 0.085 7.23 3.27 14.08
12/19/2020 1:00:00 AM -0.06 31.892 0.085 7.22 3.24 14.07
12/19/2020 1:15:00 AM -0.06 31.892 0.085 7.22 3.25 14.07
12/19/2020 1:30:00 AM -0.06 31.892 0.085 7.22 3.35 14.08
12/19/2020 1:45:00 AM -0.06 31.892 0.085 7.21 3.3 14.07
12/19/2020 2:00:00 AM -0.06 31.892 0.085 7.22 3.35 14.06
12/19/2020 2:15:00 AM -0.06 31.892 0.086 7.21 3.54 14.07
12/19/2020 2:30:00 AM -0.06 31.892 0.086 7.21 3.77 14.06
12/19/2020 2:45:00 AM -0.06 31.892 0.086 7.21 3.31 14.05
12/19/2020 3:00:00 AM -0.06 31.892 0.086 7.2 3.47 14.05
12/19/2020 3:15:00 AM -0.06 31.892 0.086 7.22 3.19 14.04
12/19/2020 3:30:00 AM -0.06 31.892 0.086 7.2 3.21 14.05
12/19/2020 3:45:00 AM -0.06 31.892 0.086 7.19 3.27 14.04
12/19/2020 4:00:00 AM -0.06 31.892 0.087 7.2 3.19 14.03
12/19/2020 4:15:00 AM -0.06 31.892 0.087 7.18 3.18 14.04
12/19/2020 4:30:00 AM -0.06 31.892 0.087 7.21 3.3 14.03
12/19/2020 4:45:00 AM -0.06 31.892 0.087 7.19 3.36 14.03
12/19/2020 5:00:00 AM -0.06 31.892 0.086 7.19 3.32 14.02
12/19/2020 5:15:00 AM -0.06 31.892 0.086 7.18 3.38 14.02
12/19/2020 5:30:00 AM -0.06 31.892 0.086 7.17 3.57 14.03
12/19/2020 5:45:00 AM -0.06 31.892 0.086 7.18 3.35 14.02
12/19/2020 6:00:00 AM -0.06 31.892 0.086 7.18 3.4 14.02
12/19/2020 6:15:00 AM -0.06 31.892 0.086 7.17 3.57 14.02
12/19/2020 6:30:00 AM -0.06 31.892 0.086 7.2 3.51 14.01
12/19/2020 6:45:00 AM -0.06 31.892 0.086 7.17 3.57 14
12/19/2020 7:00:00 AM -0.06 31.892 0.086 7.17 3.82 14
12/19/2020 7:15:00 AM -0.06 31.892 0.086 7.19 3.6 14
12/19/2020 7:30:00 AM -0.06 31.892 0.086 7.2 3.73 13.99
12/19/2020 7:45:00 AM -0.06 31.892 0.086 7.17 4.11 13.99
12/19/2020 8:00:00 AM -0.06 31.892 0.086 7.18 3.71 14.01
12/19/2020 8:15:00 AM -0.06 31.892 0.085 7.18 3.66 14.05
12/19/2020 8:30:00 AM -0.06 31.892 0.085 7.2 3.96 14.11
12/19/2020 8:45:00 AM -0.06 31.892 0.085 7.23 3.78 14.14
12/19/2020 9:00:00 AM -0.06 31.892 0.085 7.2 3.83 14.19
12/19/2020 9:15:00 AM -0.05 31.91 0.085 7.22 3.22 14.23
12/19/2020 9:30:00 AM -0.05 31.91 0.085 7.23 3.21 14.28
12/19/2020 9:45:00 AM -0.05 31.91 0.085 7.23 3.5 14.32
12/19/2020 10:00:00 AM -0.05 31.91 0.085 7.26 3.25 14.37
12/19/2020 10:15:00 AM -0.05 31.91 0.085 7.28 3.05 14.42
12/19/2020 10:30:00 AM -0.05 31.91 0.085 7.31 3.43 14.46
12/19/2020 10:45:00 AM -0.05 31.91 0.085 7.3 3.56 14.49
12/19/2020 11:00:00 AM -0.05 31.91 0.085 7.31 3.27 14.51
12/19/2020 11:15:00 AM -0.05 31.91 0.086 7.33 3.64 14.54
12/19/2020 11:30:00 AM -0.05 31.91 0.086 7.34 3.14 14.55
12/19/2020 11:45:00 AM -0.05 31.91 0.086 7.35 3.38 14.57
12/19/2020 12:00:00 PM -0.05 31.91 0.086 7.36 3.97 14.6
12/19/2020 12:15:00 PM -0.05 31.91 0.086 7.39 4.02 14.6
12/19/2020 12:30:00 PM -0.05 31.91 0.085 7.39 4.34 14.62
12/19/2020 12:45:00 PM -0.05 31.91 0.085 7.39 4.53 14.63
12/19/2020 1:00:00 PM -0.05 31.91 0.085 7.43 3.62 14.63
12/19/2020 1:15:00 PM -0.05 31.91 0.085 7.4 4.19 14.63
12/19/2020 1:30:00 PM -0.05 31.91 0.085 7.4 4.24 14.62
12/19/2020 1:45:00 PM -0.05 31.91 0.085 7.42 4.3 14.62
12/19/2020 2:00:00 PM -0.05 31.91 0.084 7.41 3.94 14.63
12/19/2020 2:15:00 PM -0.05 31.91 0.084 7.42 4.1 14.61
12/19/2020 2:30:00 PM -0.05 31.91 0.084 7.43 4.27 14.6
12/19/2020 2:45:00 PM -0.05 31.91 0.083 7.42 10.23 14.59
12/19/2020 3:00:00 PM -0.05 31.91 0.083 7.42 3.96 14.57
12/19/2020 3:15:00 PM -0.05 31.91 0.083 7.41 3.93 14.54
12/19/2020 3:30:00 PM -0.05 31.91 0.083 7.41 3.83 14.53
12/19/2020 3:45:00 PM -0.05 31.91 0.083 7.4 4.32 14.48
12/19/2020 4:00:00 PM -0.05 31.91 0.083 7.41 3.74 14.44
12/19/2020 4:15:00 PM -0.05 31.91 0.083 7.36 3.76 14.38
12/19/2020 4:30:00 PM -0.05 31.91 0.083 7.37 4.12 14.32
12/19/2020 4:45:00 PM -0.05 31.91 0.083 7.33 3.54 14.26
12/19/2020 5:00:00 PM -0.05 31.91 0.084 7.31 3.72 14.21
12/19/2020 5:15:00 PM -0.05 31.91 0.083 7.3 3.59 14.17
12/19/2020 5:30:00 PM -0.05 31.91 0.083 7.28 3.82 14.12
12/19/2020 5:45:00 PM -0.05 31.91 0.083 7.27 3.63 14.08
12/19/2020 6:00:00 PM -0.05 31.91 0.083 7.26 3.88 14.05
12/19/2020 6:15:00 PM -0.05 31.91 0.083 7.26 3.9 14.04
12/19/2020 6:30:00 PM -0.05 31.91 0.083 7.27 3.7 14.01
12/19/2020 6:45:00 PM -0.05 31.91 0.083 7.24 4.01 14
12/19/2020 7:00:00 PM -0.05 31.91 0.083 7.24 3.64 13.98
12/19/2020 7:15:00 PM -0.05 31.91 0.083 7.23 3.73 13.96
12/19/2020 7:30:00 PM -0.05 31.91 0.083 7.22 3.23 13.95
12/19/2020 7:45:00 PM -0.05 31.91 0.083 7.22 3.48 13.94
12/19/2020 8:00:00 PM -0.05 31.91 0.083 7.24 3.35 13.93
12/19/2020 8:15:00 PM -0.05 31.91 0.083 7.22 3.41 13.92
12/19/2020 8:30:00 PM -0.05 31.91 0.083 7.21 3.29 13.91
12/19/2020 8:45:00 PM -0.05 31.91 0.083 7.22 3.4 13.91
12/19/2020 9:00:00 PM -0.05 31.91 0.083 7.21 3.53 13.9
12/19/2020 9:15:00 PM -0.05 31.91 0.083 7.2 3.38 13.9
12/19/2020 9:30:00 PM -0.05 31.91 0.083 7.2 3.33 13.89
12/19/2020 9:45:00 PM -0.05 31.91 0.083 7.2 3.41 13.89
12/19/2020 10:00:00 PM -0.05 31.91 0.083 7.19 3.62 13.88
12/19/2020 10:15:00 PM -0.05 31.91 0.083 7.18 3.83 13.88
12/19/2020 10:30:00 PM -0.05 31.91 0.083 7.19 3.25 13.87
12/19/2020 10:45:00 PM -0.05 31.91 0.083 7.18 3.39 13.87
12/19/2020 11:00:00 PM -0.05 31.91 0.083 7.19 3.22 13.86
12/19/2020 11:15:00 PM -0.05 31.91 0.083 7.18 3.23 13.86
12/19/2020 11:30:00 PM -0.05 31.91 0.083 7.19 3.58 13.84
12/19/2020 11:45:00 PM -0.05 31.91 0.083 7.22 3.25 13.84
12/20/2020 12:00:00 AM -0.05 31.91 0.083 7.2 3.4 13.84
12/20/2020 12:15:00 AM -0.05 31.91 0.083 7.2 3.7 13.83
12/20/2020 12:30:00 AM -0.05 31.91 0.083 7.19 3.37 13.83
12/20/2020 12:45:00 AM -0.05 31.91 0.083 7.17 3.41 13.83
12/20/2020 1:00:00 AM -0.05 31.91 0.083 7.18 3.22 13.83
12/20/2020 1:15:00 AM -0.05 31.91 0.083 7.18 3.67 13.82
12/20/2020 1:30:00 AM -0.05 31.91 0.083 7.19 3.24 13.81
12/20/2020 1:45:00 AM -0.05 31.91 0.083 7.2 3.47 13.8
12/20/2020 2:00:00 AM -0.05 31.91 0.083 7.19 3.3 13.79
12/20/2020 2:15:00 AM -0.05 31.91 0.083 7.19 3.25 13.78
12/20/2020 2:30:00 AM -0.05 31.91 0.083 7.22 3.8 13.77
12/20/2020 2:45:00 AM -0.05 31.91 0.084 7.2 3.48 13.77
12/20/2020 3:00:00 AM -0.05 31.91 0.083 7.2 3.69 13.76
12/20/2020 3:15:00 AM -0.05 31.91 0.083 7.2 3.74 13.74
12/20/2020 3:30:00 AM -0.05 31.91 0.083 7.2 3.59 13.75
12/20/2020 3:45:00 AM -0.05 31.91 0.083 7.21 3.56 13.74
12/20/2020 4:00:00 AM -0.05 31.91 0.083 7.21 3.64 13.73
12/20/2020 4:15:00 AM -0.05 31.91 0.083 7.2 3.52 13.72
12/20/2020 4:30:00 AM -0.05 31.91 0.083 7.22 3.63 13.72
12/20/2020 4:45:00 AM -0.05 31.91 0.083 7.22 3.91 13.71
12/20/2020 5:00:00 AM -0.05 31.91 0.083 7.2 4.1 13.71
12/20/2020 5:15:00 AM -0.05 31.91 0.083 7.21 3.72 13.71
12/20/2020 5:30:00 AM -0.04 31.928 0.083 7.22 3.78 13.7
12/20/2020 5:45:00 AM -0.04 31.928 0.083 7.22 4.02 13.7
12/20/2020 6:00:00 AM -0.04 31.928 0.083 7.22 4.25 13.71
12/20/2020 6:15:00 AM -0.04 31.928 0.083 7.22 4.72 13.69
12/20/2020 6:30:00 AM -0.04 31.928 0.083 7.21 4.25 13.69
12/20/2020 6:45:00 AM -0.03 31.946 0.083 7.23 4.52 13.7
12/20/2020 7:00:00 AM -0.03 31.946 0.083 7.23 5 13.69
12/20/2020 7:15:00 AM -0.03 31.946 0.083 7.23 4.7 13.68
12/20/2020 7:30:00 AM -0.03 31.946 0.083 7.23 4.69 13.68
12/20/2020 7:45:00 AM -0.02 31.964 0.083 7.23 4.17 13.68
12/20/2020 8:00:00 AM -0.02 31.964 0.083 7.25 4.76 13.68
12/20/2020 8:15:00 AM -0.02 31.964 0.083 7.23 5.57 13.7
12/20/2020 8:30:00 AM -0.02 31.964 0.083 7.25 4.11 13.71
12/20/2020 8:45:00 AM -0.01 31.982 0.083 7.25 3.91 13.74
12/20/2020 9:00:00 AM 0 32 0.083 7.26 5.61 13.76
12/20/2020 9:15:00 AM 0.01 32.018 0.083 7.26 4.32 13.79
12/20/2020 9:30:00 AM 0.02 32.036 0.083 7.28 3.98 13.82
12/20/2020 9:45:00 AM 0.03 32.054 0.083 7.29 4.18 13.86
12/20/2020 10:00:00 AM 0.03 32.054 0.083 7.3 4.04 13.89
12/20/2020 10:15:00 AM 0.04 32.072 0.082 7.32 4.08 13.94
12/20/2020 10:30:00 AM 0.05 32.09 0.082 7.32 3.92 13.97
12/20/2020 10:45:00 AM 0.07 32.126 0.082 7.33 3.96 14.01
12/20/2020 11:00:00 AM 0.1 32.18 0.082 7.34 3.81 14.03
12/20/2020 11:15:00 AM 0.12 32.216 0.082 7.39 3.56 14.04
12/20/2020 11:30:00 AM 0.14 32.252 0.082 7.36 3.92 14.02
12/20/2020 11:45:00 AM 0.16 32.288 0.082 7.37 3.49 14.01
12/20/2020 12:00:00 PM 0.17 32.306 0.082 7.37 3.58 14
12/20/2020 12:15:00 PM 0.21 32.378 0.081 7.38 3.46 14
12/20/2020 12:30:00 PM 0.23 32.414 0.081 7.38 4 14
12/20/2020 12:45:00 PM 0.25 32.45 0.081 7.39 3.79 13.99
12/20/2020 1:00:00 PM 0.27 32.486 0.081 7.37 4.16 13.94
12/20/2020 1:15:00 PM 0.29 32.522 0.081 7.37 4.49 13.91
12/20/2020 1:30:00 PM 0.33 32.594 0.081 7.4 3.46 13.88
12/20/2020 1:45:00 PM 0.31 32.558 0.081 7.38 4.05 13.9
12/20/2020 2:00:00 PM 0.33 32.594 0.081 7.38 4.02 13.89
12/20/2020 2:15:00 PM 0.41 32.738 0.081 7.39 3.37 13.86
12/20/2020 2:30:00 PM 0.47 32.846 0.081 7.37 3.47 13.8
12/20/2020 2:45:00 PM 0.52 32.936 0.081 7.37 3.33 13.76
12/20/2020 3:00:00 PM 0.56 33.008 0.081 7.36 3.36 13.72
12/20/2020 3:15:00 PM 0.6 33.08 0.081 7.35 3.24 13.71
12/20/2020 3:30:00 PM 0.65 33.17 0.081 7.35 3.39 13.69
12/20/2020 3:45:00 PM 0.71 33.278 0.081 7.36 3.15 13.66
12/20/2020 4:00:00 PM 0.73 33.314 0.081 7.34 3.77 13.62
12/20/2020 4:15:00 PM 0.77 33.386 0.081 7.33 3.19 13.57
12/20/2020 4:30:00 PM 0.82 33.476 0.081 7.32 3.51 13.52
12/20/2020 4:45:00 PM 0.87 33.566 0.081 7.31 3.47 13.47
12/20/2020 5:00:00 PM 0.89 33.602 0.081 7.3 3.37 13.44
12/20/2020 5:15:00 PM 0.95 33.71 0.081 7.29 3.37 13.41
12/20/2020 5:30:00 PM 0.95 33.71 0.081 7.3 3.41 13.39
12/20/2020 5:45:00 PM 0.98 33.764 0.081 7.29 3.34 13.37
12/20/2020 6:00:00 PM 1.05 33.89 0.081 7.29 3.31 13.35
12/20/2020 6:15:00 PM 1.08 33.944 0.081 7.3 3.27 13.33
12/20/2020 6:30:00 PM 1.09 33.962 0.081 7.28 3.15 13.31
12/20/2020 6:45:00 PM 1.11 33.998 0.081 7.28 3.34 13.3
12/20/2020 7:00:00 PM 1.17 34.106 0.081 7.27 3.28 13.28
12/20/2020 7:15:00 PM 1.21 34.178 0.082 7.27 3.32 13.27
12/20/2020 7:30:00 PM 1.23 34.214 0.082 7.27 3.22 13.25
12/20/2020 7:45:00 PM 1.24 34.232 0.082 7.26 3.31 13.25
12/20/2020 8:00:00 PM 1.28 34.304 0.082 7.29 3.22 13.24
12/20/2020 8:15:00 PM 1.31 34.358 0.082 7.27 3.46 13.23
12/20/2020 8:30:00 PM 1.32 34.376 0.082 7.26 3.34 13.22
12/20/2020 8:45:00 PM 1.33 34.394 0.082 7.25 3.57 13.22
12/20/2020 9:00:00 PM 1.35 34.43 0.082 7.25 3.28 13.2
12/20/2020 9:15:00 PM 1.37 34.466 0.082 7.25 3.27 13.19
12/20/2020 9:30:00 PM 1.4 34.52 0.083 7.25 3.28 13.18
12/20/2020 9:45:00 PM 1.41 34.538 0.083 7.28 3.23 13.17
12/20/2020 10:00:00 PM 1.44 34.592 0.083 7.25 3.22 13.17
12/20/2020 10:15:00 PM 1.45 34.61 0.083 7.26 3.12 13.16
12/20/2020 10:30:00 PM 1.46 34.628 0.083 7.26 3.33 13.16
12/20/2020 10:45:00 PM 1.48 34.664 0.083 7.26 3.2 13.15
12/20/2020 11:00:00 PM 1.48 34.664 0.083 7.26 3.26 13.15
12/20/2020 11:15:00 PM 1.5 34.7 0.083 7.26 3.13 13.14
12/20/2020 11:30:00 PM 1.54 34.772 0.083 7.27 3.24 13.12
12/20/2020 11:45:00 PM 1.55 34.79 0.083 7.26 3.19 13.12
12/21/2020 12:00:00 AM 1.55 34.79 0.083 7.28 3.21 13.11
12/21/2020 12:15:00 AM 1.58 34.844 0.083 7.27 3.24 13.11
12/21/2020 12:30:00 AM 1.59 34.862 0.083 7.26 3.22 13.11
12/21/2020 12:45:00 AM 1.6 34.88 0.083 7.26 3.19 13.1
12/21/2020 1:00:00 AM 1.61 34.898 0.083 7.28 3.16 13.1
12/21/2020 1:15:00 AM 1.62 34.916 0.083 7.26 3.25 13.09
12/21/2020 1:30:00 AM 1.62 34.916 0.083 7.25 3.09 13.08
12/21/2020 1:45:00 AM 1.66 34.988 0.083 7.25 3.38 13.07
12/21/2020 2:00:00 AM 1.67 35.006 0.083 7.24 3.16 13.07
12/21/2020 2:15:00 AM 1.59 34.862 0.083 7.24 3.22 13.07
12/21/2020 2:30:00 AM 1.64 34.952 0.083 7.24 3.15 13.07
12/21/2020 2:45:00 AM 1.67 35.006 0.083 7.24 3.35 13.07
12/21/2020 3:00:00 AM 1.68 35.024 0.083 7.27 3.25 13.07
12/21/2020 3:15:00 AM 1.67 35.006 0.083 7.24 3.27 13.07
12/21/2020 3:30:00 AM 1.65 34.97 0.083 7.24 3.21 13.07
12/21/2020 3:45:00 AM 1.63 34.934 0.083 7.23 3.17 13.08
12/21/2020 4:00:00 AM 1.63 34.934 0.083 7.25 3.27 13.07
12/21/2020 4:15:00 AM 1.64 34.952 0.083 7.23 3.28 13.07
12/21/2020 4:30:00 AM 1.64 34.952 0.083 7.23 3.16 13.06
12/21/2020 4:45:00 AM 1.63 34.934 0.083 7.23 3.36 13.07
12/21/2020 5:00:00 AM 1.63 34.934 0.083 7.23 3.28 13.07
12/21/2020 5:15:00 AM 1.59 34.862 0.083 7.23 3.53 13.08
12/21/2020 5:30:00 AM 1.61 34.898 0.083 7.22 3.23 13.07
12/21/2020 5:45:00 AM 1.64 34.952 0.083 7.24 3.5 13.08
12/21/2020 6:00:00 AM 1.64 34.952 0.083 7.23 3.37 13.07
12/21/2020 6:15:00 AM 1.64 34.952 0.083 7.27 3.2 13.07
12/21/2020 6:30:00 AM 1.64 34.952 0.083 7.27 3.3 13.08
12/21/2020 6:45:00 AM 1.64 34.952 0.083 7.24 3.17 13.08
12/21/2020 7:00:00 AM 1.64 34.952 0.083 7.24 3.01 13.08
12/21/2020 7:15:00 AM 1.64 34.952 0.083 7.24 3.23 13.08
12/21/2020 7:30:00 AM 1.64 34.952 0.083 7.24 3.19 13.08
12/21/2020 7:45:00 AM 1.64 34.952 0.083 7.24 3.11 13.1
12/21/2020 8:00:00 AM 1.64 34.952 0.083 7.25 3.46 13.12
12/21/2020 8:15:00 AM 1.64 34.952 0.083 7.25 3.07 13.17
12/21/2020 8:30:00 AM 1.68 35.024 0.083 7.27 3.09 13.22
12/21/2020 8:45:00 AM 1.7 35.06 0.083 7.29 3.07 13.26
12/21/2020 9:00:00 AM 1.72 35.096 0.083 7.34 3.02 13.31
12/21/2020 9:15:00 AM 1.74 35.132 0.083 7.32 3.09 13.35
12/21/2020 9:30:00 AM 1.75 35.15 0.083 7.33 3.05 13.36
12/21/2020 9:45:00 AM 1.8 35.24 0.083 7.34 3.06 13.39
12/21/2020 10:00:00 AM 1.82 35.276 0.083 7.36 2.98 13.42
12/21/2020 10:15:00 AM 1.84 35.312 0.082 7.36 3.09 13.42
12/21/2020 10:30:00 AM 1.86 35.348 0.083 7.36 3.04 13.4
12/21/2020 10:45:00 AM 1.88 35.384 0.082 7.37 3 13.42
12/21/2020 11:00:00 AM 1.9 35.42 0.082 7.39 2.97 13.45
12/21/2020 11:15:00 AM 1.93 35.474 0.082 7.41 2.98 13.48
12/21/2020 11:30:00 AM 1.97 35.546 0.082 7.43 3.13 13.49
12/21/2020 11:45:00 AM 2.02 35.636 0.082 7.45 3.12 13.5
12/21/2020 12:00:00 PM 2.05 35.69 0.082 7.46 2.98 13.5
12/21/2020 12:15:00 PM 2.07 35.726 0.082 7.46 3.09 13.49
12/21/2020 12:30:00 PM 2.11 35.798 0.081 7.48 2.94 13.45
12/21/2020 12:45:00 PM 2.16 35.888 0.081 7.47 2.99 13.42
12/21/2020 1:00:00 PM 2.19 35.942 0.081 7.48 2.95 13.41
12/21/2020 1:15:00 PM 2.21 35.978 0.081 7.52 3.06 13.42
12/21/2020 1:30:00 PM 2.26 36.068 0.081 7.5 3.01 13.41
12/21/2020 1:45:00 PM 2.31 36.158 0.081 7.53 3 13.41
12/21/2020 2:00:00 PM 2.34 36.212 0.081 7.52 3.09 13.41
12/21/2020 2:15:00 PM 2.37 36.266 0.08 7.55 3 13.4
12/21/2020 2:30:00 PM 2.42 36.356 0.08 7.52 3.02 13.38
12/21/2020 2:45:00 PM 2.44 36.392 0.08 7.52 3.2 13.35
12/21/2020 3:00:00 PM 2.45 36.41 0.08 7.49 2.89 13.29
12/21/2020 3:15:00 PM 2.48 36.464 0.08 7.47 2.97 13.22
12/21/2020 3:30:00 PM 2.5 36.5 0.08 7.45 3.07 13.15
12/21/2020 3:45:00 PM 2.5 36.5 0.08 7.43 3.38 13.08
12/21/2020 4:00:00 PM 2.52 36.536 0.08 7.42 3.03 13.01
12/21/2020 4:15:00 PM 2.53 36.554 0.08 7.38 2.94 12.95
12/21/2020 4:30:00 PM 2.54 36.572 0.08 7.36 3.1 12.9
12/21/2020 4:45:00 PM 2.54 36.572 0.08 7.37 3.09 12.86
12/21/2020 5:00:00 PM 2.53 36.554 0.08 7.33 3.08 12.82
12/21/2020 5:15:00 PM 2.54 36.572 0.08 7.32 3.01 12.78
12/21/2020 5:30:00 PM 2.55 36.59 0.08 7.31 3.3 12.75
12/21/2020 5:45:00 PM 2.56 36.608 0.081 7.32 3.07 12.72
12/21/2020 6:00:00 PM 2.56 36.608 0.08 7.29 3.1 12.71
12/21/2020 6:15:00 PM 2.57 36.626 0.081 7.28 3.08 12.69
12/21/2020 6:30:00 PM 2.57 36.626 0.081 7.28 3.28 12.67
12/21/2020 6:45:00 PM 2.56 36.608 0.081 7.27 3.24 12.67
12/21/2020 7:00:00 PM 2.57 36.626 0.081 7.26 3.04 12.67
12/21/2020 7:15:00 PM 2.57 36.626 0.081 7.29 3.17 12.66
12/21/2020 7:30:00 PM 2.58 36.644 0.081 7.26 3.02 12.66
12/21/2020 7:45:00 PM 2.58 36.644 0.081 7.3 3.21 12.65
12/21/2020 8:00:00 PM 2.58 36.644 0.081 7.26 3.08 12.65
12/21/2020 8:15:00 PM 2.57 36.626 0.081 7.26 3.26 12.66
12/21/2020 8:30:00 PM 2.56 36.608 0.082 7.27 3.22 12.64
12/21/2020 8:45:00 PM 2.56 36.608 0.081 7.26 3.14 12.65
12/21/2020 9:00:00 PM 2.56 36.608 0.082 7.26 3.15 12.66
12/21/2020 9:15:00 PM 2.56 36.608 0.082 7.26 3.05 12.64
12/21/2020 9:30:00 PM 2.55 36.59 0.082 7.26 3.2 12.64
12/21/2020 9:45:00 PM 2.55 36.59 0.082 7.26 3.16 12.64
12/21/2020 10:00:00 PM 2.54 36.572 0.082 7.26 3.09 12.66
12/21/2020 10:15:00 PM 2.53 36.554 0.082 7.25 3.07 12.65
12/21/2020 10:30:00 PM 2.52 36.536 0.082 7.28 3.06 12.65
12/21/2020 10:45:00 PM 2.52 36.536 0.082 7.26 3.21 12.66
12/21/2020 11:00:00 PM 2.52 36.536 0.082 7.26 3.06 12.66
12/21/2020 11:15:00 PM 2.51 36.518 0.082 7.25 3.17 12.66
12/21/2020 11:30:00 PM 2.51 36.518 0.082 7.25 3.01 12.65
12/21/2020 11:45:00 PM 2.51 36.518 0.082 7.25 3.09 12.66
12/22/2020 12:00:00 AM 2.5 36.5 0.082 7.28 3.17 12.66
12/22/2020 12:15:00 AM 2.49 36.482 0.082 7.25 3.15 12.66
12/22/2020 12:30:00 AM 2.48 36.464 0.082 7.25 3.52 12.66
12/22/2020 12:45:00 AM 2.48 36.464 0.082 7.28 3.31 12.67
12/22/2020 1:00:00 AM 2.47 36.446 0.082 7.28 3.36 12.67
12/22/2020 1:15:00 AM 2.46 36.428 0.082 7.25 3.09 12.67
12/22/2020 1:30:00 AM 2.46 36.428 0.082 7.25 3.15 12.67
12/22/2020 1:45:00 AM 2.46 36.428 0.082 7.28 3.11 12.67
12/22/2020 2:00:00 AM 2.46 36.428 0.082 7.28 3.25 12.67
12/22/2020 2:15:00 AM 2.46 36.428 0.083 7.25 3.07 12.67
12/22/2020 2:30:00 AM 2.44 36.392 0.082 7.25 3.18 12.67
12/22/2020 2:45:00 AM 2.41 36.338 0.082 7.25 3.04 12.68
12/22/2020 3:00:00 AM 2.39 36.302 0.082 7.25 3.2 12.68
12/22/2020 3:15:00 AM 2.38 36.284 0.082 7.28 3.22 12.69
12/22/2020 3:30:00 AM 2.38 36.284 0.083 7.25 3.17 12.69
12/22/2020 3:45:00 AM 2.37 36.266 0.082 7.24 3.2 12.7
12/22/2020 4:00:00 AM 2.35 36.23 0.082 7.24 3.11 12.71
12/22/2020 4:15:00 AM 2.32 36.176 0.082 7.24 3.13 12.71
12/22/2020 4:30:00 AM 2.31 36.158 0.082 7.23 3.54 12.72
12/22/2020 4:45:00 AM 2.3 36.14 0.082 7.27 3.23 12.72
12/22/2020 5:00:00 AM 2.3 36.14 0.082 7.23 3.14 12.73
12/22/2020 5:15:00 AM 2.29 36.122 0.082 7.24 3.13 12.73
12/22/2020 5:30:00 AM 2.28 36.104 0.082 7.27 3.21 12.75
12/22/2020 5:45:00 AM 2.26 36.068 0.082 7.24 3.23 12.75
12/22/2020 6:00:00 AM 2.26 36.068 0.082 7.24 3.25 12.76
12/22/2020 6:15:00 AM 2.27 36.086 0.082 7.25 3.53 12.77
12/22/2020 6:30:00 AM 2.28 36.104 0.082 7.24 3.49 12.77
12/22/2020 6:45:00 AM 2.29 36.122 0.082 7.23 3.2 12.77
12/22/2020 7:00:00 AM 2.29 36.122 0.082 7.27 3.2 12.78
12/22/2020 7:15:00 AM 2.29 36.122 0.082 7.23 3.2 12.78
12/22/2020 7:30:00 AM 2.29 36.122 0.082 7.23 3.22 12.79
12/22/2020 7:45:00 AM 2.29 36.122 0.082 7.24 3.19 12.81
12/22/2020 8:00:00 AM 2.3 36.14 0.082 7.25 3.23 12.82
12/22/2020 8:15:00 AM 2.3 36.14 0.082 7.25 3.02 12.86
12/22/2020 8:30:00 AM 2.31 36.158 0.083 7.26 2.91 12.89
12/22/2020 8:45:00 AM 2.33 36.194 0.082 7.29 3.17 12.95
12/22/2020 9:00:00 AM 2.34 36.212 0.082 7.29 3.01 13
12/22/2020 9:15:00 AM 2.36 36.248 0.082 7.3 3.02 13.06
12/22/2020 9:30:00 AM 2.39 36.302 0.082 7.34 3.04 13.14
12/22/2020 9:45:00 AM 2.41 36.338 0.082 7.36 3.02 13.21
12/22/2020 10:00:00 AM 0 32 0 0 0 0
12/22/2020 10:15:00 AM 2.39 36.302 0.087 6.79 1.6 13.21
12/22/2020 10:30:00 AM 2.41 36.338 0.087 6.79 1.62 13.2
12/22/2020 10:45:00 AM 2.46 36.428 0.086 6.81 1.56 13.24
12/22/2020 11:00:00 AM 2.48 36.464 0.086 6.83 1.56 13.25
12/22/2020 11:15:00 AM 2.53 36.554 0.086 6.86 1.58 13.3
12/22/2020 11:30:00 AM 2.56 36.608 0.086 6.88 1.55 13.32
12/22/2020 11:45:00 AM 2.59 36.662 0.086 6.87 1.58 13.28
12/22/2020 12:00:00 PM 2.65 36.77 0.086 6.9 1.59 13.3
12/22/2020 12:15:00 PM 2.69 36.842 0.086 6.92 1.61 13.33
12/22/2020 12:30:00 PM 2.7 36.86 0.086 6.92 1.58 13.28
12/22/2020 12:45:00 PM 2.71 36.878 0.086 6.91 1.59 13.26
12/22/2020 1:00:00 PM 2.71 36.878 0.085 6.91 1.58 13.27
12/22/2020 1:15:00 PM 2.73 36.914 0.085 6.93 1.6 13.28
12/22/2020 1:30:00 PM 2.75 36.95 0.085 6.93 1.64 13.28
12/22/2020 1:45:00 PM 2.78 37.004 0.085 6.93 1.6 13.28
12/22/2020 2:00:00 PM 2.81 37.058 0.085 6.94 1.59 13.27
12/22/2020 2:15:00 PM 2.83 37.094 0.085 6.92 1.53 13.23
12/22/2020 2:30:00 PM 2.85 37.13 0.085 6.92 1.63 13.18
12/22/2020 2:45:00 PM 2.85 37.13 0.085 6.88 1.57 13.12
12/22/2020 3:00:00 PM 2.86 37.148 0.085 6.87 1.61 13.08
12/22/2020 3:15:00 PM 2.86 37.148 0.085 6.85 1.59 13.03
12/22/2020 3:30:00 PM 2.84 37.112 0.085 6.82 1.6 12.99
12/22/2020 3:45:00 PM 2.79 37.022 0.085 6.8 1.61 12.94
12/22/2020 4:00:00 PM 2.73 36.914 0.085 6.77 1.59 12.9
12/22/2020 4:15:00 PM 2.7 36.86 0.085 6.76 1.63 12.89
12/22/2020 4:30:00 PM 2.69 36.842 0.085 6.75 1.61 12.86
12/22/2020 4:45:00 PM 2.7 36.86 0.085 6.74 1.61 12.82
12/22/2020 5:00:00 PM 2.69 36.842 0.085 6.72 1.6 12.78
12/22/2020 5:15:00 PM 2.68 36.824 0.086 6.71 1.66 12.76
12/22/2020 5:30:00 PM 2.66 36.788 0.086 6.7 1.65 12.75
12/22/2020 5:45:00 PM 2.65 36.77 0.086 6.68 1.62 12.74
12/22/2020 6:00:00 PM 2.64 36.752 0.086 6.68 1.63 12.74
12/22/2020 6:15:00 PM 2.63 36.734 0.086 6.68 1.62 12.73
12/22/2020 6:30:00 PM 2.62 36.716 0.086 6.68 1.6 12.73
12/22/2020 6:45:00 PM 2.61 36.698 0.086 6.68 1.58 12.73
12/22/2020 7:00:00 PM 2.59 36.662 0.087 6.68 1.63 12.73
12/22/2020 7:15:00 PM 2.57 36.626 0.087 6.68 1.64 12.74
12/22/2020 7:30:00 PM 2.55 36.59 0.087 6.68 1.59 12.75
12/22/2020 7:45:00 PM 2.53 36.554 0.087 6.67 1.63 12.76
12/22/2020 8:00:00 PM 2.51 36.518 0.087 6.65 1.69 12.77
12/22/2020 8:15:00 PM 2.49 36.482 0.087 6.59 1.67 12.78
12/22/2020 8:30:00 PM 2.47 36.446 0.087 6.57 1.6 12.79
12/22/2020 8:45:00 PM 2.45 36.41 0.087 6.58 1.58 12.8
12/22/2020 9:00:00 PM 2.44 36.392 0.087 6.58 1.63 12.8
12/22/2020 9:15:00 PM 2.42 36.356 0.088 6.59 1.63 12.81
12/22/2020 9:30:00 PM 2.4 36.32 0.088 6.6 1.62 12.82
12/22/2020 9:45:00 PM 2.38 36.284 0.088 6.6 1.64 12.83
12/22/2020 10:00:00 PM 2.37 36.266 0.088 6.6 1.67 12.84
12/22/2020 10:15:00 PM 2.36 36.248 0.088 6.62 1.68 12.84
12/22/2020 10:30:00 PM 2.35 36.23 0.088 6.62 1.61 12.85
12/22/2020 10:45:00 PM 2.34 36.212 0.088 6.63 1.63 12.85
12/22/2020 11:00:00 PM 2.32 36.176 0.088 6.63 1.68 12.86
12/22/2020 11:15:00 PM 2.3 36.14 0.088 6.65 1.62 12.86
12/22/2020 11:30:00 PM 2.28 36.104 0.088 6.64 1.64 12.87
12/22/2020 11:45:00 PM 2.26 36.068 0.088 6.62 1.68 12.88
12/23/2020 12:00:00 AM 2.25 36.05 0.088 6.62 1.63 12.89
12/23/2020 12:15:00 AM 2.23 36.014 0.088 6.62 1.62 12.9
12/23/2020 12:30:00 AM 2.22 35.996 0.089 6.62 1.62 12.9
12/23/2020 12:45:00 AM 2.21 35.978 0.089 6.61 1.65 12.91
12/23/2020 1:00:00 AM 2.21 35.978 0.089 6.62 1.69 12.92
12/23/2020 1:15:00 AM 2.2 35.96 0.089 6.62 1.71 12.92
12/23/2020 1:30:00 AM 2.19 35.942 0.089 6.63 1.65 12.92
12/23/2020 1:45:00 AM 2.18 35.924 0.089 6.63 1.66 12.93
12/23/2020 2:00:00 AM 2.17 35.906 0.089 6.63 1.64 12.93
12/23/2020 2:15:00 AM 2.17 35.906 0.089 6.63 1.64 12.94
12/23/2020 2:30:00 AM 2.16 35.888 0.089 6.63 1.63 12.94
12/23/2020 2:45:00 AM 2.15 35.87 0.089 6.62 1.64 12.95
12/23/2020 3:00:00 AM 2.14 35.852 0.089 6.62 1.67 12.96
12/23/2020 3:15:00 AM 2.13 35.834 0.089 6.62 1.72 12.96
12/23/2020 3:30:00 AM 2.12 35.816 0.089 6.67 1.65 12.96
12/23/2020 3:45:00 AM 2.11 35.798 0.089 6.66 1.65 12.97
12/23/2020 4:00:00 AM 2.08 35.744 0.089 6.65 1.61 12.97
12/23/2020 4:15:00 AM 2.04 35.672 0.089 6.65 1.65 12.98
12/23/2020 4:30:00 AM 2.01 35.618 0.089 6.65 1.65 12.99
12/23/2020 4:45:00 AM 2 35.6 0.089 6.65 1.63 12.99
12/23/2020 5:00:00 AM 1.96 35.528 0.089 6.64 1.75 13
12/23/2020 5:15:00 AM 1.93 35.474 0.089 6.63 1.7 13.02
12/23/2020 5:30:00 AM 1.91 35.438 0.089 6.64 1.73 13.02
12/23/2020 5:45:00 AM 1.9 35.42 0.089 6.65 1.7 13.04
12/23/2020 6:00:00 AM 1.86 35.348 0.089 6.64 1.74 13.04
12/23/2020 6:15:00 AM 1.81 35.258 0.089 6.62 1.7 13.05
12/23/2020 6:30:00 AM 1.79 35.222 0.089 6.63 1.69 13.07
12/23/2020 6:45:00 AM 1.77 35.186 0.089 6.63 1.67 13.08
12/23/2020 7:00:00 AM 1.74 35.132 0.089 6.63 1.68 13.09
12/23/2020 7:15:00 AM 1.7 35.06 0.089 6.63 1.63 13.11
12/23/2020 7:30:00 AM 1.66 34.988 0.089 6.63 1.7 13.12
12/23/2020 7:45:00 AM 1.62 34.916 0.089 6.63 1.65 13.16
12/23/2020 8:00:00 AM 1.59 34.862 0.089 6.64 1.76 13.21
12/23/2020 8:15:00 AM 1.57 34.826 0.089 6.66 1.73 13.3
12/23/2020 8:30:00 AM 1.56 34.808 0.089 6.69 1.71 13.4
12/23/2020 8:45:00 AM 1.55 34.79 0.089 6.71 1.8 13.48
12/23/2020 9:00:00 AM 1.53 34.754 0.089 6.73 1.79 13.53
12/23/2020 9:15:00 AM 1.54 34.772 0.089 6.74 1.87 13.58
12/23/2020 9:30:00 AM 1.56 34.808 0.089 6.77 1.76 13.65
12/23/2020 9:45:00 AM 1.58 34.844 0.089 6.79 1.71 13.72
12/23/2020 10:00:00 AM 1.6 34.88 0.089 6.82 1.64 13.75
12/23/2020 10:15:00 AM 1.64 34.952 0.089 6.84 1.63 13.77
12/23/2020 10:30:00 AM 1.65 34.97 0.089 6.86 1.61 13.78
12/23/2020 10:45:00 AM 1.68 35.024 0.088 6.87 1.58 13.79
12/23/2020 11:00:00 AM 1.72 35.096 0.088 6.89 1.58 13.81
12/23/2020 11:15:00 AM 1.79 35.222 0.088 6.91 1.57 13.82
12/23/2020 11:30:00 AM 1.85 35.33 0.088 6.92 1.59 13.81
12/23/2020 11:45:00 AM 1.94 35.492 0.088 6.94 1.57 13.8
12/23/2020 12:00:00 PM 2.02 35.636 0.088 6.97 1.54 13.77
12/23/2020 12:15:00 PM 2.12 35.816 0.087 6.98 1.51 13.75
12/23/2020 12:30:00 PM 2.2 35.96 0.087 6.98 1.55 13.71
12/23/2020 12:45:00 PM 2.28 36.104 0.087 6.99 1.58 13.67
12/23/2020 1:00:00 PM 2.35 36.23 0.087 6.99 1.56 13.63
12/23/2020 1:15:00 PM 2.41 36.338 0.087 7 1.54 13.61
12/23/2020 1:30:00 PM 2.46 36.428 0.087 7 1.56 13.58
12/23/2020 1:45:00 PM 2.51 36.518 0.087 7 1.55 13.54
12/23/2020 2:00:00 PM 2.56 36.608 0.086 7 1.56 13.53
12/23/2020 2:15:00 PM 2.59 36.662 0.086 6.99 1.54 13.5
12/23/2020 2:30:00 PM 2.61 36.698 0.086 6.99 1.56 13.45
12/23/2020 2:45:00 PM 2.64 36.752 0.086 6.98 1.55 13.43
12/23/2020 3:00:00 PM 2.66 36.788 0.086 6.98 1.53 13.4
12/23/2020 3:15:00 PM 2.67 36.806 0.086 6.96 1.6 13.34
12/23/2020 3:30:00 PM 2.68 36.824 0.086 6.94 1.58 13.3
12/23/2020 3:45:00 PM 2.67 36.806 0.086 6.91 1.56 13.23
12/23/2020 4:00:00 PM 2.66 36.788 0.086 6.89 1.55 13.16
12/23/2020 4:15:00 PM 2.66 36.788 0.086 6.86 1.55 13.09
12/23/2020 4:30:00 PM 2.64 36.752 0.086 6.81 1.6 13.03
12/23/2020 4:45:00 PM 2.62 36.716 0.086 6.78 1.58 12.97
12/23/2020 5:00:00 PM 2.6 36.68 0.086 6.77 1.61 12.91
12/23/2020 5:15:00 PM 2.58 36.644 0.086 6.75 1.61 12.87
12/23/2020 5:30:00 PM 2.55 36.59 0.087 6.73 1.6 12.85
12/23/2020 5:45:00 PM 2.53 36.554 0.087 6.72 1.61 12.83
12/23/2020 6:00:00 PM 2.52 36.536 0.087 6.71 1.61 12.81
12/23/2020 6:15:00 PM 2.51 36.518 0.087 6.7 1.68 12.79
12/23/2020 6:30:00 PM 2.5 36.5 0.087 6.69 1.6 12.78
12/23/2020 6:45:00 PM 2.48 36.464 0.087 6.68 1.63 12.77
12/23/2020 7:00:00 PM 2.46 36.428 0.087 6.67 1.64 12.77
12/23/2020 7:15:00 PM 2.44 36.392 0.088 6.67 1.65 12.76
12/23/2020 7:30:00 PM 2.43 36.374 0.088 6.67 1.63 12.77
12/23/2020 7:45:00 PM 2.41 36.338 0.088 6.66 1.6 12.77
12/23/2020 8:00:00 PM 2.38 36.284 0.088 6.67 1.63 12.77
12/23/2020 8:15:00 PM 2.36 36.248 0.088 6.65 1.65 12.77
12/23/2020 8:30:00 PM 2.34 36.212 0.088 6.66 1.67 12.78
12/23/2020 8:45:00 PM 2.31 36.158 0.088 6.66 1.66 12.79
12/23/2020 9:00:00 PM 2.29 36.122 0.089 6.66 1.63 12.79
12/23/2020 9:15:00 PM 2.27 36.086 0.089 6.66 1.66 12.8
12/23/2020 9:30:00 PM 2.24 36.032 0.089 6.66 1.64 12.81
12/23/2020 9:45:00 PM 2.23 36.014 0.089 6.66 1.65 12.82
12/23/2020 10:00:00 PM 2.22 35.996 0.089 6.65 1.63 12.83
12/23/2020 10:15:00 PM 2.2 35.96 0.089 6.65 1.64 12.83
12/23/2020 10:30:00 PM 2.19 35.942 0.089 6.65 1.64 12.83
12/23/2020 10:45:00 PM 2.17 35.906 0.089 6.65 1.65 12.84
12/23/2020 11:00:00 PM 2.15 35.87 0.089 6.66 1.62 12.84
12/23/2020 11:15:00 PM 2.13 35.834 0.089 6.65 1.65 12.85
12/23/2020 11:30:00 PM 2.11 35.798 0.089 6.65 1.67 12.86
12/23/2020 11:45:00 PM 2.09 35.762 0.089 6.65 1.64 12.86
12/24/2020 12:00:00 AM 2.06 35.708 0.09 6.65 1.68 12.87
12/24/2020 12:15:00 AM 2.04 35.672 0.09 6.65 1.65 12.87
12/24/2020 12:30:00 AM 2.01 35.618 0.09 6.64 1.65 12.88
12/24/2020 12:45:00 AM 1.98 35.564 0.09 6.65 1.68 12.89
12/24/2020 1:00:00 AM 1.97 35.546 0.09 6.65 1.61 12.89
12/24/2020 1:15:00 AM 1.95 35.51 0.09 6.64 1.63 12.91
12/24/2020 1:30:00 AM 1.93 35.474 0.09 6.65 1.64 12.91
12/24/2020 1:45:00 AM 1.92 35.456 0.09 6.65 1.62 12.91
12/24/2020 2:00:00 AM 1.9 35.42 0.09 6.65 1.64 12.91
12/24/2020 2:15:00 AM 1.89 35.402 0.09 6.65 1.62 12.92
12/24/2020 2:30:00 AM 1.88 35.384 0.09 6.65 1.63 12.92
12/24/2020 2:45:00 AM 1.89 35.402 0.09 6.66 1.61 12.91
12/24/2020 3:00:00 AM 1.88 35.384 0.09 6.65 1.52 12.92
12/24/2020 3:15:00 AM 1.87 35.366 0.09 6.65 1.52 12.92
12/24/2020 3:30:00 AM 1.85 35.33 0.09 6.66 1.56 12.92
12/24/2020 3:45:00 AM 1.84 35.312 0.09 6.64 1.56 12.93
12/24/2020 4:00:00 AM 1.83 35.294 0.09 6.64 1.53 12.93
12/24/2020 4:15:00 AM 1.82 35.276 0.09 6.64 1.57 12.93
12/24/2020 4:30:00 AM 1.81 35.258 0.09 6.64 1.59 12.93
12/24/2020 4:45:00 AM 1.8 35.24 0.09 6.63 1.56 12.93
12/24/2020 5:00:00 AM 1.79 35.222 0.09 6.63 1.58 12.94
12/24/2020 5:15:00 AM 1.79 35.222 0.09 6.64 1.61 12.93
12/24/2020 5:30:00 AM 1.81 35.258 0.09 6.64 1.57 12.93
12/24/2020 5:45:00 AM 1.85 35.33 0.09 6.64 1.6 12.92
12/24/2020 6:00:00 AM 1.87 35.366 0.09 6.64 1.62 12.92
12/24/2020 6:15:00 AM 1.9 35.42 0.09 6.64 1.58 12.89
12/24/2020 6:30:00 AM 1.94 35.492 0.09 6.65 1.54 12.89
12/24/2020 6:45:00 AM 1.97 35.546 0.09 6.64 1.57 12.87
12/24/2020 7:00:00 AM 2 35.6 0.09 6.64 1.58 12.87
12/24/2020 7:15:00 AM 2.04 35.672 0.09 6.65 1.58 12.85
12/24/2020 7:30:00 AM 2.07 35.726 0.09 6.65 1.54 12.84
12/24/2020 7:45:00 AM 2.11 35.798 0.09 6.65 1.55 12.83
12/24/2020 8:00:00 AM 2.14 35.852 0.089 6.65 1.55 12.84
12/24/2020 8:15:00 AM 2.17 35.906 0.089 6.66 1.58 12.87
12/24/2020 8:30:00 AM 2.21 35.978 0.089 6.67 1.59 12.89
12/24/2020 8:45:00 AM 2.23 36.014 0.089 6.68 1.67 12.89
12/24/2020 9:00:00 AM 2.26 36.068 0.088 6.68 1.7 12.91
12/24/2020 9:15:00 AM 2.29 36.122 0.088 6.68 1.7 12.92
12/24/2020 9:30:00 AM 2.31 36.158 0.087 6.69 1.75 12.95
12/24/2020 9:45:00 AM 2.34 36.212 0.087 6.71 1.77 13.01
12/24/2020 10:00:00 AM 2.39 36.302 0.087 6.74 1.94 13.07
12/24/2020 10:15:00 AM 2.41 36.338 0.087 6.76 2.06 13.08
12/24/2020 10:30:00 AM 2.45 36.41 0.086 6.77 2.13 13.09
12/24/2020 10:45:00 AM 2.48 36.464 0.086 6.78 2.25 13.08
12/24/2020 11:00:00 AM 2.49 36.482 0.086 6.79 2.49 13.07
12/24/2020 11:15:00 AM 2.52 36.536 0.087 6.81 2.76 13.05
12/24/2020 11:30:00 AM 2.55 36.59 0.088 6.8 3.09 13.05
12/24/2020 11:45:00 AM 2.55 36.59 0.089 6.78 4.04 13.05
12/24/2020 12:00:00 PM 2.54 36.572 0.091 6.8 4.45 13.01
12/24/2020 12:15:00 PM 2.54 36.572 0.094 6.81 10.53 12.98
12/24/2020 12:30:00 PM 2.54 36.572 0.096 6.81 16.32 12.95
12/24/2020 12:45:00 PM 2.55 36.59 0.094 6.8 67.7 12.94
12/24/2020 1:00:00 PM 2.53 36.554 0.091 6.77 23.67 12.93
12/24/2020 1:15:00 PM 2.5 36.5 0.088 6.71 11.18 12.91
12/24/2020 1:30:00 PM 2.47 36.446 0.086 6.53 12.57 12.88
12/24/2020 1:45:00 PM 2.4 36.32 0.083 6.68 13.97 12.86
12/24/2020 2:00:00 PM 2.34 36.212 0.081 6.61 21.28 12.83
12/24/2020 2:15:00 PM 2.3 36.14 0.081 6.6 33.48 12.79
12/24/2020 2:30:00 PM 2.24 36.032 0.081 6.5 52.7 12.76
12/24/2020 2:45:00 PM 2.24 36.032 0.082 6.52 58.92 12.75
12/24/2020 3:00:00 PM 2.2 35.96 0.083 6.5 79.14 12.75
12/24/2020 3:15:00 PM 2.16 35.888 0.084 6.42 808.03 12.78
12/24/2020 3:30:00 PM 2.1 35.78 0.084 6.36 112.86 12.84
12/24/2020 3:45:00 PM 2.03 35.654 0.078 6.37 94.6 12.82
12/24/2020 4:00:00 PM 1.97 35.546 0.076 6.36 96.54 12.84
12/24/2020 4:15:00 PM 1.87 35.366 0.076 6.33 79.37 12.87
12/24/2020 4:30:00 PM 1.9 35.42 0.085 6.31 135.2 12.87
12/24/2020 4:45:00 PM 1.91 35.438 0.084 6.33 152.59 12.88
12/24/2020 5:00:00 PM 1.86 35.348 0.083 6.31 186.24 12.9
12/24/2020 5:15:00 PM 1.83 35.294 0.082 6.27 173.26 12.92
12/24/2020 5:30:00 PM 1.78 35.204 0.08 6.22 177.13 12.94
12/24/2020 5:45:00 PM 1.76 35.168 0.079 6.23 256.35 12.95
12/24/2020 6:00:00 PM 1.78 35.204 0.077 6.24 214.24 12.95
12/24/2020 6:15:00 PM 1.79 35.222 0.076 6.22 201.27 12.96
12/24/2020 6:30:00 PM 1.8 35.24 0.075 6.23 210.06 12.95
12/24/2020 6:45:00 PM 1.81 35.258 0.074 6.22 231.07 12.93
12/24/2020 7:00:00 PM 1.89 35.402 0.072 6.23 202.17 12.91
12/24/2020 7:15:00 PM 1.95 35.51 0.07 6.2 218.66 12.88
12/24/2020 7:30:00 PM 1.99 35.582 0.069 6.13 197.86 12.86
12/24/2020 7:45:00 PM 1.99 35.582 0.067 6.18 226 12.85
12/24/2020 8:00:00 PM 2.05 35.69 0.065 6.18 391.38 12.83
12/24/2020 8:15:00 PM 2.12 35.816 0.064 6.12 199.28 12.81
12/24/2020 8:30:00 PM 2.22 35.996 0.063 6.05 169.75 12.79
12/24/2020 8:45:00 PM 2.32 36.176 0.062 6.1 135.5 12.75
12/24/2020 9:00:00 PM 2.43 36.374 0.056 6.08 146.8 12.71
12/24/2020 9:15:00 PM 2.55 36.59 0.061 6.11 112.07 12.67
12/24/2020 9:30:00 PM 2.66 36.788 0.06 6.1 107.39 12.62
12/24/2020 9:45:00 PM 2.77 36.986 0.059 6.11 92.36 12.58
12/24/2020 10:00:00 PM 2.87 37.166 0.059 6.1 78.79 12.55
12/24/2020 10:15:00 PM 2.95 37.31 0.059 6.11 91.01 12.51
12/24/2020 10:30:00 PM 3.03 37.454 0.059 6.13 89.81 12.48
12/24/2020 10:45:00 PM 3.1 37.58 0.059 6.06 75.47 12.45
12/24/2020 11:00:00 PM 3.12 37.616 0.059 6.07 82.61 12.43
12/24/2020 11:15:00 PM 3.15 37.67 0.059 6.08 89.23 12.4
12/24/2020 11:30:00 PM 3.17 37.706 0.058 6.06 101.1 12.4
12/24/2020 11:45:00 PM 3.18 37.724 0.058 6.05 117.85 12.39
12/25/2020 12:00:00 AM 3.19 37.742 0.058 6.07 1193.76 12.38
12/25/2020 12:15:00 AM 3.19 37.742 0.057 6.14 138.06 12.38
12/25/2020 12:30:00 AM 3.17 37.706 0.037 6.1 828.76 12.39
12/25/2020 12:45:00 AM 3.18 37.724 0.031 6.08 922.55 12.4
12/25/2020 1:00:00 AM 3.2 37.76 0.031 6.04 367.94 12.39
12/25/2020 1:15:00 AM 3.26 37.868 0.033 6.04 168.95 12.36
12/25/2020 1:30:00 AM 3.33 37.994 0.037 5.99 279.56 12.33
12/25/2020 1:45:00 AM 3.38 38.084 0.034 6.01 308.23 12.32
12/25/2020 2:00:00 AM 3.41 38.138 0.034 5.97 4365.14 12.32
12/25/2020 2:15:00 AM 3.45 38.21 0.033 5.94 4525.46 12.27
12/25/2020 2:30:00 AM 3.49 38.282 0.033 5.92 1318.17 12.27
12/25/2020 2:45:00 AM 3.52 38.336 0.034 5.93 5073.62 12.27
12/25/2020 3:00:00 AM 3.53 38.354 0.033 5.89 2885.03 12.27
12/25/2020 3:15:00 AM 3.54 38.372 0.031 5.9 3462.17 12.27
12/25/2020 3:30:00 AM 3.54 38.372 0.033 5.9 1756.52 12.27
12/25/2020 3:45:00 AM 3.55 38.39 0.052 5.99 1396.59 12.27
12/25/2020 4:00:00 AM 3.55 38.39 0.052 6.05 146.18 12.28
12/25/2020 4:15:00 AM 3.56 38.408 0.034 6.05 145.63 12.27
12/25/2020 4:30:00 AM 3.58 38.444 0.036 6.07 151.61 12.29
12/25/2020 4:45:00 AM 3.61 38.498 0.049 6.07 132.74 12.48
12/25/2020 5:00:00 AM 3.67 38.606 0.052 6.09 89.78 12.25
12/25/2020 5:15:00 AM 3.72 38.696 0.037 6.04 111.32 12.23
12/25/2020 5:30:00 AM 3.76 38.768 0.052 6.04 74.81 12.22
12/25/2020 5:45:00 AM 3.78 38.804 0.052 6.1 91.55 12.21
12/25/2020 6:00:00 AM 3.79 38.822 0.052 6.01 5246.16 12.2
12/25/2020 6:15:00 AM 3.82 38.876 0.052 6.02 69.7 12.2
12/25/2020 6:30:00 AM 3.84 38.912 0.052 6.01 77.4 12.19
12/25/2020 6:45:00 AM 3.87 38.966 0.052 6.04 64.6 12.19
12/25/2020 7:00:00 AM 3.91 39.038 0.052 6.02 49.81 12.18
12/25/2020 7:15:00 AM 3.93 39.074 0.052 6.03 60.63 12.17
12/25/2020 7:30:00 AM 3.96 39.128 0.052 5.96 51.03 12.17
12/25/2020 7:45:00 AM 3.99 39.182 0.052 6.14 42.62 12.16
12/25/2020 8:00:00 AM 4.01 39.218 0.052 6.01 43.47 12.15
12/25/2020 8:15:00 AM 4.03 39.254 0.052 6.03 48.68 12.14
12/25/2020 8:30:00 AM 4.04 39.272 0.052 6.06 13684.96 12.13
12/25/2020 8:45:00 AM 4.07 39.326 0.052 6 57.5 12.13
12/25/2020 9:00:00 AM 4.09 39.362 0.052 6.09 42.94 12.12
12/25/2020 9:15:00 AM 4.11 39.398 0.052 6 40.55 12.11
12/25/2020 9:30:00 AM 4.14 39.452 0.052 6.08 42.68 12.11
12/25/2020 9:45:00 AM 4.16 39.488 0.052 6.09 33.63 12.1
12/25/2020 10:00:00 AM 4.18 39.524 0.047 6.03 34.25 12.1
12/25/2020 10:15:00 AM 4.21 39.578 0.052 6.12 40.4 12.09
12/25/2020 10:30:00 AM 4.24 39.632 0.052 6.12 28.62 12.09
12/25/2020 10:45:00 AM 4.26 39.668 0.052 6.14 27.89 12.08
12/25/2020 11:00:00 AM 4.28 39.704 0.052 6.11 30.7 12.06
12/25/2020 11:15:00 AM 4.3 39.74 0.052 6.06 26.21 12.06
12/25/2020 11:30:00 AM 4.32 39.776 0.052 6.08 24.58 12.05
12/25/2020 11:45:00 AM 4.35 39.83 0.052 6.06 28.95 12.04
12/25/2020 12:00:00 PM 4.37 39.866 0.052 6 26.12 12.03
12/25/2020 12:15:00 PM 4.38 39.884 0.052 6.06 24.25 12.03
12/25/2020 12:30:00 PM 4.41 39.938 0.052 6.08 23.15 12.02
12/25/2020 12:45:00 PM 4.43 39.974 0.052 6.08 21.04 12.02
12/25/2020 1:00:00 PM 4.45 40.01 0.052 6.09 22.07 12.01
12/25/2020 1:15:00 PM 4.47 40.046 0.052 6.12 24.51 12.01
12/25/2020 1:30:00 PM 4.48 40.064 0.052 6.1 22.18 12.01
12/25/2020 1:45:00 PM 4.49 40.082 0.052 6.14 20.49 12
12/25/2020 2:00:00 PM 4.51 40.118 0.052 6.09 19.46 12
12/25/2020 2:15:00 PM 4.51 40.118 0.052 6.12 23.33 12
12/25/2020 2:30:00 PM 4.51 40.118 0.052 6.07 25.1 12
12/25/2020 2:45:00 PM 4.5 40.1 0.052 6.21 21.66 12
12/25/2020 3:00:00 PM 4.5 40.1 0.052 6.17 19.99 12
12/25/2020 3:15:00 PM 4.49 40.082 0.052 6.21 22.68 12
12/25/2020 3:30:00 PM 4.48 40.064 0.052 6.22 18.22 12.01
12/25/2020 3:45:00 PM 4.46 40.028 0.052 6.19 18.08 12.01
12/25/2020 4:00:00 PM 4.44 39.992 0.052 6.19 33.09 12.02
12/25/2020 4:15:00 PM 4.43 39.974 0.052 6.22 18.97 12.02
12/25/2020 4:30:00 PM 4.41 39.938 0.052 6.12 22.25 12.03
12/25/2020 4:45:00 PM 4.39 39.902 0.052 6.15 18.24 12.03
12/25/2020 5:00:00 PM 4.35 39.83 0.052 6.16 18.41 12.04
12/25/2020 5:15:00 PM 4.32 39.776 0.052 6.16 17.04 12.06
12/25/2020 5:30:00 PM 4.29 39.722 0.052 6.13 17.51 12.07
12/25/2020 5:45:00 PM 4.27 39.686 0.052 6.14 19.53 12.07
12/25/2020 6:00:00 PM 4.23 39.614 0.052 6.07 21.68 12.08
12/25/2020 6:15:00 PM 4.21 39.578 0.052 6.17 28.29 12.1
12/25/2020 6:30:00 PM 4.18 39.524 0.052 6.19 14.25 12.12
12/25/2020 6:45:00 PM 4.16 39.488 0.052 6.18 40.43 12.13
12/25/2020 7:00:00 PM 4.13 39.434 0.052 6.14 220.52 12.14
12/25/2020 7:15:00 PM 4.11 39.398 0.052 6.18 81.91 12.14
12/25/2020 7:30:00 PM 4.09 39.362 0.053 6.1 99.99 12.16
12/25/2020 7:45:00 PM 4.07 39.326 0.053 6.16 14.81 12.16
12/25/2020 8:00:00 PM 4.04 39.272 0.053 6.12 690.4 12.18
12/25/2020 8:15:00 PM 4.03 39.254 0.053 6.12 555.97 12.18
12/25/2020 8:30:00 PM 4.01 39.218 0.053 6.17 107.55 12.19
12/25/2020 8:45:00 PM 3.99 39.182 0.053 6.2 18.09 12.19
12/25/2020 9:00:00 PM 3.95 39.11 0.053 6.09 965.39 12.2
12/25/2020 9:15:00 PM 3.94 39.092 0.053 6.23 4007.62 12.21
12/25/2020 9:30:00 PM 3.9 39.02 0.053 6.2 284.64 12.24
12/25/2020 9:45:00 PM 3.88 38.984 0.053 6.22 482.19 12.25
12/25/2020 10:00:00 PM 3.86 38.948 0.053 6.18 1356.05 12.24
12/25/2020 10:15:00 PM 3.84 38.912 0.053 6.17 1661.07 12.25
12/25/2020 10:30:00 PM 3.81 38.858 0.053 6.19 1897.84 12.25
12/25/2020 10:45:00 PM 3.78 38.804 0.053 6.19 2222 12.26
12/25/2020 11:00:00 PM 3.77 38.786 0.053 6.11 1913.98 12.27
12/25/2020 11:15:00 PM 3.75 38.75 0.053 6.19 2073.75 12.27
12/25/2020 11:30:00 PM 3.74 38.732 0.054 6.19 1939.5 12.28
12/25/2020 11:45:00 PM 3.72 38.696 0.054 6.2 1806.64 12.28
12/26/2020 12:00:00 AM 3.7 38.66 0.054 6.11 1991.3 12.29
12/26/2020 12:15:00 AM 3.67 38.606 0.054 6.16 1781.37 12.3
12/26/2020 12:30:00 AM 3.65 38.57 0.054 6.17 1821.49 12.31
12/26/2020 12:45:00 AM 3.62 38.516 0.054 6.17 1710.3 12.32
12/26/2020 1:00:00 AM 3.6 38.48 0.054 6.22 1536.36 12.33
12/26/2020 1:15:00 AM 3.58 38.444 0.054 6.17 1072.62 12.33
12/26/2020 1:30:00 AM 3.56 38.408 0.054 6.17 1710.18 12.34
12/26/2020 1:45:00 AM 3.54 38.372 0.054 6.2 1372.36 12.35
12/26/2020 2:00:00 AM 3.52 38.336 0.054 6.22 1850.1 12.36
12/26/2020 2:15:00 AM 3.49 38.282 0.054 6.19 11.39 12.36
12/26/2020 2:30:00 AM 3.48 38.264 0.054 6.2 14.76 12.38
12/26/2020 2:45:00 AM 3.47 38.246 0.054 6.2 14.29 12.39
12/26/2020 3:00:00 AM 3.46 38.228 0.054 6.19 12.8 12.39
12/26/2020 3:15:00 AM 3.46 38.228 0.054 6.2 13.31 12.39
12/26/2020 3:30:00 AM 3.46 38.228 0.054 6.21 10.72 12.4
12/26/2020 3:45:00 AM 3.45 38.21 0.055 6.15 10.69 12.4
12/26/2020 4:00:00 AM 3.46 38.228 0.055 6.12 10.57 12.39
12/26/2020 4:15:00 AM 3.46 38.228 0.055 6.12 10.2 12.39
12/26/2020 4:30:00 AM 3.46 38.228 0.055 6.14 10.15 12.39
12/26/2020 4:45:00 AM 3.45 38.21 0.055 6.13 9.95 12.4
12/26/2020 5:00:00 AM 3.44 38.192 0.055 6.14 9.95 12.4
12/26/2020 5:15:00 AM 3.43 38.174 0.055 6.13 10.24 12.4
12/26/2020 5:30:00 AM 3.41 38.138 0.055 6.15 9.64 12.41
12/26/2020 5:45:00 AM 3.38 38.084 0.055 6.14 10.22 12.42
12/26/2020 6:00:00 AM 3.37 38.066 0.055 6.13 10.28 12.43
12/26/2020 6:15:00 AM 3.36 38.048 0.055 6.16 12.02 12.44
12/26/2020 6:30:00 AM 3.34 38.012 0.055 6.13 10.49 12.45
12/26/2020 6:45:00 AM 3.33 37.994 0.056 6.15 251.94 12.45
12/26/2020 7:00:00 AM 3.32 37.976 0.056 6.12 10.6 12.46
12/26/2020 7:15:00 AM 3.31 37.958 0.056 6.15 9.57 12.47
12/26/2020 7:30:00 AM 3.3 37.94 0.056 6.15 9.76 12.47
12/26/2020 7:45:00 AM 3.3 37.94 0.056 6.16 9.86 12.48
12/26/2020 8:00:00 AM 3.3 37.94 0.056 6.14 9.51 12.48
12/26/2020 8:15:00 AM 3.3 37.94 0.056 6.16 9.16 12.48
12/26/2020 8:30:00 AM 3.3 37.94 0.056 6.17 9.55 12.49
12/26/2020 8:45:00 AM 3.31 37.958 0.056 6.17 8.93 12.48
12/26/2020 9:00:00 AM 3.32 37.976 0.056 6.18 8.52 12.49
12/26/2020 9:15:00 AM 3.33 37.994 0.056 6.18 8.42 12.49
12/26/2020 9:30:00 AM 3.35 38.03 0.056 6.18 8.72 12.49
12/26/2020 9:45:00 AM 3.37 38.066 0.056 6.2 8.46 12.49
12/26/2020 10:00:00 AM 3.39 38.102 0.056 6.2 8.56 12.48
12/26/2020 10:15:00 AM 3.41 38.138 0.056 6.2 8.7 12.48
12/26/2020 10:30:00 AM 3.44 38.192 0.056 6.21 8.54 12.48
12/26/2020 10:45:00 AM 3.46 38.228 0.056 6.2 8.48 12.47
12/26/2020 11:00:00 AM 3.49 38.282 0.056 6.2 8.55 12.47
12/26/2020 11:15:00 AM 3.52 38.336 0.056 6.19 8.46 12.46
12/26/2020 11:30:00 AM 3.55 38.39 0.057 6.2 8.26 12.45
12/26/2020 11:45:00 AM 3.58 38.444 0.057 6.2 8.44 12.44
12/26/2020 12:00:00 PM 3.61 38.498 0.057 6.19 8.25 12.43
12/26/2020 12:15:00 PM 3.64 38.552 0.057 6.2 8.24 12.42
12/26/2020 12:30:00 PM 3.68 38.624 0.057 6.19 7.9 12.41
12/26/2020 12:45:00 PM 3.72 38.696 0.057 6.23 8.1 12.4
12/26/2020 1:00:00 PM 3.74 38.732 0.057 6.25 7.91 12.39
12/26/2020 1:15:00 PM 3.75 38.75 0.057 6.23 8.17 12.37
12/26/2020 1:30:00 PM 3.77 38.786 0.057 6.25 8.15 12.37
12/26/2020 1:45:00 PM 3.78 38.804 0.057 6.22 7.57 12.36
12/26/2020 2:00:00 PM 3.78 38.804 0.057 6.22 7.9 12.36
12/26/2020 2:15:00 PM 3.79 38.822 0.057 6.2 7.64 12.36
12/26/2020 2:30:00 PM 3.8 38.84 0.057 6.2 7.47 12.35
12/26/2020 2:45:00 PM 3.82 38.876 0.057 6.21 7.51 12.35
12/26/2020 3:00:00 PM 3.83 38.894 0.057 6.25 7.99 12.34
12/26/2020 3:15:00 PM 3.82 38.876 0.057 6.23 7.96 12.34
12/26/2020 3:30:00 PM 3.81 38.858 0.057 6.24 7.8 12.34
12/26/2020 3:45:00 PM 3.81 38.858 0.057 6.24 254.32 12.33
12/26/2020 4:00:00 PM 3.8 38.84 0.057 6.24 7.79 12.34
12/26/2020 4:15:00 PM 3.79 38.822 0.057 6.23 7.77 12.34
12/26/2020 4:30:00 PM 3.77 38.786 0.058 6.21 7.27 12.34
12/26/2020 4:45:00 PM 3.75 38.75 0.058 6.23 7.23 12.34
12/26/2020 5:00:00 PM 3.73 38.714 0.058 6.21 7.06 12.35
12/26/2020 5:15:00 PM 3.71 38.678 0.058 6.21 7.52 12.36
12/26/2020 5:30:00 PM 3.68 38.624 0.058 6.21 7.17 12.37
12/26/2020 5:45:00 PM 3.67 38.606 0.058 6.22 7.24 12.37
12/26/2020 6:00:00 PM 3.65 38.57 0.058 6.2 7.68 12.38
12/26/2020 6:15:00 PM 3.63 38.534 0.058 6.22 7.99 12.39
12/26/2020 6:30:00 PM 3.61 38.498 0.058 6.21 7.63 12.39
12/26/2020 6:45:00 PM 3.6 38.48 0.058 6.2 7.59 12.4
12/26/2020 7:00:00 PM 3.57 38.426 0.058 6.21 7.79 12.41
12/26/2020 7:15:00 PM 3.57 38.426 0.058 6.21 7.32 12.42
12/26/2020 7:30:00 PM 3.56 38.408 0.058 6.21 7.28 12.43
12/26/2020 7:45:00 PM 3.55 38.39 0.058 6.22 7.14 12.43
12/26/2020 8:00:00 PM 3.54 38.372 0.058 6.21 7.37 12.43
12/26/2020 8:15:00 PM 3.53 38.354 0.058 6.23 7.18 12.44
12/26/2020 8:30:00 PM 3.52 38.336 0.058 6.21 7.11 12.45
12/26/2020 8:45:00 PM 3.51 38.318 0.058 6.22 7.01 12.45
12/26/2020 9:00:00 PM 3.51 38.318 0.058 6.22 7.24 12.45
12/26/2020 9:15:00 PM 3.5 38.3 0.059 6.22 7.43 12.46
12/26/2020 9:30:00 PM 3.5 38.3 0.059 6.22 7.08 12.46
12/26/2020 9:45:00 PM 3.5 38.3 0.059 6.21 6.93 12.46
12/26/2020 10:00:00 PM 3.49 38.282 0.059 6.21 7.04 12.46
12/26/2020 10:15:00 PM 3.49 38.282 0.059 6.22 7.1 12.46
12/26/2020 10:30:00 PM 3.49 38.282 0.059 6.22 6.96 12.47
12/26/2020 10:45:00 PM 3.48 38.264 0.059 6.21 6.95 12.47
12/26/2020 11:00:00 PM 3.49 38.282 0.059 6.21 6.77 12.47
12/26/2020 11:15:00 PM 3.48 38.264 0.059 6.23 6.67 12.47
12/26/2020 11:30:00 PM 3.48 38.264 0.059 6.24 6.61 12.48
12/26/2020 11:45:00 PM 3.49 38.282 0.059 6.26 6.82 12.47
12/27/2020 12:00:00 AM 3.49 38.282 0.059 6.23 6.61 12.47
12/27/2020 12:15:00 AM 3.49 38.282 0.059 6.24 6.79 12.47
12/27/2020 12:30:00 AM 3.49 38.282 0.059 6.24 6.7 12.47
12/27/2020 12:45:00 AM 3.5 38.3 0.059 6.25 6.51 12.47
12/27/2020 1:00:00 AM 3.51 38.318 0.059 6.25 6.62 12.47
12/27/2020 1:15:00 AM 3.51 38.318 0.059 6.24 6.4 12.46
12/27/2020 1:30:00 AM 3.52 38.336 0.059 6.26 6.33 12.47
12/27/2020 1:45:00 AM 3.53 38.354 0.059 6.26 6.22 12.47
12/27/2020 2:00:00 AM 3.53 38.354 0.059 6.25 6.25 12.46
12/27/2020 2:15:00 AM 3.54 38.372 0.059 6.26 6.09 12.47
12/27/2020 2:30:00 AM 3.55 38.39 0.059 6.26 6.21 12.46
12/27/2020 2:45:00 AM 3.56 38.408 0.059 6.27 6.43 12.46
12/27/2020 3:00:00 AM 3.58 38.444 0.059 6.25 6.22 12.46
12/27/2020 3:15:00 AM 3.59 38.462 0.059 6.26 6.12 12.46
12/27/2020 3:30:00 AM 3.6 38.48 0.059 6.26 5.95 12.46
12/27/2020 3:45:00 AM 3.61 38.498 0.06 6.27 6.04 12.46
12/27/2020 4:00:00 AM 3.62 38.516 0.06 6.27 6.05 12.45
12/27/2020 4:15:00 AM 3.62 38.516 0.06 6.26 5.91 12.45
12/27/2020 4:30:00 AM 3.63 38.534 0.06 6.27 6.05 12.45
12/27/2020 4:45:00 AM 3.64 38.552 0.06 6.27 6.19 12.45
12/27/2020 5:00:00 AM 3.64 38.552 0.06 6.27 6.16 12.45
12/27/2020 5:15:00 AM 3.65 38.57 0.06 6.28 5.95 12.45
12/27/2020 5:30:00 AM 3.65 38.57 0.06 6.29 6.07 12.45
12/27/2020 5:45:00 AM 3.66 38.588 0.06 6.28 5.85 12.45
12/27/2020 6:00:00 AM 3.67 38.606 0.06 6.28 6.07 12.45
12/27/2020 6:15:00 AM 3.68 38.624 0.06 6.27 6.05 12.45
12/27/2020 6:30:00 AM 3.68 38.624 0.06 6.29 6.18 12.46
12/27/2020 6:45:00 AM 3.69 38.642 0.06 6.28 5.94 12.45
12/27/2020 7:00:00 AM 3.7 38.66 0.06 6.28 6.06 12.45
12/27/2020 7:15:00 AM 3.7 38.66 0.06 6.3 6.23 12.45
12/27/2020 7:30:00 AM 3.71 38.678 0.06 6.31 5.87 12.46
12/27/2020 7:45:00 AM 3.71 38.678 0.06 6.31 5.9 12.45
12/27/2020 8:00:00 AM 3.72 38.696 0.06 6.3 5.57 12.45
12/27/2020 8:15:00 AM 3.72 38.696 0.06 6.32 5.64 12.46
12/27/2020 8:30:00 AM 3.73 38.714 0.06 6.31 5.34 12.45
12/27/2020 8:45:00 AM 3.75 38.75 0.06 6.32 5.64 12.46
12/27/2020 9:00:00 AM 3.77 38.786 0.06 6.32 5.41 12.47
12/27/2020 9:15:00 AM 3.78 38.804 0.06 6.31 5.23 12.47
12/27/2020 9:30:00 AM 3.8 38.84 0.06 6.32 5.37 12.47
12/27/2020 9:45:00 AM 3.83 38.894 0.06 6.34 5.2 12.47
12/27/2020 10:00:00 AM 3.86 38.948 0.06 6.34 5.03 12.47
12/27/2020 10:15:00 AM 3.9 39.02 0.06 6.33 5.3 12.46
12/27/2020 10:30:00 AM 3.94 39.092 0.06 6.32 5.21 12.45
12/27/2020 10:45:00 AM 4.01 39.218 0.06 6.35 5.08 12.44
12/27/2020 11:00:00 AM 4.07 39.326 0.06 6.34 4.66 12.42
12/27/2020 11:15:00 AM 4.13 39.434 0.06 6.36 5.2 12.41
12/27/2020 11:30:00 AM 4.2 39.56 0.06 6.35 5.15 12.39
12/27/2020 11:45:00 AM 4.25 39.65 0.061 6.36 5.18 12.36
12/27/2020 12:00:00 PM 4.31 39.758 0.061 6.37 4.99 12.34
12/27/2020 12:15:00 PM 4.37 39.866 0.061 6.37 5.03 12.31
12/27/2020 12:30:00 PM 4.42 39.956 0.061 6.36 5.44 12.29
12/27/2020 12:45:00 PM 4.47 40.046 0.061 6.35 5.28 12.27
12/27/2020 1:00:00 PM 4.5 40.1 0.061 6.36 5.07 12.25
12/27/2020 1:15:00 PM 4.55 40.19 0.061 6.37 4.9 12.23
12/27/2020 1:30:00 PM 4.59 40.262 0.061 6.37 5.06 12.21
12/27/2020 1:45:00 PM 4.62 40.316 0.061 6.36 5.1 12.2
12/27/2020 2:00:00 PM 4.64 40.352 0.061 6.36 5.09 12.19
12/27/2020 2:15:00 PM 4.66 40.388 0.061 6.36 4.92 12.18
12/27/2020 2:30:00 PM 4.66 40.388 0.061 6.36 4.86 12.17
12/27/2020 2:45:00 PM 4.66 40.388 0.061 6.36 5 12.17
12/27/2020 3:00:00 PM 4.66 40.388 0.061 6.36 5.13 12.17
12/27/2020 3:15:00 PM 4.66 40.388 0.061 6.36 5 12.17
12/27/2020 3:30:00 PM 4.64 40.352 0.061 6.35 5.13 12.17
12/27/2020 3:45:00 PM 4.61 40.298 0.061 6.36 5.02 12.17
12/27/2020 4:00:00 PM 4.58 40.244 0.061 6.33 5.18 12.18
12/27/2020 4:15:00 PM 4.55 40.19 0.061 6.34 5 12.18
12/27/2020 4:30:00 PM 4.51 40.118 0.061 6.33 4.88 12.18
12/27/2020 4:45:00 PM 4.48 40.064 0.061 6.32 4.86 12.19
12/27/2020 5:00:00 PM 4.43 39.974 0.061 6.33 5.16 12.19
12/27/2020 5:15:00 PM 4.39 39.902 0.061 6.32 5.01 12.2
12/27/2020 5:30:00 PM 4.35 39.83 0.061 6.31 4.92 12.21
12/27/2020 5:45:00 PM 4.32 39.776 0.061 6.31 5.03 12.22
12/27/2020 6:00:00 PM 4.29 39.722 0.061 6.31 5.07 12.23
12/27/2020 6:15:00 PM 4.25 39.65 0.061 6.31 5.1 12.24
12/27/2020 6:30:00 PM 4.22 39.596 0.061 6.31 5.09 12.25
12/27/2020 6:45:00 PM 4.19 39.542 0.061 6.32 5.2 12.26
12/27/2020 7:00:00 PM 4.17 39.506 0.062 6.32 5.19 12.27
12/27/2020 7:15:00 PM 4.14 39.452 0.062 6.32 5.17 12.28
12/27/2020 7:30:00 PM 4.11 39.398 0.062 6.3 5.07 12.29
12/27/2020 7:45:00 PM 4.08 39.344 0.062 6.31 4.9 12.3
12/27/2020 8:00:00 PM 4.05 39.29 0.062 6.32 5 12.31
12/27/2020 8:15:00 PM 4.03 39.254 0.062 6.32 4.98 12.31
12/27/2020 8:30:00 PM 4.01 39.218 0.062 6.32 4.87 12.32
12/27/2020 8:45:00 PM 3.99 39.182 0.062 6.31 5.03 12.33
12/27/2020 9:00:00 PM 3.97 39.146 0.062 6.32 4.8 12.34
12/27/2020 9:15:00 PM 3.95 39.11 0.062 6.32 4.59 12.35
12/27/2020 9:30:00 PM 3.93 39.074 0.062 6.31 4.66 12.35
12/27/2020 9:45:00 PM 3.92 39.056 0.062 6.31 4.44 12.36
12/27/2020 10:00:00 PM 3.91 39.038 0.062 6.33 4.8 12.36
12/27/2020 10:15:00 PM 3.91 39.038 0.062 6.33 4.78 12.36
12/27/2020 10:30:00 PM 3.91 39.038 0.062 6.32 4.7 12.36
12/27/2020 10:45:00 PM 3.91 39.038 0.062 6.34 4.48 12.36
12/27/2020 11:00:00 PM 3.9 39.02 0.062 6.34 4.25 12.36
12/27/2020 11:15:00 PM 3.91 39.038 0.062 6.34 4.52 12.35
12/27/2020 11:30:00 PM 3.9 39.02 0.062 6.35 4.4 12.35
12/27/2020 11:45:00 PM 3.9 39.02 0.062 6.35 4.37 12.35
12/28/2020 12:00:00 AM 3.9 39.02 0.062 6.34 4.42 12.35
12/28/2020 12:15:00 AM 3.89 39.002 0.062 6.35 4.39 12.35
12/28/2020 12:30:00 AM 3.89 39.002 0.062 6.35 4.4 12.35
12/28/2020 12:45:00 AM 3.88 38.984 0.062 6.34 4.32 12.34
12/28/2020 1:00:00 AM 3.87 38.966 0.062 6.35 4.24 12.34
12/28/2020 1:15:00 AM 3.87 38.966 0.062 6.35 4.16 12.34
12/28/2020 1:30:00 AM 3.86 38.948 0.062 6.35 4.23 12.34
12/28/2020 1:45:00 AM 3.85 38.93 0.062 6.33 4.21 12.34
12/28/2020 2:00:00 AM 3.85 38.93 0.062 6.35 4.18 12.34
12/28/2020 2:15:00 AM 3.85 38.93 0.062 6.33 4.27 12.34
12/28/2020 2:30:00 AM 3.85 38.93 0.062 6.35 4.3 12.34
12/28/2020 2:45:00 AM 3.86 38.948 0.062 6.36 4.4 12.34
12/28/2020 3:00:00 AM 3.87 38.966 0.062 6.35 4.25 12.33
12/28/2020 3:15:00 AM 3.88 38.984 0.062 6.36 4.45 12.33
12/28/2020 3:30:00 AM 3.9 39.02 0.062 6.35 4.29 12.33
12/28/2020 3:45:00 AM 3.92 39.056 0.062 6.35 4.39 12.32
12/28/2020 4:00:00 AM 3.94 39.092 0.063 6.36 4.32 12.3
12/28/2020 4:15:00 AM 3.96 39.128 0.063 6.37 4.08 12.3
12/28/2020 4:30:00 AM 3.92 39.056 0.063 6.36 4.07 12.29
12/28/2020 4:45:00 AM 3.8 38.84 0.062 6.32 4.31 12.3
12/28/2020 5:00:00 AM 3.75 38.75 0.062 6.33 4.11 12.31
12/28/2020 5:15:00 AM 3.79 38.822 0.062 6.35 3.99 12.32
12/28/2020 5:30:00 AM 3.8 38.84 0.062 6.35 4.15 12.33
12/28/2020 5:45:00 AM 3.74 38.732 0.062 6.33 4.36 12.35
12/28/2020 6:00:00 AM 3.72 38.696 0.062 6.35 4 12.37
12/28/2020 6:15:00 AM 3.74 38.732 0.062 6.35 4.01 12.37
12/28/2020 6:30:00 AM 3.76 38.768 0.062 6.35 4.07 12.37
12/28/2020 6:45:00 AM 3.78 38.804 0.062 6.36 4.03 12.36
12/28/2020 7:00:00 AM 3.81 38.858 0.062 6.35 4.14 12.35
12/28/2020 7:15:00 AM 3.84 38.912 0.062 6.36 3.92 12.34
12/28/2020 7:30:00 AM 3.88 38.984 0.063 6.36 3.99 12.33
12/28/2020 7:45:00 AM 3.91 39.038 0.063 6.36 4.04 12.32
12/28/2020 8:00:00 AM 3.93 39.074 0.063 6.37 4.11 12.31
12/28/2020 8:15:00 AM 3.97 39.146 0.063 6.37 3.91 12.3
12/28/2020 8:30:00 AM 4.01 39.218 0.063 6.37 3.98 12.29
12/28/2020 8:45:00 AM 4.04 39.272 0.063 6.38 3.79 12.28
12/28/2020 9:00:00 AM 4.09 39.362 0.063 6.37 3.72 12.27
12/28/2020 9:15:00 AM